<?xml version='1.0' encoding='UTF-8'?><gpx version="1.1" creator="JPX - https://github.com/jenetics/jpx" xmlns="http://www.topografix.com/GPX/1/1"><trk><trkseg><trkpt lat="49.978298022554014" lon="5.256246616888413"><ele>389.0</ele><time>2026-04-12T08:15:45Z</time></trkpt><trkpt lat="49.97834213830165" lon="5.256332522725936"><ele>389.0</ele><time>2026-04-12T08:15:52Z</time></trkpt><trkpt lat="49.978394605041416" lon="5.256388585551284"><ele>389.0</ele><time>2026-04-12T08:15:59Z</time></trkpt><trkpt lat="49.97845322616533" lon="5.256435742534677"><ele>389.0</ele><time>2026-04-12T08:16:08Z</time></trkpt><trkpt lat="49.97851935291418" lon="5.25644090077702"><ele>389.0</ele><time>2026-04-12T08:16:15Z</time></trkpt><trkpt lat="49.97858652626134" lon="5.256454714454691"><ele>389.0</ele><time>2026-04-12T08:16:21Z</time></trkpt><trkpt lat="49.978655019293775" lon="5.256469297604791"><ele>389.0</ele><time>2026-04-12T08:16:27Z</time></trkpt><trkpt lat="49.97872627883393" lon="5.256500664030501"><ele>389.5714285714286</ele><time>2026-04-12T08:16:34Z</time></trkpt><trkpt lat="49.97879273183621" lon="5.256519924034162"><ele>390.1428571428571</ele><time>2026-04-12T08:16:40Z</time></trkpt><trkpt lat="49.978858157343176" lon="5.256543558468721"><ele>390.7142857142857</ele><time>2026-04-12T08:16:46Z</time></trkpt><trkpt lat="49.9789247605837" lon="5.256559699544981"><ele>391.28571428571433</ele><time>2026-04-12T08:16:51Z</time></trkpt><trkpt lat="49.97898987476205" lon="5.256562534448343"><ele>391.8571428571429</ele><time>2026-04-12T08:16:58Z</time></trkpt><trkpt lat="49.97905549699122" lon="5.2565649939338535"><ele>392.42857142857144</ele><time>2026-04-12T08:17:07Z</time></trkpt><trkpt lat="49.97907226688802" lon="5.25666427658819"><ele>393.0</ele><time>2026-04-12T08:17:15Z</time></trkpt><trkpt lat="49.97906145796991" lon="5.256781597874141"><ele>393.00000000000006</ele><time>2026-04-12T08:17:25Z</time></trkpt><trkpt lat="49.979013766698706" lon="5.256858038273528"><ele>393.0</ele><time>2026-04-12T08:17:31Z</time></trkpt><trkpt lat="49.97896315582343" lon="5.256918805024286"><ele>393.0</ele><time>2026-04-12T08:17:36Z</time></trkpt><trkpt lat="49.978908012806336" lon="5.256977748681616"><ele>393.0</ele><time>2026-04-12T08:17:41Z</time></trkpt><trkpt lat="49.97885158144619" lon="5.257038598998782"><ele>393.0</ele><time>2026-04-12T08:17:46Z</time></trkpt><trkpt lat="49.978805940492016" lon="5.257117607969956"><ele>393.00000000000006</ele><time>2026-04-12T08:17:51Z</time></trkpt><trkpt lat="49.97876754121222" lon="5.257205236339711"><ele>393.0</ele><time>2026-04-12T08:17:56Z</time></trkpt><trkpt lat="49.97874119621467" lon="5.257299005142451"><ele>393.00000000000006</ele><time>2026-04-12T08:18:01Z</time></trkpt><trkpt lat="49.978712699730444" lon="5.257397723609588"><ele>393.0</ele><time>2026-04-12T08:18:07Z</time></trkpt><trkpt lat="49.978661219601356" lon="5.25745932033458"><ele>393.0</ele><time>2026-04-12T08:18:16Z</time></trkpt><trkpt lat="49.97862601874853" lon="5.257548005366654"><ele>393.0</ele><time>2026-04-12T08:18:26Z</time></trkpt><trkpt lat="49.97861361913054" lon="5.257658866253715"><ele>393.0</ele><time>2026-04-12T08:18:33Z</time></trkpt><trkpt lat="49.97859355810858" lon="5.257768114719645"><ele>393.00000000000006</ele><time>2026-04-12T08:18:40Z</time></trkpt><trkpt lat="49.978596181918896" lon="5.257889149904193"><ele>393.0</ele><time>2026-04-12T08:18:46Z</time></trkpt><trkpt lat="49.97859768777554" lon="5.258004188715623"><ele>393.00000000000006</ele><time>2026-04-12T08:18:51Z</time></trkpt><trkpt lat="49.97859818696805" lon="5.258115996860781"><ele>393.0</ele><time>2026-04-12T08:18:56Z</time></trkpt><trkpt lat="49.97857472095081" lon="5.258217141366642"><ele>393.0</ele><time>2026-04-12T08:19:01Z</time></trkpt><trkpt lat="49.97855792418713" lon="5.258325178768469"><ele>393.0</ele><time>2026-04-12T08:19:08Z</time></trkpt><trkpt lat="49.97854674313072" lon="5.258423949992836"><ele>393.0</ele><time>2026-04-12T08:19:13Z</time></trkpt><trkpt lat="49.978535904510714" lon="5.2585345301891975"><ele>393.00000000000006</ele><time>2026-04-12T08:19:19Z</time></trkpt><trkpt lat="49.97853151601173" lon="5.258634019539953"><ele>393.0</ele><time>2026-04-12T08:19:24Z</time></trkpt><trkpt lat="49.97851614489723" lon="5.25873285413854"><ele>392.7142857142857</ele><time>2026-04-12T08:19:29Z</time></trkpt><trkpt lat="49.978502275425996" lon="5.258845564457227"><ele>392.42857142857144</ele><time>2026-04-12T08:19:35Z</time></trkpt><trkpt lat="49.97848907856159" lon="5.258959798153"><ele>392.1428571428571</ele><time>2026-04-12T08:19:41Z</time></trkpt><trkpt lat="49.97847720702915" lon="5.25907259797377"><ele>391.8571428571429</ele><time>2026-04-12T08:19:48Z</time></trkpt><trkpt lat="49.97845816759612" lon="5.259178824731809"><ele>391.57142857142856</ele><time>2026-04-12T08:19:54Z</time></trkpt><trkpt lat="49.97845888652441" lon="5.2592874917115395"><ele>391.2857142857143</ele><time>2026-04-12T08:19:59Z</time></trkpt><trkpt lat="49.978450458239486" lon="5.259386937926866"><ele>391.0</ele><time>2026-04-12T08:20:05Z</time></trkpt><trkpt lat="49.97843336237382" lon="5.25948149438922"><ele>391.57142857142856</ele><time>2026-04-12T08:20:11Z</time></trkpt><trkpt lat="49.978420376827984" lon="5.259586100534436"><ele>392.1428571428571</ele><time>2026-04-12T08:20:17Z</time></trkpt><trkpt lat="49.97840733023011" lon="5.259687767199601"><ele>392.71428571428567</ele><time>2026-04-12T08:20:22Z</time></trkpt><trkpt lat="49.97840362932129" lon="5.259800557282228"><ele>393.2857142857143</ele><time>2026-04-12T08:20:28Z</time></trkpt><trkpt lat="49.97841108820862" lon="5.2599106479573905"><ele>393.8571428571429</ele><time>2026-04-12T08:20:34Z</time></trkpt><trkpt lat="49.97841380260971" lon="5.260022723778276"><ele>394.4285714285714</ele><time>2026-04-12T08:20:40Z</time></trkpt><trkpt lat="49.978405924674966" lon="5.260124516908687"><ele>395.0</ele><time>2026-04-12T08:20:46Z</time></trkpt><trkpt lat="49.97840233243264" lon="5.260244371068737"><ele>395.57142857142856</ele><time>2026-04-12T08:20:52Z</time></trkpt><trkpt lat="49.97838815962903" lon="5.260340784409567"><ele>396.14285714285717</ele><time>2026-04-12T08:20:58Z</time></trkpt><trkpt lat="49.97838103272353" lon="5.260450260706935"><ele>396.7142857142857</ele><time>2026-04-12T08:21:04Z</time></trkpt><trkpt lat="49.97838243316222" lon="5.260551480610598"><ele>397.2857142857143</ele><time>2026-04-12T08:21:09Z</time></trkpt><trkpt lat="49.97838221573781" lon="5.260672181740563"><ele>397.8571428571429</ele><time>2026-04-12T08:21:15Z</time></trkpt><trkpt lat="49.97837769238292" lon="5.260787080887016"><ele>398.42857142857144</ele><time>2026-04-12T08:21:22Z</time></trkpt><trkpt lat="49.978375363308444" lon="5.260889362490968"><ele>399.0</ele><time>2026-04-12T08:21:28Z</time></trkpt><trkpt lat="49.978374366625765" lon="5.260998847428973"><ele>399.42857142857144</ele><time>2026-04-12T08:21:34Z</time></trkpt><trkpt lat="49.97836789759123" lon="5.261106014399787"><ele>399.8571428571429</ele><time>2026-04-12T08:21:40Z</time></trkpt><trkpt lat="49.97836770411753" lon="5.2612171881287155"><ele>400.2857142857143</ele><time>2026-04-12T08:21:46Z</time></trkpt><trkpt lat="49.978378010460816" lon="5.261328068674509"><ele>400.7142857142857</ele><time>2026-04-12T08:21:52Z</time></trkpt><trkpt lat="49.97838252728465" lon="5.261444537877599"><ele>401.14285714285717</ele><time>2026-04-12T08:21:58Z</time></trkpt><trkpt lat="49.97838803330367" lon="5.2615510033491155"><ele>401.57142857142856</ele><time>2026-04-12T08:22:14Z</time></trkpt><trkpt lat="49.97839095763822" lon="5.261661343284144"><ele>402.0</ele><time>2026-04-12T08:22:20Z</time></trkpt><trkpt lat="49.97839156164689" lon="5.261770401425444"><ele>402.0</ele><time>2026-04-12T08:22:27Z</time></trkpt><trkpt lat="49.97839639541222" lon="5.261871215070931"><ele>402.0</ele><time>2026-04-12T08:22:32Z</time></trkpt><trkpt lat="49.97840039983639" lon="5.261985155335439"><ele>402.0</ele><time>2026-04-12T08:22:38Z</time></trkpt><trkpt lat="49.978398502881646" lon="5.262093338445577"><ele>402.0</ele><time>2026-04-12T08:22:44Z</time></trkpt><trkpt lat="49.97840030797084" lon="5.26220307725637"><ele>402.0</ele><time>2026-04-12T08:22:50Z</time></trkpt><trkpt lat="49.97840344923211" lon="5.2623128235361865"><ele>402.0</ele><time>2026-04-12T08:22:56Z</time></trkpt><trkpt lat="49.97841149337026" lon="5.262429127654356"><ele>402.0</ele><time>2026-04-12T08:23:02Z</time></trkpt><trkpt lat="49.97842134806097" lon="5.262543020189861"><ele>402.2857142857143</ele><time>2026-04-12T08:23:08Z</time></trkpt><trkpt lat="49.978418346994" lon="5.262654904893828"><ele>402.5714285714286</ele><time>2026-04-12T08:23:15Z</time></trkpt><trkpt lat="49.97840697203519" lon="5.262757678620691"><ele>402.8571428571429</ele><time>2026-04-12T08:23:23Z</time></trkpt><trkpt lat="49.97840999195626" lon="5.2628590462800995"><ele>403.1428571428571</ele><time>2026-04-12T08:23:28Z</time></trkpt><trkpt lat="49.978424703501275" lon="5.262956510774107"><ele>403.42857142857144</ele><time>2026-04-12T08:23:33Z</time></trkpt><trkpt lat="49.97843238765505" lon="5.263054050644047"><ele>403.7142857142857</ele><time>2026-04-12T08:23:38Z</time></trkpt><trkpt lat="49.97843723463856" lon="5.26317423843805"><ele>404.0</ele><time>2026-04-12T08:23:44Z</time></trkpt><trkpt lat="49.97844453753522" lon="5.263292147460963"><ele>404.1428571428571</ele><time>2026-04-12T08:23:50Z</time></trkpt><trkpt lat="49.97843526223568" lon="5.263396318138593"><ele>404.2857142857143</ele><time>2026-04-12T08:23:56Z</time></trkpt><trkpt lat="49.97843784039225" lon="5.26350314389557"><ele>404.42857142857144</ele><time>2026-04-12T08:24:02Z</time></trkpt><trkpt lat="49.978436180899216" lon="5.263614265091219"><ele>404.57142857142856</ele><time>2026-04-12T08:24:07Z</time></trkpt><trkpt lat="49.97843262133876" lon="5.263729832811257"><ele>404.7142857142857</ele><time>2026-04-12T08:24:13Z</time></trkpt><trkpt lat="49.978437126515495" lon="5.26383117413377"><ele>404.85714285714283</ele><time>2026-04-12T08:24:18Z</time></trkpt><trkpt lat="49.97842984446055" lon="5.263937337018038"><ele>405.0</ele><time>2026-04-12T08:24:24Z</time></trkpt><trkpt lat="49.978427441305314" lon="5.264038160818554"><ele>404.99999999999994</ele><time>2026-04-12T08:24:30Z</time></trkpt><trkpt lat="49.978420892934146" lon="5.26414653549697"><ele>405.0</ele><time>2026-04-12T08:24:36Z</time></trkpt><trkpt lat="49.97839076219265" lon="5.26423845776427"><ele>405.0</ele><time>2026-04-12T08:24:42Z</time></trkpt><trkpt lat="49.97834571399134" lon="5.264318188542767"><ele>405.0</ele><time>2026-04-12T08:24:50Z</time></trkpt><trkpt lat="49.97830999598436" lon="5.264400413612747"><ele>405.0</ele><time>2026-04-12T08:24:56Z</time></trkpt><trkpt lat="49.97827587413213" lon="5.264487966170132"><ele>404.99999999999994</ele><time>2026-04-12T08:25:01Z</time></trkpt><trkpt lat="49.97824552206988" lon="5.264586364772122"><ele>405.0</ele><time>2026-04-12T08:25:08Z</time></trkpt><trkpt lat="49.978220770221526" lon="5.264676743573787"><ele>405.99999999999994</ele><time>2026-04-12T08:25:14Z</time></trkpt><trkpt lat="49.97820251802859" lon="5.2647722031434"><ele>407.0</ele><time>2026-04-12T08:25:20Z</time></trkpt><trkpt lat="49.978184848127725" lon="5.264867799442272"><ele>408.0</ele><time>2026-04-12T08:25:25Z</time></trkpt><trkpt lat="49.978159256975005" lon="5.2649785633858395"><ele>409.0</ele><time>2026-04-12T08:25:32Z</time></trkpt><trkpt lat="49.97814299639326" lon="5.265079609452748"><ele>410.0</ele><time>2026-04-12T08:25:39Z</time></trkpt><trkpt lat="49.97811308748509" lon="5.265170851849954"><ele>410.99999999999994</ele><time>2026-04-12T08:25:45Z</time></trkpt><trkpt lat="49.97807901613951" lon="5.2652597635937735"><ele>412.0</ele><time>2026-04-12T08:25:51Z</time></trkpt><trkpt lat="49.97805081716613" lon="5.265352129513215"><ele>412.71428571428567</ele><time>2026-04-12T08:25:58Z</time></trkpt><trkpt lat="49.978017224120435" lon="5.265453276037419"><ele>413.42857142857144</ele><time>2026-04-12T08:26:05Z</time></trkpt><trkpt lat="49.97798500601469" lon="5.265549318103918"><ele>414.1428571428571</ele><time>2026-04-12T08:26:12Z</time></trkpt><trkpt lat="49.97793368764001" lon="5.265633900050811"><ele>414.85714285714283</ele><time>2026-04-12T08:26:19Z</time></trkpt><trkpt lat="49.977890588777434" lon="5.2657140713664585"><ele>415.57142857142856</ele><time>2026-04-12T08:26:27Z</time></trkpt><trkpt lat="49.97783800160874" lon="5.265780723263695"><ele>416.2857142857143</ele><time>2026-04-12T08:26:35Z</time></trkpt><trkpt lat="49.97778472508133" lon="5.265838071468336"><ele>417.0</ele><time>2026-04-12T08:26:41Z</time></trkpt><trkpt lat="49.97773033390117" lon="5.2659028600197075"><ele>417.14285714285717</ele><time>2026-04-12T08:26:47.999Z</time></trkpt><trkpt lat="49.97767585816816" lon="5.265970138827865"><ele>417.2857142857143</ele><time>2026-04-12T08:26:54.999Z</time></trkpt><trkpt lat="49.9776277188383" lon="5.2660661602166465"><ele>417.42857142857144</ele><time>2026-04-12T08:27:01.999Z</time></trkpt><trkpt lat="49.97757431985235" lon="5.266147557304052"><ele>417.57142857142856</ele><time>2026-04-12T08:27:07.999Z</time></trkpt><trkpt lat="49.97753460748409" lon="5.266231641245133"><ele>417.71428571428567</ele><time>2026-04-12T08:27:12.999Z</time></trkpt><trkpt lat="49.977477001146035" lon="5.266304756425246"><ele>417.85714285714283</ele><time>2026-04-12T08:27:20.999Z</time></trkpt><trkpt lat="49.977455939374444" lon="5.266397073435843"><ele>418.0</ele><time>2026-04-12T08:27:25.999Z</time></trkpt><trkpt lat="49.977424864117076" lon="5.266495651572033"><ele>419.42857142857144</ele><time>2026-04-12T08:27:32.999Z</time></trkpt><trkpt lat="49.97739523281278" lon="5.2665978899144505"><ele>420.85714285714283</ele><time>2026-04-12T08:27:39.999Z</time></trkpt><trkpt lat="49.977353213094354" lon="5.266684968198559"><ele>422.28571428571433</ele><time>2026-04-12T08:27:45.999Z</time></trkpt><trkpt lat="49.97733766193837" lon="5.266785211118116"><ele>423.7142857142857</ele><time>2026-04-12T08:27:50.999Z</time></trkpt><trkpt lat="49.977310183726075" lon="5.2668821206325"><ele>425.14285714285717</ele><time>2026-04-12T08:27:57.999Z</time></trkpt><trkpt lat="49.97727992556126" lon="5.266969019118949"><ele>426.5714285714286</ele><time>2026-04-12T08:28:02.999Z</time></trkpt><trkpt lat="49.97724131215782" lon="5.26704853665476"><ele>428.0</ele><time>2026-04-12T08:28:09.999Z</time></trkpt><trkpt lat="49.97720579477251" lon="5.267136114906011"><ele>428.00000000000006</ele><time>2026-04-12T08:28:16Z</time></trkpt><trkpt lat="49.9771842246048" lon="5.267241913059432"><ele>428.0</ele><time>2026-04-12T08:28:22Z</time></trkpt><trkpt lat="49.977150821842024" lon="5.2673446092993705"><ele>428.0</ele><time>2026-04-12T08:28:29Z</time></trkpt><trkpt lat="49.97710680544927" lon="5.267420433535664"><ele>428.0</ele><time>2026-04-12T08:28:35Z</time></trkpt><trkpt lat="49.97706314036761" lon="5.267502776883724"><ele>428.0</ele><time>2026-04-12T08:28:41Z</time></trkpt><trkpt lat="49.97701760992671" lon="5.267579753845251"><ele>428.00000000000006</ele><time>2026-04-12T08:28:47Z</time></trkpt><trkpt lat="49.976970481893964" lon="5.2676751080850925"><ele>428.0</ele><time>2026-04-12T08:28:54Z</time></trkpt><trkpt lat="49.976920197893534" lon="5.2677425724748685"><ele>427.5714285714286</ele><time>2026-04-12T08:29:01Z</time></trkpt><trkpt lat="49.97688031966442" lon="5.2678261832651465"><ele>427.14285714285717</ele><time>2026-04-12T08:29:07Z</time></trkpt><trkpt lat="49.97683856661898" lon="5.267904451232996"><ele>426.7142857142857</ele><time>2026-04-12T08:29:13Z</time></trkpt><trkpt lat="49.976787989002844" lon="5.267982103022696"><ele>426.28571428571433</ele><time>2026-04-12T08:29:21Z</time></trkpt><trkpt lat="49.97673619829721" lon="5.268068447341761"><ele>425.85714285714283</ele><time>2026-04-12T08:29:27Z</time></trkpt><trkpt lat="49.97669601033878" lon="5.26815733767126"><ele>425.42857142857144</ele><time>2026-04-12T08:29:33.999Z</time></trkpt><trkpt lat="49.97664276205315" lon="5.268221986050386"><ele>425.0</ele><time>2026-04-12T08:29:40.999Z</time></trkpt><trkpt lat="49.9765942905751" lon="5.268294490732358"><ele>426.2857142857143</ele><time>2026-04-12T08:29:45.999Z</time></trkpt><trkpt lat="49.97655263361148" lon="5.268368241442219"><ele>427.57142857142856</ele><time>2026-04-12T08:29:52.999Z</time></trkpt><trkpt lat="49.97650196996893" lon="5.268427399975118"><ele>428.8571428571429</ele><time>2026-04-12T08:29:59.999Z</time></trkpt><trkpt lat="49.97645012224936" lon="5.268498532284719"><ele>430.1428571428571</ele><time>2026-04-12T08:30:05.999Z</time></trkpt><trkpt lat="49.9763968722888" lon="5.2685671504174305"><ele>431.42857142857144</ele><time>2026-04-12T08:30:11.999Z</time></trkpt><trkpt lat="49.97634033333957" lon="5.2686309884264055"><ele>432.7142857142857</ele><time>2026-04-12T08:30:18Z</time></trkpt><trkpt lat="49.97628057121978" lon="5.268683918646804"><ele>434.0</ele><time>2026-04-12T08:30:24Z</time></trkpt><trkpt lat="49.97621833782358" lon="5.26874351952219"><ele>434.0</ele><time>2026-04-12T08:30:31Z</time></trkpt><trkpt lat="49.976162911306346" lon="5.268688332828602"><ele>434.0</ele><time>2026-04-12T08:30:38Z</time></trkpt><trkpt lat="49.976135022013985" lon="5.268598351439307"><ele>434.0</ele><time>2026-04-12T08:30:44Z</time></trkpt><trkpt lat="49.97606891075563" lon="5.268587917156477"><ele>434.0</ele><time>2026-04-12T08:30:50Z</time></trkpt><trkpt lat="49.976009548981025" lon="5.268552800092352"><ele>434.0</ele><time>2026-04-12T08:30:57Z</time></trkpt><trkpt lat="49.975946824132485" lon="5.268593898434812"><ele>434.0</ele><time>2026-04-12T08:31:21.999Z</time></trkpt><trkpt lat="49.97591931292535" lon="5.268687365901243"><ele>434.0</ele><time>2026-04-12T08:31:27.999Z</time></trkpt><trkpt lat="49.97590053785038" lon="5.268788470931521"><ele>434.0</ele><time>2026-04-12T08:31:33.999Z</time></trkpt><trkpt lat="49.975873750057886" lon="5.268894043725767"><ele>434.0</ele><time>2026-04-12T08:31:39.999Z</time></trkpt><trkpt lat="49.97584622599223" lon="5.268989277358229"><ele>434.0</ele><time>2026-04-12T08:31:45.999Z</time></trkpt><trkpt lat="49.975806691143646" lon="5.26909371958945"><ele>434.0</ele><time>2026-04-12T08:31:51.999Z</time></trkpt><trkpt lat="49.97577187590503" lon="5.269184073333381"><ele>434.0</ele><time>2026-04-12T08:31:57.999Z</time></trkpt><trkpt lat="49.97573566624966" lon="5.269287813311819"><ele>434.0</ele><time>2026-04-12T08:32:04.999Z</time></trkpt><trkpt lat="49.975700519624965" lon="5.269378585760924"><ele>434.0</ele><time>2026-04-12T08:32:10.999Z</time></trkpt><trkpt lat="49.97567589617615" lon="5.269468946093834"><ele>434.14285714285717</ele><time>2026-04-12T08:32:15.999Z</time></trkpt><trkpt lat="49.97565011039009" lon="5.2695645406922536"><ele>434.2857142857143</ele><time>2026-04-12T08:32:21.999Z</time></trkpt><trkpt lat="49.97561340367148" lon="5.269648965281785"><ele>434.42857142857144</ele><time>2026-04-12T08:32:27Z</time></trkpt><trkpt lat="49.97558588195334" lon="5.269756951958027"><ele>434.57142857142856</ele><time>2026-04-12T08:32:34Z</time></trkpt><trkpt lat="49.97554731562029" lon="5.269850772833595"><ele>434.7142857142857</ele><time>2026-04-12T08:32:40Z</time></trkpt><trkpt lat="49.9755170096985" lon="5.269947453502412"><ele>434.8571428571429</ele><time>2026-04-12T08:32:46Z</time></trkpt><trkpt lat="49.97548279080912" lon="5.2700469252732836"><ele>435.0</ele><time>2026-04-12T08:32:52Z</time></trkpt><trkpt lat="49.97546168575101" lon="5.270144613191254"><ele>435.42857142857144</ele><time>2026-04-12T08:32:58Z</time></trkpt><trkpt lat="49.97542369200247" lon="5.270243123540769"><ele>435.8571428571429</ele><time>2026-04-12T08:33:03.999Z</time></trkpt><trkpt lat="49.97538917996454" lon="5.270335310285331"><ele>436.28571428571433</ele><time>2026-04-12T08:33:09.999Z</time></trkpt><trkpt lat="49.975359699869195" lon="5.270439309873974"><ele>436.7142857142857</ele><time>2026-04-12T08:33:15.999Z</time></trkpt><trkpt lat="49.97532828962417" lon="5.270531740645501"><ele>437.1428571428571</ele><time>2026-04-12T08:33:21.999Z</time></trkpt><trkpt lat="49.97529892887889" lon="5.270619944232241"><ele>437.5714285714286</ele><time>2026-04-12T08:33:26.999Z</time></trkpt><trkpt lat="49.97526434032946" lon="5.270704212237793"><ele>438.0</ele><time>2026-04-12T08:33:32.999Z</time></trkpt><trkpt lat="49.97523313297489" lon="5.270794951530879"><ele>438.14285714285717</ele><time>2026-04-12T08:33:37.999Z</time></trkpt><trkpt lat="49.97519385491353" lon="5.270885349038684"><ele>438.2857142857143</ele><time>2026-04-12T08:33:43.999Z</time></trkpt><trkpt lat="49.97515352586474" lon="5.270978270772824"><ele>438.42857142857144</ele><time>2026-04-12T08:33:49.999Z</time></trkpt><trkpt lat="49.97511479233206" lon="5.271066279780511"><ele>438.57142857142856</ele><time>2026-04-12T08:33:54.999Z</time></trkpt><trkpt lat="49.97507502100939" lon="5.27114488335076"><ele>438.71428571428567</ele><time>2026-04-12T08:33:59.999Z</time></trkpt><trkpt lat="49.9750277930327" lon="5.271229659931649"><ele>438.85714285714283</ele><time>2026-04-12T08:34:05.999Z</time></trkpt><trkpt lat="49.97498225574516" lon="5.271323933005964"><ele>439.0</ele><time>2026-04-12T08:34:12.999Z</time></trkpt><trkpt lat="49.97494931252231" lon="5.271412708134299"><ele>439.7142857142857</ele><time>2026-04-12T08:34:17.999Z</time></trkpt><trkpt lat="49.97490938876492" lon="5.271494280063922"><ele>440.42857142857144</ele><time>2026-04-12T08:34:22.999Z</time></trkpt><trkpt lat="49.97486150523669" lon="5.271582407169135"><ele>441.1428571428571</ele><time>2026-04-12T08:34:29Z</time></trkpt><trkpt lat="49.97481726181078" lon="5.271673092823485"><ele>441.8571428571429</ele><time>2026-04-12T08:34:35Z</time></trkpt><trkpt lat="49.97477176092882" lon="5.271763782252463"><ele>442.5714285714286</ele><time>2026-04-12T08:34:41Z</time></trkpt><trkpt lat="49.97472537973244" lon="5.271853639218488"><ele>443.2857142857143</ele><time>2026-04-12T08:34:47Z</time></trkpt><trkpt lat="49.974686599785194" lon="5.271944623874767"><ele>444.0</ele><time>2026-04-12T08:34:52.999Z</time></trkpt><trkpt lat="49.9746512730647" lon="5.27202582665144"><ele>444.0</ele><time>2026-04-12T08:34:57.999Z</time></trkpt><trkpt lat="49.97461569124698" lon="5.27210749990995"><ele>444.0</ele><time>2026-04-12T08:35:02.999Z</time></trkpt><trkpt lat="49.97456863750492" lon="5.272196995889983"><ele>444.0</ele><time>2026-04-12T08:35:08.999Z</time></trkpt><trkpt lat="49.97453232760252" lon="5.272283410343943"><ele>444.0</ele><time>2026-04-12T08:35:14.999Z</time></trkpt><trkpt lat="49.97448765738732" lon="5.272363819260747"><ele>444.0</ele><time>2026-04-12T08:35:20.999Z</time></trkpt><trkpt lat="49.974441345242354" lon="5.272460240881672"><ele>444.0</ele><time>2026-04-12T08:35:26.999Z</time></trkpt><trkpt lat="49.97440427152277" lon="5.272548652759719"><ele>444.0</ele><time>2026-04-12T08:35:31.999Z</time></trkpt><trkpt lat="49.97435783172537" lon="5.272637677710269"><ele>444.2857142857143</ele><time>2026-04-12T08:35:37.999Z</time></trkpt><trkpt lat="49.97432006443131" lon="5.272731750883706"><ele>444.5714285714286</ele><time>2026-04-12T08:35:43.999Z</time></trkpt><trkpt lat="49.97426952892309" lon="5.272813692729122"><ele>444.8571428571429</ele><time>2026-04-12T08:35:49.999Z</time></trkpt><trkpt lat="49.97421865208499" lon="5.272896012944993"><ele>445.1428571428571</ele><time>2026-04-12T08:35:55.999Z</time></trkpt><trkpt lat="49.97417757291863" lon="5.272987279820428"><ele>445.42857142857144</ele><time>2026-04-12T08:36:01.999Z</time></trkpt><trkpt lat="49.97413392785322" lon="5.273076020411759"><ele>445.7142857142857</ele><time>2026-04-12T08:36:07.999Z</time></trkpt><trkpt lat="49.974088725629585" lon="5.273159917284283"><ele>446.0</ele><time>2026-04-12T08:36:13.999Z</time></trkpt><trkpt lat="49.974040474044905" lon="5.273245594738609"><ele>447.1428571428571</ele><time>2026-04-12T08:36:19.999Z</time></trkpt><trkpt lat="49.97400695933012" lon="5.273338840229437"><ele>448.2857142857143</ele><time>2026-04-12T08:36:25.999Z</time></trkpt><trkpt lat="49.973966574918705" lon="5.273430202769961"><ele>449.42857142857144</ele><time>2026-04-12T08:36:32Z</time></trkpt><trkpt lat="49.97392313772442" lon="5.273514039369823"><ele>450.57142857142856</ele><time>2026-04-12T08:36:39Z</time></trkpt><trkpt lat="49.973876771845184" lon="5.273588031443895"><ele>451.7142857142858</ele><time>2026-04-12T08:36:44Z</time></trkpt><trkpt lat="49.97383763758636" lon="5.273692407345826"><ele>452.8571428571429</ele><time>2026-04-12T08:36:50.001Z</time></trkpt><trkpt lat="49.9737939107389" lon="5.273766590329804"><ele>454.0</ele><time>2026-04-12T08:36:55Z</time></trkpt><trkpt lat="49.973744888471025" lon="5.273830705787872"><ele>454.0</ele><time>2026-04-12T08:37:01Z</time></trkpt><trkpt lat="49.973691782371624" lon="5.273893212911738"><ele>454.00000000000006</ele><time>2026-04-12T08:37:07Z</time></trkpt><trkpt lat="49.97364347621641" lon="5.273965073703976"><ele>454.0</ele><time>2026-04-12T08:37:12Z</time></trkpt><trkpt lat="49.97361017072926" lon="5.27405846810963"><ele>454.0</ele><time>2026-04-12T08:37:17Z</time></trkpt><trkpt lat="49.973574997275584" lon="5.274142538787986"><ele>454.00000000000006</ele><time>2026-04-12T08:37:23Z</time></trkpt><trkpt lat="49.97353242392139" lon="5.274222345736377"><ele>454.0</ele><time>2026-04-12T08:37:29Z</time></trkpt><trkpt lat="49.973488845960794" lon="5.2743063175446805"><ele>454.0</ele><time>2026-04-12T08:37:35Z</time></trkpt><trkpt lat="49.97344900275267" lon="5.274396887892265"><ele>453.5714285714286</ele><time>2026-04-12T08:37:42Z</time></trkpt><trkpt lat="49.973399057535616" lon="5.2744786365069105"><ele>453.1428571428572</ele><time>2026-04-12T08:37:48Z</time></trkpt><trkpt lat="49.973361046963284" lon="5.274564680984333"><ele>452.7142857142857</ele><time>2026-04-12T08:37:54Z</time></trkpt><trkpt lat="49.973313721806655" lon="5.274641799623438"><ele>452.28571428571433</ele><time>2026-04-12T08:38:00Z</time></trkpt><trkpt lat="49.97326973971268" lon="5.274719986180581"><ele>451.8571428571429</ele><time>2026-04-12T08:38:06Z</time></trkpt><trkpt lat="49.973237528234584" lon="5.274812345403972"><ele>451.42857142857144</ele><time>2026-04-12T08:38:11Z</time></trkpt><trkpt lat="49.973210309696505" lon="5.2749096530965875"><ele>451.0</ele><time>2026-04-12T08:38:17Z</time></trkpt><trkpt lat="49.97318200488401" lon="5.275013843171381"><ele>452.57142857142856</ele><time>2026-04-12T08:38:23Z</time></trkpt><trkpt lat="49.973147364736484" lon="5.275106900525848"><ele>454.14285714285717</ele><time>2026-04-12T08:38:29Z</time></trkpt><trkpt lat="49.973114751505555" lon="5.275206642314667"><ele>455.7142857142857</ele><time>2026-04-12T08:38:35Z</time></trkpt><trkpt lat="49.97309616156283" lon="5.275304237508451"><ele>457.2857142857143</ele><time>2026-04-12T08:38:40Z</time></trkpt><trkpt lat="49.9730556717605" lon="5.2753801045540065"><ele>458.8571428571429</ele><time>2026-04-12T08:38:47.001Z</time></trkpt><trkpt lat="49.97300974729969" lon="5.2754614566659415"><ele>460.42857142857144</ele><time>2026-04-12T08:38:54.001Z</time></trkpt><trkpt lat="49.97297719682368" lon="5.275555969022005"><ele>462.0</ele><time>2026-04-12T08:39:00Z</time></trkpt><trkpt lat="49.97294123027719" lon="5.275660273938725"><ele>462.0</ele><time>2026-04-12T08:39:08Z</time></trkpt><trkpt lat="49.97290040094366" lon="5.275763931594442"><ele>462.0</ele><time>2026-04-12T08:39:14Z</time></trkpt><trkpt lat="49.9728631366736" lon="5.275848916507258"><ele>462.0</ele><time>2026-04-12T08:39:19Z</time></trkpt><trkpt lat="49.97283194394214" lon="5.275945110936007"><ele>462.0</ele><time>2026-04-12T08:39:25Z</time></trkpt><trkpt lat="49.972790109355245" lon="5.276031414206079"><ele>462.0</ele><time>2026-04-12T08:39:30Z</time></trkpt><trkpt lat="49.972767887433434" lon="5.276137142479538"><ele>462.0</ele><time>2026-04-12T08:39:34Z</time></trkpt><trkpt lat="49.972740234329095" lon="5.276236891787728"><ele>462.0</ele><time>2026-04-12T08:39:40Z</time></trkpt><trkpt lat="49.97269789259837" lon="5.276332594407423"><ele>462.0</ele><time>2026-04-12T08:39:49Z</time></trkpt><trkpt lat="49.97268301621465" lon="5.276434613913373"><ele>462.0</ele><time>2026-04-12T08:39:54Z</time></trkpt><trkpt lat="49.97264562115045" lon="5.276527034175466"><ele>462.0</ele><time>2026-04-12T08:40:01Z</time></trkpt><trkpt lat="49.97261831613369" lon="5.2766238321454955"><ele>462.0</ele><time>2026-04-12T08:40:07Z</time></trkpt><trkpt lat="49.97258415119064" lon="5.2767147838415625"><ele>462.0</ele><time>2026-04-12T08:40:13Z</time></trkpt><trkpt lat="49.97254340862045" lon="5.276806061788774"><ele>462.0</ele><time>2026-04-12T08:40:20Z</time></trkpt><trkpt lat="49.972503114868154" lon="5.276889405815259"><ele>462.0</ele><time>2026-04-12T08:40:26Z</time></trkpt><trkpt lat="49.972466732525575" lon="5.276979725919054"><ele>462.8571428571429</ele><time>2026-04-12T08:40:32Z</time></trkpt><trkpt lat="49.972443554644755" lon="5.277072589939663"><ele>463.7142857142857</ele><time>2026-04-12T08:40:38Z</time></trkpt><trkpt lat="49.97240025038673" lon="5.277158153724612"><ele>464.57142857142856</ele><time>2026-04-12T08:40:43Z</time></trkpt><trkpt lat="49.972344221654616" lon="5.277245574782541"><ele>465.42857142857144</ele><time>2026-04-12T08:40:50Z</time></trkpt><trkpt lat="49.97230437036036" lon="5.277324263751618"><ele>466.28571428571433</ele><time>2026-04-12T08:40:55Z</time></trkpt><trkpt lat="49.972273993212596" lon="5.277419370082906"><ele>467.14285714285717</ele><time>2026-04-12T08:41:01Z</time></trkpt><trkpt lat="49.97224089589232" lon="5.277517968550275"><ele>468.0</ele><time>2026-04-12T08:41:07Z</time></trkpt><trkpt lat="49.97222922700821" lon="5.277628294166416"><ele>468.42857142857144</ele><time>2026-04-12T08:41:13Z</time></trkpt><trkpt lat="49.97220561066899" lon="5.277741492207293"><ele>468.8571428571429</ele><time>2026-04-12T08:41:20Z</time></trkpt><trkpt lat="49.97217353394184" lon="5.277845995681901"><ele>469.28571428571433</ele><time>2026-04-12T08:41:27Z</time></trkpt><trkpt lat="49.97213760619007" lon="5.277944163586435"><ele>469.7142857142858</ele><time>2026-04-12T08:41:33Z</time></trkpt><trkpt lat="49.97210215839663" lon="5.278026959937514"><ele>470.14285714285717</ele><time>2026-04-12T08:41:39Z</time></trkpt><trkpt lat="49.972064697414346" lon="5.27811337763763"><ele>470.57142857142867</ele><time>2026-04-12T08:41:45Z</time></trkpt><trkpt lat="49.97201923085398" lon="5.278197307105767"><ele>471.00000000000006</ele><time>2026-04-12T08:41:51Z</time></trkpt><trkpt lat="49.97198765325318" lon="5.278288838127936"><ele>471.28571428571433</ele><time>2026-04-12T08:41:56Z</time></trkpt><trkpt lat="49.971956707374694" lon="5.278376052099475"><ele>471.57142857142856</ele><time>2026-04-12T08:42:02Z</time></trkpt><trkpt lat="49.97193426499992" lon="5.278472181996333"><ele>471.8571428571429</ele><time>2026-04-12T08:42:08Z</time></trkpt><trkpt lat="49.97190652995642" lon="5.27857622867767"><ele>472.14285714285717</ele><time>2026-04-12T08:42:14Z</time></trkpt><trkpt lat="49.971866220435615" lon="5.278651692747491"><ele>472.42857142857144</ele><time>2026-04-12T08:42:20Z</time></trkpt><trkpt lat="49.97181711448868" lon="5.278725543417108"><ele>472.7142857142857</ele><time>2026-04-12T08:42:26Z</time></trkpt><trkpt lat="49.97178584776513" lon="5.278823347673386"><ele>473.0</ele><time>2026-04-12T08:42:31Z</time></trkpt><trkpt lat="49.971762926930396" lon="5.278915917889142"><ele>472.7142857142857</ele><time>2026-04-12T08:42:36Z</time></trkpt><trkpt lat="49.971720763924935" lon="5.278992490225162"><ele>472.42857142857144</ele><time>2026-04-12T08:42:42Z</time></trkpt><trkpt lat="49.97168109142035" lon="5.279084128346178"><ele>472.14285714285717</ele><time>2026-04-12T08:42:48Z</time></trkpt><trkpt lat="49.97164106297654" lon="5.279187206302736"><ele>471.8571428571429</ele><time>2026-04-12T08:42:55Z</time></trkpt><trkpt lat="49.971597178906734" lon="5.279261669558102"><ele>471.57142857142856</ele><time>2026-04-12T08:43:01Z</time></trkpt><trkpt lat="49.97155706325854" lon="5.279348667567631"><ele>471.28571428571433</ele><time>2026-04-12T08:43:07Z</time></trkpt><trkpt lat="49.97151897887115" lon="5.279440639513828"><ele>471.00000000000006</ele><time>2026-04-12T08:43:13Z</time></trkpt><trkpt lat="49.9714817716109" lon="5.27953392448795"><ele>471.8571428571429</ele><time>2026-04-12T08:43:19Z</time></trkpt><trkpt lat="49.97143767012938" lon="5.279620039780974"><ele>472.7142857142857</ele><time>2026-04-12T08:43:25Z</time></trkpt><trkpt lat="49.97140212293712" lon="5.2797020944979005"><ele>473.57142857142856</ele><time>2026-04-12T08:43:31Z</time></trkpt><trkpt lat="49.971370178961614" lon="5.279791768583725"><ele>474.42857142857144</ele><time>2026-04-12T08:43:36Z</time></trkpt><trkpt lat="49.97131787987177" lon="5.279875554365223"><ele>475.2857142857142</ele><time>2026-04-12T08:43:42Z</time></trkpt><trkpt lat="49.97128056368718" lon="5.27997757062189"><ele>476.1428571428571</ele><time>2026-04-12T08:43:49Z</time></trkpt><trkpt lat="49.97124711238322" lon="5.280064140758995"><ele>477.0</ele><time>2026-04-12T08:43:55Z</time></trkpt><trkpt lat="49.97120829903415" lon="5.280155189331471"><ele>477.0</ele><time>2026-04-12T08:44:01Z</time></trkpt><trkpt lat="49.97115801049063" lon="5.2802466399370225"><ele>476.99999999999994</ele><time>2026-04-12T08:44:07Z</time></trkpt><trkpt lat="49.971114156671156" lon="5.2803269736714205"><ele>477.0</ele><time>2026-04-12T08:44:13Z</time></trkpt><trkpt lat="49.97107344576669" lon="5.280408330238635"><ele>477.0</ele><time>2026-04-12T08:44:19Z</time></trkpt><trkpt lat="49.97102732783865" lon="5.280490320184012"><ele>476.99999999999994</ele><time>2026-04-12T08:44:25Z</time></trkpt><trkpt lat="49.97096981511738" lon="5.280543548099899"><ele>477.0</ele><time>2026-04-12T08:44:32Z</time></trkpt><trkpt lat="49.9708993900938" lon="5.280569913055352"><ele>477.0</ele><time>2026-04-12T08:44:39Z</time></trkpt><trkpt lat="49.97083345681055" lon="5.280607067986688"><ele>477.2857142857143</ele><time>2026-04-12T08:44:44Z</time></trkpt><trkpt lat="49.97078605751497" lon="5.280693324676272"><ele>477.57142857142856</ele><time>2026-04-12T08:44:50Z</time></trkpt><trkpt lat="49.97072956053263" lon="5.280757875684081"><ele>477.85714285714283</ele><time>2026-04-12T08:44:57Z</time></trkpt><trkpt lat="49.97067591575838" lon="5.2808292384985025"><ele>478.1428571428571</ele><time>2026-04-12T08:45:03Z</time></trkpt><trkpt lat="49.970626903382865" lon="5.28089068363713"><ele>478.42857142857144</ele><time>2026-04-12T08:45:09Z</time></trkpt><trkpt lat="49.97058622581436" lon="5.280967782184617"><ele>478.71428571428567</ele><time>2026-04-12T08:45:14Z</time></trkpt><trkpt lat="49.9705594599955" lon="5.281063903288242"><ele>479.0</ele><time>2026-04-12T08:45:19Z</time></trkpt><trkpt lat="49.970518434816206" lon="5.281144776874479"><ele>479.0</ele><time>2026-04-12T08:45:26Z</time></trkpt><trkpt lat="49.97043449809157" lon="5.281149204947874"><ele>479.0</ele><time>2026-04-12T08:45:33Z</time></trkpt><trkpt lat="49.97038124335936" lon="5.281207240099809"><ele>479.0</ele><time>2026-04-12T08:45:38Z</time></trkpt><trkpt lat="49.97033032291065" lon="5.281286997229298"><ele>479.0</ele><time>2026-04-12T08:45:44Z</time></trkpt><trkpt lat="49.97028908528936" lon="5.281377547700739"><ele>479.0</ele><time>2026-04-12T08:45:50Z</time></trkpt><trkpt lat="49.97023245156262" lon="5.2814336225152285"><ele>479.0</ele><time>2026-04-12T08:45:56Z</time></trkpt><trkpt lat="49.9701755812836" lon="5.281485749201023"><ele>479.0</ele><time>2026-04-12T08:46:01Z</time></trkpt><trkpt lat="49.970120363221575" lon="5.2815519166647205"><ele>479.1428571428571</ele><time>2026-04-12T08:46:07Z</time></trkpt><trkpt lat="49.970066952490114" lon="5.281609043901216"><ele>479.28571428571433</ele><time>2026-04-12T08:46:12Z</time></trkpt><trkpt lat="49.970026047343794" lon="5.281689454255715"><ele>479.42857142857144</ele><time>2026-04-12T08:46:17Z</time></trkpt><trkpt lat="49.969976845949766" lon="5.281760890887483"><ele>479.57142857142856</ele><time>2026-04-12T08:46:23Z</time></trkpt><trkpt lat="49.9699299998161" lon="5.281832320384436"><ele>479.71428571428567</ele><time>2026-04-12T08:46:28Z</time></trkpt><trkpt lat="49.969890819778705" lon="5.281933873900665"><ele>479.8571428571429</ele><time>2026-04-12T08:46:34Z</time></trkpt><trkpt lat="49.96983144264219" lon="5.281991308736575"><ele>480.0</ele><time>2026-04-12T08:46:41Z</time></trkpt><trkpt lat="49.96977103870537" lon="5.282023104129485"><ele>480.0</ele><time>2026-04-12T08:46:46Z</time></trkpt><trkpt lat="49.96971360289078" lon="5.282095894110455"><ele>480.0</ele><time>2026-04-12T08:46:53Z</time></trkpt><trkpt lat="49.96965881572436" lon="5.282149962595994"><ele>480.0</ele><time>2026-04-12T08:46:58Z</time></trkpt><trkpt lat="49.969592480827075" lon="5.282203562586118"><ele>480.0</ele><time>2026-04-12T08:47:04Z</time></trkpt><trkpt lat="49.96953077389227" lon="5.282250287536661"><ele>480.0</ele><time>2026-04-12T08:47:09Z</time></trkpt><trkpt lat="49.969475034911795" lon="5.282312871969216"><ele>480.0</ele><time>2026-04-12T08:47:14Z</time></trkpt><trkpt lat="49.969425007453296" lon="5.282375426016051"><ele>480.0</ele><time>2026-04-12T08:47:19Z</time></trkpt><trkpt lat="49.96938023381477" lon="5.282447541525337"><ele>479.7142857142857</ele><time>2026-04-12T08:47:24Z</time></trkpt><trkpt lat="49.96932367466443" lon="5.282521504025656"><ele>479.42857142857144</ele><time>2026-04-12T08:47:30Z</time></trkpt><trkpt lat="49.969280902013516" lon="5.282594634657851"><ele>479.14285714285717</ele><time>2026-04-12T08:47:35Z</time></trkpt><trkpt lat="49.96922609785319" lon="5.282648726588321"><ele>478.8571428571429</ele><time>2026-04-12T08:47:40Z</time></trkpt><trkpt lat="49.96917144724425" lon="5.282718694417489"><ele>478.57142857142856</ele><time>2026-04-12T08:47:46Z</time></trkpt><trkpt lat="49.96915856424217" lon="5.282819198621661"><ele>478.28571428571433</ele><time>2026-04-12T08:47:51Z</time></trkpt><trkpt lat="49.96915770561244" lon="5.282921933625801"><ele>478.00000000000006</ele><time>2026-04-12T08:47:56Z</time></trkpt><trkpt lat="49.96919604530774" lon="5.283020072489179"><ele>478.28571428571433</ele><time>2026-04-12T08:48:02Z</time></trkpt><trkpt lat="49.969222773246585" lon="5.283114417788849"><ele>478.57142857142856</ele><time>2026-04-12T08:48:08Z</time></trkpt><trkpt lat="49.9691856304473" lon="5.283202806588145"><ele>478.8571428571429</ele><time>2026-04-12T08:49:54Z</time></trkpt><trkpt lat="49.96918637426625" lon="5.283313241092984"><ele>479.14285714285717</ele><time>2026-04-12T08:50:00Z</time></trkpt><trkpt lat="49.969196950277244" lon="5.283414056572352"><ele>479.42857142857144</ele><time>2026-04-12T08:50:06Z</time></trkpt><trkpt lat="49.969217544070666" lon="5.283507184795146"><ele>479.7142857142857</ele><time>2026-04-12T08:50:11Z</time></trkpt><trkpt lat="49.969239373138585" lon="5.283616982553541"><ele>480.0</ele><time>2026-04-12T08:50:17Z</time></trkpt><trkpt lat="49.969269016936884" lon="5.283728829542766"><ele>479.57142857142856</ele><time>2026-04-12T08:50:23Z</time></trkpt><trkpt lat="49.969296966162354" lon="5.283831263977549"><ele>479.1428571428571</ele><time>2026-04-12T08:50:29Z</time></trkpt><trkpt lat="49.96926298310193" lon="5.28391449892573"><ele>478.71428571428567</ele><time>2026-04-12T08:50:39Z</time></trkpt><trkpt lat="49.969261517561705" lon="5.284027871049426"><ele>478.2857142857143</ele><time>2026-04-12T08:50:46Z</time></trkpt><trkpt lat="49.96923728049651" lon="5.284129465772422"><ele>477.8571428571428</ele><time>2026-04-12T08:50:54Z</time></trkpt><trkpt lat="49.96918539190479" lon="5.284205720857236"><ele>477.4285714285714</ele><time>2026-04-12T08:51:01Z</time></trkpt><trkpt lat="49.96914026935216" lon="5.284301105839791"><ele>477.0</ele><time>2026-04-12T08:51:07Z</time></trkpt><trkpt lat="49.96909642075161" lon="5.284371654822793"><ele>477.0</ele><time>2026-04-12T08:51:12Z</time></trkpt><trkpt lat="49.9690526545593" lon="5.284471978487644"><ele>476.99999999999994</ele><time>2026-04-12T08:51:19Z</time></trkpt><trkpt lat="49.969018127150804" lon="5.284563135757756"><ele>477.0</ele><time>2026-04-12T08:51:24Z</time></trkpt><trkpt lat="49.968973507879646" lon="5.284660499145634"><ele>477.0</ele><time>2026-04-12T08:51:32Z</time></trkpt><trkpt lat="49.96894851930506" lon="5.284751077362557"><ele>476.99999999999994</ele><time>2026-04-12T08:51:38Z</time></trkpt><trkpt lat="49.968928616979746" lon="5.28485098397788"><ele>477.0</ele><time>2026-04-12T08:51:44Z</time></trkpt><trkpt lat="49.96890436093008" lon="5.284962839465807"><ele>477.0</ele><time>2026-04-12T08:51:50Z</time></trkpt><trkpt lat="49.968890818775606" lon="5.285067998628297"><ele>476.4285714285714</ele><time>2026-04-12T08:52:08Z</time></trkpt><trkpt lat="49.96887578649371" lon="5.285171595475982"><ele>475.8571428571428</ele><time>2026-04-12T08:52:14Z</time></trkpt><trkpt lat="49.968855572617606" lon="5.285271432722923"><ele>475.2857142857143</ele><time>2026-04-12T08:52:20Z</time></trkpt><trkpt lat="49.96881210515083" lon="5.2853511182369095"><ele>474.71428571428567</ele><time>2026-04-12T08:52:40Z</time></trkpt><trkpt lat="49.96875907323149" lon="5.2854234025320395"><ele>474.1428571428571</ele><time>2026-04-12T08:52:46Z</time></trkpt><trkpt lat="49.968727182743" lon="5.285514877383537"><ele>473.57142857142856</ele><time>2026-04-12T08:52:52Z</time></trkpt><trkpt lat="49.968716232861745" lon="5.285616269605776"><ele>473.0</ele><time>2026-04-12T08:53:00Z</time></trkpt><trkpt lat="49.968685512800285" lon="5.285705212768518"><ele>472.8571428571429</ele><time>2026-04-12T08:53:06Z</time></trkpt><trkpt lat="49.96866291954077" lon="5.2858030768058475"><ele>472.71428571428567</ele><time>2026-04-12T08:53:13Z</time></trkpt><trkpt lat="49.96863224473698" lon="5.285897598213539"><ele>472.57142857142856</ele><time>2026-04-12T08:53:27Z</time></trkpt><trkpt lat="49.96857769340214" lon="5.285949190714396"><ele>472.42857142857144</ele><time>2026-04-12T08:53:35Z</time></trkpt><trkpt lat="49.968526762374495" lon="5.286017523301425"><ele>472.28571428571433</ele><time>2026-04-12T08:53:45Z</time></trkpt><trkpt lat="49.96847053109025" lon="5.286080738139163"><ele>472.1428571428571</ele><time>2026-04-12T08:53:52Z</time></trkpt><trkpt lat="49.96842467917962" lon="5.286167703536407"><ele>472.0</ele><time>2026-04-12T08:53:58Z</time></trkpt><trkpt lat="49.96838201801817" lon="5.286241086217442"><ele>472.1428571428571</ele><time>2026-04-12T08:54:04Z</time></trkpt><trkpt lat="49.96834265558984" lon="5.2863294101322005"><ele>472.28571428571433</ele><time>2026-04-12T08:54:10Z</time></trkpt><trkpt lat="49.9683083681217" lon="5.286414371289634"><ele>472.42857142857144</ele><time>2026-04-12T08:54:15Z</time></trkpt><trkpt lat="49.96826377120312" lon="5.286487513667006"><ele>472.57142857142856</ele><time>2026-04-12T08:54:21Z</time></trkpt><trkpt lat="49.968226925028276" lon="5.28657802604502"><ele>472.71428571428567</ele><time>2026-04-12T08:54:26Z</time></trkpt><trkpt lat="49.96819529964822" lon="5.286683766793263"><ele>472.8571428571429</ele><time>2026-04-12T08:54:33Z</time></trkpt><trkpt lat="49.96815524362549" lon="5.286776121762932"><ele>473.0</ele><time>2026-04-12T08:54:39Z</time></trkpt><trkpt lat="49.968127012839105" lon="5.286880104130292"><ele>473.0</ele><time>2026-04-12T08:54:46Z</time></trkpt><trkpt lat="49.96809740983299" lon="5.286967910721357"><ele>473.0</ele><time>2026-04-12T08:54:51Z</time></trkpt><trkpt lat="49.968053857485664" lon="5.287060597141884"><ele>473.0</ele><time>2026-04-12T08:54:58Z</time></trkpt><trkpt lat="49.968002878807724" lon="5.287125902735293"><ele>473.0</ele><time>2026-04-12T08:55:04Z</time></trkpt><trkpt lat="49.9679381774372" lon="5.287173855256546"><ele>473.0</ele><time>2026-04-12T08:55:11Z</time></trkpt><trkpt lat="49.967867569943216" lon="5.287211833253773"><ele>473.0</ele><time>2026-04-12T08:55:17Z</time></trkpt><trkpt lat="49.967831960184824" lon="5.287294929271686"><ele>473.0</ele><time>2026-04-12T08:55:22Z</time></trkpt><trkpt lat="49.96778212533392" lon="5.287370961875019"><ele>472.57142857142856</ele><time>2026-04-12T08:55:29Z</time></trkpt><trkpt lat="49.96775276922819" lon="5.28745889952966"><ele>472.1428571428571</ele><time>2026-04-12T08:55:36Z</time></trkpt><trkpt lat="49.9677207013547" lon="5.287564646369642"><ele>471.71428571428567</ele><time>2026-04-12T08:55:44Z</time></trkpt><trkpt lat="49.96770002512121" lon="5.287660059355478"><ele>471.2857142857143</ele><time>2026-04-12T08:55:50Z</time></trkpt><trkpt lat="49.9676771677761" lon="5.287763021573745"><ele>470.8571428571428</ele><time>2026-04-12T08:55:56Z</time></trkpt><trkpt lat="49.96766985713535" lon="5.287866784237912"><ele>470.4285714285714</ele><time>2026-04-12T08:56:03Z</time></trkpt><trkpt lat="49.96765803666546" lon="5.2879679645246815"><ele>470.0</ele><time>2026-04-12T08:56:14Z</time></trkpt><trkpt lat="49.967635398540324" lon="5.288071070253271"><ele>469.85714285714283</ele><time>2026-04-12T08:56:20Z</time></trkpt><trkpt lat="49.96761539929468" lon="5.288171161909477"><ele>469.71428571428567</ele><time>2026-04-12T08:56:26Z</time></trkpt><trkpt lat="49.96760611497093" lon="5.288283398335192"><ele>469.57142857142856</ele><time>2026-04-12T08:56:32Z</time></trkpt><trkpt lat="49.967591934298646" lon="5.288385235219826"><ele>469.42857142857144</ele><time>2026-04-12T08:56:38Z</time></trkpt><trkpt lat="49.96757405591808" lon="5.288484395764403"><ele>469.2857142857143</ele><time>2026-04-12T08:56:44Z</time></trkpt><trkpt lat="49.96754898730599" lon="5.288580815735494"><ele>469.1428571428571</ele><time>2026-04-12T08:56:51Z</time></trkpt><trkpt lat="49.96754262417738" lon="5.288696868477061"><ele>469.0</ele><time>2026-04-12T08:57:14Z</time></trkpt><trkpt lat="49.96753680098804" lon="5.2887994896199775"><ele>471.42857142857144</ele><time>2026-04-12T08:57:21Z</time></trkpt><trkpt lat="49.967517490164795" lon="5.288899743180775"><ele>473.8571428571429</ele><time>2026-04-12T08:57:27Z</time></trkpt><trkpt lat="49.96750487728934" lon="5.2890001749245465"><ele>476.2857142857143</ele><time>2026-04-12T08:57:33Z</time></trkpt><trkpt lat="49.96749194824146" lon="5.289102557000721"><ele>478.7142857142857</ele><time>2026-04-12T08:57:38Z</time></trkpt><trkpt lat="49.96748050608523" lon="5.2892097326212815"><ele>481.14285714285717</ele><time>2026-04-12T08:57:44Z</time></trkpt><trkpt lat="49.96746918120334" lon="5.289327936516654"><ele>483.57142857142856</ele><time>2026-04-12T08:57:50Z</time></trkpt><trkpt lat="49.967456825385185" lon="5.289435038479329"><ele>486.0</ele><time>2026-04-12T08:57:57Z</time></trkpt><trkpt lat="49.96746223083635" lon="5.289534281662283"><ele>486.0</ele><time>2026-04-12T08:58:03Z</time></trkpt><trkpt lat="49.96745686254857" lon="5.289631803782546"><ele>486.0</ele><time>2026-04-12T08:58:08Z</time></trkpt><trkpt lat="49.96745068532015" lon="5.289734428662752"><ele>486.0</ele><time>2026-04-12T08:58:14Z</time></trkpt><trkpt lat="49.96743751028122" lon="5.2898401247625575"><ele>486.0</ele><time>2026-04-12T08:58:19Z</time></trkpt><trkpt lat="49.96742279461932" lon="5.289947964545266"><ele>486.0</ele><time>2026-04-12T08:58:25Z</time></trkpt><trkpt lat="49.96740792090732" lon="5.290046282117891"><ele>486.0</ele><time>2026-04-12T08:58:30Z</time></trkpt><trkpt lat="49.96739776749795" lon="5.290147214103484"><ele>486.0</ele><time>2026-04-12T08:58:36Z</time></trkpt><trkpt lat="49.967378433541754" lon="5.290256290079328"><ele>485.2857142857143</ele><time>2026-04-12T08:58:41Z</time></trkpt><trkpt lat="49.96736002129891" lon="5.290351064048488"><ele>484.57142857142856</ele><time>2026-04-12T08:58:47Z</time></trkpt><trkpt lat="49.96733771639199" lon="5.290449403363554"><ele>483.85714285714283</ele><time>2026-04-12T08:58:53Z</time></trkpt><trkpt lat="49.96731511186784" lon="5.2905421986855075"><ele>483.1428571428571</ele><time>2026-04-12T08:58:59Z</time></trkpt><trkpt lat="49.967292171468216" lon="5.290635032525882"><ele>482.42857142857144</ele><time>2026-04-12T08:59:04Z</time></trkpt><trkpt lat="49.96727954084238" lon="5.290736657065785"><ele>481.71428571428567</ele><time>2026-04-12T08:59:09Z</time></trkpt><trkpt lat="49.967288439047586" lon="5.290842814039764"><ele>480.99999999999994</ele><time>2026-04-12T08:59:15Z</time></trkpt><trkpt lat="49.967302876452194" lon="5.290948849196239"><ele>480.99999999999994</ele><time>2026-04-12T08:59:22Z</time></trkpt><trkpt lat="49.967294160989155" lon="5.291053525753412"><ele>481.0</ele><time>2026-04-12T08:59:29Z</time></trkpt><trkpt lat="49.96734116895379" lon="5.291134373170929"><ele>480.99999999999994</ele><time>2026-04-12T08:59:36Z</time></trkpt><trkpt lat="49.96740355450657" lon="5.291171731502599"><ele>480.99999999999994</ele><time>2026-04-12T08:59:41Z</time></trkpt><trkpt lat="49.967467754357905" lon="5.291159352722354"><ele>481.0</ele><time>2026-04-12T08:59:46Z</time></trkpt><trkpt lat="49.96754099003835" lon="5.29114514406581"><ele>480.99999999999994</ele><time>2026-04-12T08:59:52Z</time></trkpt><trkpt lat="49.96759235495364" lon="5.291045359167624"><ele>480.99999999999994</ele><time>2026-04-12T08:59:57Z</time></trkpt><trkpt lat="49.967601693729826" lon="5.291155355908964"><ele>479.8571428571428</ele><time>2026-04-12T09:00:20Z</time></trkpt><trkpt lat="49.96766399737519" lon="5.291194739567616"><ele>478.71428571428567</ele><time>2026-04-12T09:00:27Z</time></trkpt><trkpt lat="49.96773090468695" lon="5.291210435577261"><ele>477.57142857142856</ele><time>2026-04-12T09:00:31Z</time></trkpt><trkpt lat="49.96780150850731" lon="5.291208980182061"><ele>476.4285714285714</ele><time>2026-04-12T09:00:37Z</time></trkpt><trkpt lat="49.967875692791246" lon="5.291200839581464"><ele>475.2857142857142</ele><time>2026-04-12T09:00:42Z</time></trkpt><trkpt lat="49.96794196559435" lon="5.291219800929121"><ele>474.14285714285717</ele><time>2026-04-12T09:00:52Z</time></trkpt><trkpt lat="49.9680057863225" lon="5.2912628429454145"><ele>473.0</ele><time>2026-04-12T09:01:00Z</time></trkpt><trkpt lat="49.96807509063933" lon="5.29127752659052"><ele>473.0</ele><time>2026-04-12T09:01:05Z</time></trkpt><trkpt lat="49.968140732894284" lon="5.291300945768171"><ele>473.0</ele><time>2026-04-12T09:01:10.999Z</time></trkpt><trkpt lat="49.96820892841304" lon="5.291318075063827"><ele>473.0</ele><time>2026-04-12T09:01:16.999Z</time></trkpt><trkpt lat="49.968276192280584" lon="5.291322601703025"><ele>473.0</ele><time>2026-04-12T09:01:21.999Z</time></trkpt><trkpt lat="49.96834274982315" lon="5.2913358016294625"><ele>473.0</ele><time>2026-04-12T09:01:27.999Z</time></trkpt><trkpt lat="49.96840793709168" lon="5.291340878755289"><ele>473.0</ele><time>2026-04-12T09:01:33.999Z</time></trkpt><trkpt lat="49.968481039323706" lon="5.291358180026853"><ele>473.0</ele><time>2026-04-12T09:01:38.999Z</time></trkpt><trkpt lat="49.96854145411298" lon="5.291397455276561"><ele>473.8571428571429</ele><time>2026-04-12T09:01:43.999Z</time></trkpt><trkpt lat="49.96860458157968" lon="5.2914328789719765"><ele>474.71428571428567</ele><time>2026-04-12T09:01:51Z</time></trkpt><trkpt lat="49.968675990483945" lon="5.291395914720249"><ele>475.57142857142856</ele><time>2026-04-12T09:01:55Z</time></trkpt><trkpt lat="49.96873270484225" lon="5.291344062533555"><ele>476.42857142857144</ele><time>2026-04-12T09:02:00Z</time></trkpt><trkpt lat="49.96880203721001" lon="5.291308047397611"><ele>477.28571428571433</ele><time>2026-04-12T09:02:06Z</time></trkpt><trkpt lat="49.96887004577049" lon="5.291263966712173"><ele>478.1428571428571</ele><time>2026-04-12T09:02:12Z</time></trkpt><trkpt lat="49.968933661798424" lon="5.29125237445547"><ele>479.0</ele><time>2026-04-12T09:02:18Z</time></trkpt><trkpt lat="49.96900019362239" lon="5.291245616241208"><ele>478.99999999999994</ele><time>2026-04-12T09:02:23Z</time></trkpt><trkpt lat="49.969065951928044" lon="5.291238360898838"><ele>479.0</ele><time>2026-04-12T09:02:28Z</time></trkpt><trkpt lat="49.96913665182221" lon="5.291216254252404"><ele>479.0</ele><time>2026-04-12T09:02:33Z</time></trkpt><trkpt lat="49.96922425686747" lon="5.291206280953545"><ele>479.0</ele><time>2026-04-12T09:02:49Z</time></trkpt><trkpt lat="49.969314771624184" lon="5.291244030199604"><ele>478.99999999999994</ele><time>2026-04-12T09:04:30Z</time></trkpt><trkpt lat="49.969382780799705" lon="5.291230632021135"><ele>479.0</ele><time>2026-04-12T09:04:35Z</time></trkpt><trkpt lat="49.969452599088626" lon="5.291226873176668"><ele>478.85714285714283</ele><time>2026-04-12T09:04:40Z</time></trkpt><trkpt lat="49.969523292273934" lon="5.291248742291511"><ele>478.7142857142858</ele><time>2026-04-12T09:04:47Z</time></trkpt><trkpt lat="49.96959186290014" lon="5.291290223011394"><ele>478.5714285714286</ele><time>2026-04-12T09:04:54Z</time></trkpt><trkpt lat="49.96965073232919" lon="5.291331232387793"><ele>478.42857142857144</ele><time>2026-04-12T09:04:59Z</time></trkpt><trkpt lat="49.969711747049026" lon="5.291364056902437"><ele>478.28571428571433</ele><time>2026-04-12T09:05:04Z</time></trkpt><trkpt lat="49.96977682198346" lon="5.291415604745797"><ele>478.1428571428572</ele><time>2026-04-12T09:05:11Z</time></trkpt><trkpt lat="49.969842510205176" lon="5.2914271856770885"><ele>478.00000000000006</ele><time>2026-04-12T09:05:16Z</time></trkpt><trkpt lat="49.96990847198366" lon="5.29142351161686"><ele>478.00000000000006</ele><time>2026-04-12T09:05:20Z</time></trkpt><trkpt lat="49.969980311727355" lon="5.291437528402848"><ele>478.0</ele><time>2026-04-12T09:05:25Z</time></trkpt><trkpt lat="49.970047561007746" lon="5.29145960232234"><ele>478.00000000000006</ele><time>2026-04-12T09:05:30Z</time></trkpt><trkpt lat="49.97011486195809" lon="5.291465165379192"><ele>478.00000000000006</ele><time>2026-04-12T09:05:35Z</time></trkpt><trkpt lat="49.970187175619834" lon="5.291472083752029"><ele>478.0</ele><time>2026-04-12T09:05:41Z</time></trkpt><trkpt lat="49.97026400435998" lon="5.29151980945462"><ele>478.00000000000006</ele><time>2026-04-12T09:05:48Z</time></trkpt><trkpt lat="49.97033458216226" lon="5.291570394635489"><ele>478.00000000000006</ele><time>2026-04-12T09:05:55Z</time></trkpt><trkpt lat="49.970400165721266" lon="5.29162061293574"><ele>477.57142857142867</ele><time>2026-04-12T09:06:03Z</time></trkpt><trkpt lat="49.97046186203595" lon="5.291656365173821"><ele>477.14285714285717</ele><time>2026-04-12T09:06:07Z</time></trkpt><trkpt lat="49.97052038145729" lon="5.291703855324719"><ele>476.7142857142858</ele><time>2026-04-12T09:06:12Z</time></trkpt><trkpt lat="49.97057604523641" lon="5.291773264280739"><ele>476.28571428571433</ele><time>2026-04-12T09:06:19Z</time></trkpt><trkpt lat="49.970634482537655" lon="5.291817007042095"><ele>475.8571428571429</ele><time>2026-04-12T09:06:24Z</time></trkpt><trkpt lat="49.97068818695091" lon="5.291897677338674"><ele>475.42857142857144</ele><time>2026-04-12T09:06:29Z</time></trkpt><trkpt lat="49.970740126843815" lon="5.291964761961351"><ele>475.0</ele><time>2026-04-12T09:06:35Z</time></trkpt><trkpt lat="49.97079309096269" lon="5.292031149638276"><ele>475.0</ele><time>2026-04-12T09:06:41Z</time></trkpt><trkpt lat="49.97084978530701" lon="5.292097157282791"><ele>475.00000000000006</ele><time>2026-04-12T09:06:46Z</time></trkpt><trkpt lat="49.97091819116703" lon="5.29212331058922"><ele>475.0</ele><time>2026-04-12T09:06:52Z</time></trkpt><trkpt lat="49.97097541639309" lon="5.292167712562105"><ele>475.0</ele><time>2026-04-12T09:06:58Z</time></trkpt><trkpt lat="49.97103837297253" lon="5.292224008615939"><ele>475.00000000000006</ele><time>2026-04-12T09:07:03Z</time></trkpt><trkpt lat="49.971100971685985" lon="5.2922508303731375"><ele>475.0</ele><time>2026-04-12T09:07:08Z</time></trkpt><trkpt lat="49.9711633324695" lon="5.292274259179889"><ele>475.0</ele><time>2026-04-12T09:07:14Z</time></trkpt><trkpt lat="49.97123105529895" lon="5.292288779532741"><ele>474.14285714285717</ele><time>2026-04-12T09:07:19Z</time></trkpt><trkpt lat="49.971291892349875" lon="5.292335083613476"><ele>473.28571428571433</ele><time>2026-04-12T09:07:24Z</time></trkpt><trkpt lat="49.97136965234113" lon="5.292356654537809"><ele>472.42857142857144</ele><time>2026-04-12T09:07:28Z</time></trkpt><trkpt lat="49.971440890792856" lon="5.292380375357407"><ele>471.57142857142856</ele><time>2026-04-12T09:07:33Z</time></trkpt><trkpt lat="49.97149614032304" lon="5.29245401942012"><ele>470.7142857142857</ele><time>2026-04-12T09:07:39Z</time></trkpt><trkpt lat="49.971573050998124" lon="5.292465766484934"><ele>469.8571428571429</ele><time>2026-04-12T09:07:47Z</time></trkpt><trkpt lat="49.9716381874618" lon="5.292493356347909"><ele>469.0</ele><time>2026-04-12T09:07:52Z</time></trkpt><trkpt lat="49.97170343392278" lon="5.2925201626514635"><ele>468.7142857142857</ele><time>2026-04-12T09:07:57Z</time></trkpt><trkpt lat="49.971775505284825" lon="5.292545989589878"><ele>468.42857142857144</ele><time>2026-04-12T09:08:02Z</time></trkpt><trkpt lat="49.9718401970293" lon="5.292579257553664"><ele>468.1428571428571</ele><time>2026-04-12T09:08:07Z</time></trkpt><trkpt lat="49.971902795622775" lon="5.292630064361758"><ele>467.85714285714283</ele><time>2026-04-12T09:08:12Z</time></trkpt><trkpt lat="49.97196835715726" lon="5.292679785593662"><ele>467.57142857142856</ele><time>2026-04-12T09:08:18Z</time></trkpt><trkpt lat="49.97202990098292" lon="5.29270942797649"><ele>467.2857142857142</ele><time>2026-04-12T09:08:23Z</time></trkpt><trkpt lat="49.97208908499341" lon="5.292763852430725"><ele>466.99999999999994</ele><time>2026-04-12T09:08:29Z</time></trkpt><trkpt lat="49.97216233339018" lon="5.292791478835277"><ele>466.99999999999994</ele><time>2026-04-12T09:08:34Z</time></trkpt><trkpt lat="49.97222515194423" lon="5.29281934919435"><ele>467.0</ele><time>2026-04-12T09:08:39Z</time></trkpt><trkpt lat="49.97229297835227" lon="5.2928483890541465"><ele>466.99999999999994</ele><time>2026-04-12T09:08:45Z</time></trkpt><trkpt lat="49.97236246567456" lon="5.292897824953698"><ele>466.99999999999994</ele><time>2026-04-12T09:08:51Z</time></trkpt><trkpt lat="49.9724233044364" lon="5.292935280969245"><ele>467.0</ele><time>2026-04-12T09:08:56Z</time></trkpt><trkpt lat="49.972475674956854" lon="5.29300473764841"><ele>466.99999999999994</ele><time>2026-04-12T09:09:02Z</time></trkpt><trkpt lat="49.972522629100304" lon="5.29307220892709"><ele>466.99999999999994</ele><time>2026-04-12T09:09:07Z</time></trkpt><trkpt lat="49.972574377162715" lon="5.293153851185763"><ele>467.1428571428571</ele><time>2026-04-12T09:09:12Z</time></trkpt><trkpt lat="49.972632251050484" lon="5.293228061030133"><ele>467.2857142857143</ele><time>2026-04-12T09:09:18Z</time></trkpt><trkpt lat="49.972697657705496" lon="5.293233846456529"><ele>467.42857142857144</ele><time>2026-04-12T09:09:23Z</time></trkpt><trkpt lat="49.972752950634685" lon="5.293180819119657"><ele>467.57142857142856</ele><time>2026-04-12T09:09:28Z</time></trkpt><trkpt lat="49.97276057214293" lon="5.293062144303081"><ele>467.7142857142858</ele><time>2026-04-12T09:09:48Z</time></trkpt><trkpt lat="49.97280104031389" lon="5.292985305077413"><ele>467.8571428571429</ele><time>2026-04-12T09:09:53Z</time></trkpt><trkpt lat="49.972836541768785" lon="5.292903549847304"><ele>468.0</ele><time>2026-04-12T09:09:58Z</time></trkpt><trkpt lat="49.97287084737348" lon="5.292795051918455"><ele>468.0</ele><time>2026-04-12T09:10:03Z</time></trkpt><trkpt lat="49.97290758244667" lon="5.292699152304536"><ele>468.00000000000006</ele><time>2026-04-12T09:10:09Z</time></trkpt><trkpt lat="49.97297507020844" lon="5.2927058150520985"><ele>468.0</ele><time>2026-04-12T09:10:20Z</time></trkpt><trkpt lat="49.97303392240074" lon="5.292757350161072"><ele>468.0</ele><time>2026-04-12T09:10:26Z</time></trkpt><trkpt lat="49.973091866093775" lon="5.292804865331848"><ele>468.00000000000006</ele><time>2026-04-12T09:10:32Z</time></trkpt><trkpt lat="49.973145529962444" lon="5.292864024146422"><ele>468.0</ele><time>2026-04-12T09:10:38Z</time></trkpt><trkpt lat="49.973210708294914" lon="5.292916519691236"><ele>468.0</ele><time>2026-04-12T09:10:45Z</time></trkpt><trkpt lat="49.9732769973758" lon="5.292972418261166"><ele>468.0</ele><time>2026-04-12T09:10:50Z</time></trkpt><trkpt lat="49.97335062700454" lon="5.293019154377108"><ele>468.00000000000006</ele><time>2026-04-12T09:10:57Z</time></trkpt><trkpt lat="49.97341901639316" lon="5.293046292469242"><ele>468.0</ele><time>2026-04-12T09:11:04Z</time></trkpt><trkpt lat="49.97349178397705" lon="5.293083721138098"><ele>468.0</ele><time>2026-04-12T09:11:10Z</time></trkpt><trkpt lat="49.97356274470627" lon="5.293082509830326"><ele>468.00000000000006</ele><time>2026-04-12T09:11:15Z</time></trkpt><trkpt lat="49.973627294006874" lon="5.293043955800027"><ele>468.0</ele><time>2026-04-12T09:11:21Z</time></trkpt><trkpt lat="49.97369065985468" lon="5.293030490858873"><ele>468.0</ele><time>2026-04-12T09:11:27Z</time></trkpt><trkpt lat="49.97375394327033" lon="5.293015391550272"><ele>468.14285714285717</ele><time>2026-04-12T09:11:33Z</time></trkpt><trkpt lat="49.97382001119165" lon="5.292997886882451"><ele>468.28571428571433</ele><time>2026-04-12T09:11:39Z</time></trkpt><trkpt lat="49.97389961996625" lon="5.292978402580914"><ele>468.42857142857144</ele><time>2026-04-12T09:11:45Z</time></trkpt><trkpt lat="49.97396777883385" lon="5.292969886564641"><ele>468.57142857142856</ele><time>2026-04-12T09:11:52Z</time></trkpt><trkpt lat="49.97403200503932" lon="5.292981864735982"><ele>468.7142857142857</ele><time>2026-04-12T09:11:58Z</time></trkpt><trkpt lat="49.97409753585121" lon="5.292943190173294"><ele>468.8571428571429</ele><time>2026-04-12T09:12:02.999Z</time></trkpt><trkpt lat="49.97415973095123" lon="5.292905762079573"><ele>469.0</ele><time>2026-04-12T09:12:07.999Z</time></trkpt><trkpt lat="49.974239492301066" lon="5.292894280995666"><ele>469.1428571428571</ele><time>2026-04-12T09:12:15Z</time></trkpt><trkpt lat="49.974305109077434" lon="5.292868827519307"><ele>469.2857142857143</ele><time>2026-04-12T09:12:20Z</time></trkpt><trkpt lat="49.974374622191284" lon="5.2928462110907"><ele>469.42857142857144</ele><time>2026-04-12T09:12:26Z</time></trkpt><trkpt lat="49.97444664187351" lon="5.292811030638498"><ele>469.57142857142856</ele><time>2026-04-12T09:12:32Z</time></trkpt><trkpt lat="49.97451338443064" lon="5.2927791594708475"><ele>469.71428571428567</ele><time>2026-04-12T09:12:37Z</time></trkpt><trkpt lat="49.9745725784796" lon="5.29272983437392"><ele>469.85714285714283</ele><time>2026-04-12T09:12:42Z</time></trkpt><trkpt lat="49.97462742576804" lon="5.292656517286615"><ele>470.0</ele><time>2026-04-12T09:12:48Z</time></trkpt><trkpt lat="49.97466932667392" lon="5.292574390897184"><ele>470.0</ele><time>2026-04-12T09:12:54Z</time></trkpt><trkpt lat="49.97471941826586" lon="5.292504955731288"><ele>469.99999999999994</ele><time>2026-04-12T09:12:59Z</time></trkpt><trkpt lat="49.97476497111996" lon="5.292420917186143"><ele>470.0</ele><time>2026-04-12T09:13:04Z</time></trkpt><trkpt lat="49.974794815484586" lon="5.292329080504696"><ele>470.0</ele><time>2026-04-12T09:13:10Z</time></trkpt><trkpt lat="49.97484916833645" lon="5.292259215708789"><ele>469.99999999999994</ele><time>2026-04-12T09:13:16Z</time></trkpt><trkpt lat="49.97488236023107" lon="5.292174436175055"><ele>470.0</ele><time>2026-04-12T09:13:21Z</time></trkpt><trkpt lat="49.974915945358354" lon="5.292090855453282"><ele>470.0</ele><time>2026-04-12T09:13:25Z</time></trkpt><trkpt lat="49.97496551953676" lon="5.2919976821485575"><ele>469.71428571428567</ele><time>2026-04-12T09:13:32Z</time></trkpt><trkpt lat="49.975011856504885" lon="5.291917809175611"><ele>469.4285714285714</ele><time>2026-04-12T09:13:46Z</time></trkpt><trkpt lat="49.9750514855577" lon="5.291832116169096"><ele>469.1428571428571</ele><time>2026-04-12T09:13:51Z</time></trkpt><trkpt lat="49.9751003518404" lon="5.291753816485632"><ele>468.8571428571429</ele><time>2026-04-12T09:13:57Z</time></trkpt><trkpt lat="49.97514846387572" lon="5.291677451640762"><ele>468.5714285714286</ele><time>2026-04-12T09:14:03Z</time></trkpt><trkpt lat="49.97519348908299" lon="5.291604291315022"><ele>468.28571428571433</ele><time>2026-04-12T09:14:07.999Z</time></trkpt><trkpt lat="49.97522934062511" lon="5.291518743366865"><ele>468.0</ele><time>2026-04-12T09:14:12.999Z</time></trkpt><trkpt lat="49.975259523754126" lon="5.291412010660263"><ele>467.28571428571433</ele><time>2026-04-12T09:14:18.999Z</time></trkpt><trkpt lat="49.97530285858103" lon="5.291323776744137"><ele>466.5714285714286</ele><time>2026-04-12T09:14:25Z</time></trkpt><trkpt lat="49.97534720215819" lon="5.291236513202528"><ele>465.8571428571429</ele><time>2026-04-12T09:14:31Z</time></trkpt><trkpt lat="49.97539350855375" lon="5.291148750517461"><ele>465.1428571428571</ele><time>2026-04-12T09:14:36Z</time></trkpt><trkpt lat="49.975427801387966" lon="5.291054529061937"><ele>464.4285714285714</ele><time>2026-04-12T09:14:43Z</time></trkpt><trkpt lat="49.9754681748985" lon="5.290962810041584"><ele>463.71428571428567</ele><time>2026-04-12T09:14:49Z</time></trkpt><trkpt lat="49.97549738684958" lon="5.290875480345843"><ele>463.0</ele><time>2026-04-12T09:14:53Z</time></trkpt><trkpt lat="49.97553483859832" lon="5.290795347799846"><ele>463.0</ele><time>2026-04-12T09:14:58Z</time></trkpt><trkpt lat="49.975571622932364" lon="5.290711344042138"><ele>462.99999999999994</ele><time>2026-04-12T09:15:04Z</time></trkpt><trkpt lat="49.97561536093133" lon="5.290630908197694"><ele>463.0</ele><time>2026-04-12T09:15:11Z</time></trkpt><trkpt lat="49.975650457787246" lon="5.2905279478404"><ele>463.0</ele><time>2026-04-12T09:15:17Z</time></trkpt><trkpt lat="49.97570480792021" lon="5.290463395294749"><ele>462.99999999999994</ele><time>2026-04-12T09:15:24Z</time></trkpt><trkpt lat="49.97575737130078" lon="5.2903950929450305"><ele>463.0</ele><time>2026-04-12T09:15:30Z</time></trkpt><trkpt lat="49.975798148882916" lon="5.290312566716759"><ele>463.0</ele><time>2026-04-12T09:15:37Z</time></trkpt><trkpt lat="49.97583966799288" lon="5.29023159571046"><ele>462.4285714285714</ele><time>2026-04-12T09:15:45.999Z</time></trkpt><trkpt lat="49.97588591279186" lon="5.290141803598495"><ele>461.8571428571428</ele><time>2026-04-12T09:15:50.999Z</time></trkpt><trkpt lat="49.97594497521166" lon="5.290075927221577"><ele>461.2857142857143</ele><time>2026-04-12T09:15:54.999Z</time></trkpt><trkpt lat="49.97599768487869" lon="5.290002511204094"><ele>460.71428571428567</ele><time>2026-04-12T09:15:59.999Z</time></trkpt><trkpt lat="49.97605418453491" lon="5.289931533984333"><ele>460.1428571428571</ele><time>2026-04-12T09:16:05.999Z</time></trkpt><trkpt lat="49.97610013413722" lon="5.289846686834382"><ele>459.57142857142856</ele><time>2026-04-12T09:16:11.999Z</time></trkpt><trkpt lat="49.97615508601308" lon="5.289774838728539"><ele>459.0</ele><time>2026-04-12T09:16:16.999Z</time></trkpt><trkpt lat="49.97619566286741" lon="5.289693386010902"><ele>458.42857142857144</ele><time>2026-04-12T09:16:22.999Z</time></trkpt><trkpt lat="49.976234673542265" lon="5.28960523122104"><ele>457.85714285714283</ele><time>2026-04-12T09:16:29Z</time></trkpt><trkpt lat="49.97625976430294" lon="5.289484986937173"><ele>457.2857142857143</ele><time>2026-04-12T09:16:35Z</time></trkpt><trkpt lat="49.97628694653461" lon="5.289384608286716"><ele>456.7142857142857</ele><time>2026-04-12T09:16:42Z</time></trkpt><trkpt lat="49.976314181383856" lon="5.2892961685093205"><ele>456.1428571428571</ele><time>2026-04-12T09:16:47Z</time></trkpt><trkpt lat="49.976360122391384" lon="5.289213304774198"><ele>455.57142857142856</ele><time>2026-04-12T09:16:52Z</time></trkpt><trkpt lat="49.976406125910636" lon="5.2891409161760325"><ele>455.0</ele><time>2026-04-12T09:16:57Z</time></trkpt><trkpt lat="49.97646284498277" lon="5.289088204861587"><ele>455.0</ele><time>2026-04-12T09:17:04Z</time></trkpt><trkpt lat="49.97653300673856" lon="5.289070370561704"><ele>455.0</ele><time>2026-04-12T09:17:10Z</time></trkpt><trkpt lat="49.976593498313854" lon="5.289028474963485"><ele>455.0</ele><time>2026-04-12T09:17:26Z</time></trkpt><trkpt lat="49.976608798503925" lon="5.288919187968611"><ele>455.0</ele><time>2026-04-12T09:17:34Z</time></trkpt><trkpt lat="49.976614381545915" lon="5.288812704860125"><ele>455.0</ele><time>2026-04-12T09:17:41.999Z</time></trkpt><trkpt lat="49.97663110415479" lon="5.288713114101401"><ele>455.0</ele><time>2026-04-12T09:17:48.999Z</time></trkpt><trkpt lat="49.97667524159216" lon="5.288636938508046"><ele>455.0</ele><time>2026-04-12T09:17:54.999Z</time></trkpt><trkpt lat="49.97673622906142" lon="5.288560800292741"><ele>453.42857142857144</ele><time>2026-04-12T09:18:02.999Z</time></trkpt><trkpt lat="49.97678333083121" lon="5.2884656803690255"><ele>451.8571428571429</ele><time>2026-04-12T09:18:07.999Z</time></trkpt><trkpt lat="49.976829003750105" lon="5.288359328288506"><ele>450.2857142857143</ele><time>2026-04-12T09:18:13.999Z</time></trkpt><trkpt lat="49.97686171008956" lon="5.288267438592694"><ele>448.7142857142857</ele><time>2026-04-12T09:18:18.999Z</time></trkpt><trkpt lat="49.976889304175806" lon="5.288161351053164"><ele>447.14285714285717</ele><time>2026-04-12T09:18:24.999Z</time></trkpt><trkpt lat="49.976877684426704" lon="5.288056919996749"><ele>445.57142857142856</ele><time>2026-04-12T09:18:30.999Z</time></trkpt><trkpt lat="49.976853308307746" lon="5.28794848856413"><ele>444.0</ele><time>2026-04-12T09:18:37Z</time></trkpt><trkpt lat="49.97683183760854" lon="5.287849128592527"><ele>443.0</ele><time>2026-04-12T09:18:42Z</time></trkpt><trkpt lat="49.9768301132713" lon="5.287749571726917"><ele>442.0</ele><time>2026-04-12T09:18:47Z</time></trkpt><trkpt lat="49.9768181504101" lon="5.287651229605577"><ele>441.0</ele><time>2026-04-12T09:18:51Z</time></trkpt><trkpt lat="49.9767869422691" lon="5.2875473288935595"><ele>440.0</ele><time>2026-04-12T09:18:58Z</time></trkpt><trkpt lat="49.97677139759528" lon="5.287430975799929"><ele>439.0</ele><time>2026-04-12T09:19:04Z</time></trkpt><trkpt lat="49.97674116517683" lon="5.287320743575511"><ele>438.0</ele><time>2026-04-12T09:19:09Z</time></trkpt><trkpt lat="49.97672632988307" lon="5.287223527033051"><ele>437.0</ele><time>2026-04-12T09:19:14Z</time></trkpt><trkpt lat="49.97670515312881" lon="5.287122295256694"><ele>437.2857142857143</ele><time>2026-04-12T09:19:19Z</time></trkpt><trkpt lat="49.976694040503965" lon="5.287023430063151"><ele>437.5714285714286</ele><time>2026-04-12T09:19:24Z</time></trkpt><trkpt lat="49.97667522213919" lon="5.28691819790506"><ele>437.8571428571429</ele><time>2026-04-12T09:19:30Z</time></trkpt><trkpt lat="49.97666428130861" lon="5.286810001748464"><ele>438.1428571428571</ele><time>2026-04-12T09:19:35.999Z</time></trkpt><trkpt lat="49.976621286818684" lon="5.28668458517111"><ele>438.42857142857144</ele><time>2026-04-12T09:20:05.999Z</time></trkpt><trkpt lat="49.97666344327699" lon="5.2866016784243755"><ele>438.7142857142857</ele><time>2026-04-12T09:20:10.999Z</time></trkpt><trkpt lat="49.976707650849434" lon="5.28652219978433"><ele>439.0</ele><time>2026-04-12T09:20:17.999Z</time></trkpt><trkpt lat="49.976769396291274" lon="5.286501530920136"><ele>438.1428571428571</ele><time>2026-04-12T09:20:23.999Z</time></trkpt><trkpt lat="49.97683073557784" lon="5.286474564135912"><ele>437.2857142857143</ele><time>2026-04-12T09:20:27.999Z</time></trkpt><trkpt lat="49.97690531473345" lon="5.286471418160403"><ele>436.42857142857144</ele><time>2026-04-12T09:20:33.999Z</time></trkpt><trkpt lat="49.97696286632578" lon="5.286513482757351"><ele>435.57142857142856</ele><time>2026-04-12T09:20:41Z</time></trkpt><trkpt lat="49.97703728457948" lon="5.2865129084336555"><ele>434.7142857142857</ele><time>2026-04-12T09:20:46Z</time></trkpt><trkpt lat="49.977104279915984" lon="5.286506305813766"><ele>433.85714285714283</ele><time>2026-04-12T09:20:51Z</time></trkpt><trkpt lat="49.977167234274596" lon="5.2865047373467355"><ele>433.0</ele><time>2026-04-12T09:20:57Z</time></trkpt><trkpt lat="49.9772461967897" lon="5.286520608275492"><ele>432.99999999999994</ele><time>2026-04-12T09:21:02Z</time></trkpt><trkpt lat="49.977314550623696" lon="5.286519143949637"><ele>433.0</ele><time>2026-04-12T09:21:07Z</time></trkpt><trkpt lat="49.97737784124908" lon="5.2865569929337175"><ele>433.0</ele><time>2026-04-12T09:21:15Z</time></trkpt><trkpt lat="49.97744393389463" lon="5.286592520911537"><ele>433.0</ele><time>2026-04-12T09:21:21Z</time></trkpt><trkpt lat="49.977508966602024" lon="5.286607671067884"><ele>433.0</ele><time>2026-04-12T09:21:26Z</time></trkpt><trkpt lat="49.977579294992566" lon="5.28662599131979"><ele>432.99999999999994</ele><time>2026-04-12T09:21:31.999Z</time></trkpt><trkpt lat="49.97765200221084" lon="5.286654656329184"><ele>433.0</ele><time>2026-04-12T09:21:37.999Z</time></trkpt><trkpt lat="49.97772272799443" lon="5.286648025906251"><ele>432.99999999999994</ele><time>2026-04-12T09:21:44.999Z</time></trkpt><trkpt lat="49.977788368075515" lon="5.2866802724952064"><ele>433.0</ele><time>2026-04-12T09:21:49.999Z</time></trkpt><trkpt lat="49.97786246192147" lon="5.286698076113238"><ele>433.0</ele><time>2026-04-12T09:21:55.999Z</time></trkpt><trkpt lat="49.97794285845414" lon="5.286713460039147"><ele>433.0</ele><time>2026-04-12T09:22:01.999Z</time></trkpt><trkpt lat="49.97800402117068" lon="5.286757463488584"><ele>433.0</ele><time>2026-04-12T09:22:05.999Z</time></trkpt><trkpt lat="49.978063032369825" lon="5.2868138600482855"><ele>432.99999999999994</ele><time>2026-04-12T09:22:10.999Z</time></trkpt><trkpt lat="49.97811425537631" lon="5.286885490594359"><ele>433.0</ele><time>2026-04-12T09:22:17.999Z</time></trkpt><trkpt lat="49.97817085265708" lon="5.286933497246175"><ele>432.99999999999994</ele><time>2026-04-12T09:22:22.999Z</time></trkpt><trkpt lat="49.978210034767585" lon="5.287011567893755"><ele>433.0</ele><time>2026-04-12T09:22:28.999Z</time></trkpt><trkpt lat="49.97824870494333" lon="5.287088897730911"><ele>433.0</ele><time>2026-04-12T09:22:34.999Z</time></trkpt><trkpt lat="49.97829914069245" lon="5.287163851719412"><ele>433.0</ele><time>2026-04-12T09:22:39.999Z</time></trkpt><trkpt lat="49.97834640479584" lon="5.287238322198529"><ele>433.0</ele><time>2026-04-12T09:22:45Z</time></trkpt><trkpt lat="49.97840256832695" lon="5.287302456798914"><ele>432.99999999999994</ele><time>2026-04-12T09:22:50Z</time></trkpt><trkpt lat="49.97845304612707" lon="5.28736670778105"><ele>433.0</ele><time>2026-04-12T09:22:55Z</time></trkpt><trkpt lat="49.978499123430154" lon="5.287434325415576"><ele>434.1428571428571</ele><time>2026-04-12T09:23:00Z</time></trkpt><trkpt lat="49.97852901337148" lon="5.287524353629448"><ele>435.2857142857143</ele><time>2026-04-12T09:23:14Z</time></trkpt><trkpt lat="49.9785451801692" lon="5.287631599092297"><ele>436.42857142857144</ele><time>2026-04-12T09:23:22Z</time></trkpt><trkpt lat="49.97856811182999" lon="5.287727197954613"><ele>437.57142857142856</ele><time>2026-04-12T09:23:28.999Z</time></trkpt><trkpt lat="49.97858820469285" lon="5.287832304783182"><ele>438.7142857142857</ele><time>2026-04-12T09:23:36.999Z</time></trkpt><trkpt lat="49.97860683534972" lon="5.2879425753473415"><ele>439.85714285714283</ele><time>2026-04-12T09:23:42.999Z</time></trkpt><trkpt lat="49.97864416814021" lon="5.288024565861574"><ele>441.0</ele><time>2026-04-12T09:23:48.999Z</time></trkpt><trkpt lat="49.978672453152875" lon="5.288128683077704"><ele>442.2857142857143</ele><time>2026-04-12T09:23:55.999Z</time></trkpt><trkpt lat="49.97869943853733" lon="5.288233397140758"><ele>443.57142857142856</ele><time>2026-04-12T09:24:01.999Z</time></trkpt><trkpt lat="49.97872305573268" lon="5.288327916243199"><ele>444.8571428571429</ele><time>2026-04-12T09:24:07.999Z</time></trkpt><trkpt lat="49.97874665498632" lon="5.288425741913361"><ele>446.14285714285717</ele><time>2026-04-12T09:24:13.999Z</time></trkpt><trkpt lat="49.978776787153826" lon="5.288528569940675"><ele>447.42857142857144</ele><time>2026-04-12T09:24:19.999Z</time></trkpt><trkpt lat="49.97881397175951" lon="5.2886243567430755"><ele>448.7142857142858</ele><time>2026-04-12T09:24:26.999Z</time></trkpt><trkpt lat="49.978852380221866" lon="5.288720968547899"><ele>450.00000000000006</ele><time>2026-04-12T09:24:33.999Z</time></trkpt><trkpt lat="49.978886854060924" lon="5.288813156051264"><ele>450.57142857142867</ele><time>2026-04-12T09:24:40.999Z</time></trkpt><trkpt lat="49.97890344953386" lon="5.288929856306418"><ele>451.14285714285717</ele><time>2026-04-12T09:24:48.999Z</time></trkpt><trkpt lat="49.97890894166987" lon="5.289041905502261"><ele>451.7142857142858</ele><time>2026-04-12T09:24:56Z</time></trkpt><trkpt lat="49.97892065366088" lon="5.289153784318535"><ele>452.28571428571433</ele><time>2026-04-12T09:25:02Z</time></trkpt><trkpt lat="49.978923317775916" lon="5.289262556571263"><ele>452.8571428571429</ele><time>2026-04-12T09:25:09Z</time></trkpt><trkpt lat="49.978943246178815" lon="5.289365418857213"><ele>453.42857142857144</ele><time>2026-04-12T09:25:16Z</time></trkpt><trkpt lat="49.97897237194899" lon="5.289465144052938"><ele>454.0</ele><time>2026-04-12T09:25:22Z</time></trkpt><trkpt lat="49.97900944470544" lon="5.289544301588775"><ele>454.0</ele><time>2026-04-12T09:25:26.999Z</time></trkpt><trkpt lat="49.97904796885672" lon="5.28962792701326"><ele>454.00000000000006</ele><time>2026-04-12T09:25:33.999Z</time></trkpt><trkpt lat="49.97907567822218" lon="5.2897225226108"><ele>454.0</ele><time>2026-04-12T09:25:40.999Z</time></trkpt><trkpt lat="49.97911015165381" lon="5.289814418549267"><ele>454.0</ele><time>2026-04-12T09:25:47.999Z</time></trkpt><trkpt lat="49.97914476342292" lon="5.289907349116919"><ele>454.00000000000006</ele><time>2026-04-12T09:25:53.999Z</time></trkpt><trkpt lat="49.97918886162532" lon="5.289994223726496"><ele>454.0</ele><time>2026-04-12T09:25:59.999Z</time></trkpt><trkpt lat="49.97925410259638" lon="5.290025331898276"><ele>454.0</ele><time>2026-04-12T09:26:05.999Z</time></trkpt><trkpt lat="49.97931463932871" lon="5.290071252374931"><ele>454.7142857142857</ele><time>2026-04-12T09:26:12.999Z</time></trkpt><trkpt lat="49.97938551440404" lon="5.290092207922492"><ele>455.42857142857144</ele><time>2026-04-12T09:26:19.999Z</time></trkpt><trkpt lat="49.97943483839657" lon="5.290159437908569"><ele>456.14285714285717</ele><time>2026-04-12T09:26:25.999Z</time></trkpt><trkpt lat="49.97950075234398" lon="5.29020303725297"><ele>456.8571428571429</ele><time>2026-04-12T09:26:37.999Z</time></trkpt><trkpt lat="49.9795418817035" lon="5.290277675608114"><ele>457.57142857142856</ele><time>2026-04-12T09:26:44.999Z</time></trkpt><trkpt lat="49.97957634945555" lon="5.290362772076027"><ele>458.28571428571433</ele><time>2026-04-12T09:26:51.999Z</time></trkpt><trkpt lat="49.9796081290743" lon="5.290452742138474"><ele>459.0</ele><time>2026-04-12T09:26:59Z</time></trkpt><trkpt lat="49.97965195093689" lon="5.2905401153243625"><ele>459.8571428571429</ele><time>2026-04-12T09:27:07.001Z</time></trkpt><trkpt lat="49.97969484739595" lon="5.29063301080348"><ele>460.71428571428567</ele><time>2026-04-12T09:27:14.001Z</time></trkpt><trkpt lat="49.97972336422221" lon="5.290734718982574"><ele>461.57142857142856</ele><time>2026-04-12T09:27:21Z</time></trkpt><trkpt lat="49.97974125098228" lon="5.290841278837951"><ele>462.42857142857144</ele><time>2026-04-12T09:27:28Z</time></trkpt><trkpt lat="49.97977553694186" lon="5.290934147137489"><ele>463.28571428571433</ele><time>2026-04-12T09:27:34Z</time></trkpt><trkpt lat="49.97981167341979" lon="5.291025849338521"><ele>464.1428571428571</ele><time>2026-04-12T09:27:40Z</time></trkpt><trkpt lat="49.97984906680658" lon="5.291107719624302"><ele>465.0</ele><time>2026-04-12T09:27:46Z</time></trkpt><trkpt lat="49.97989791126582" lon="5.291181489690784"><ele>465.0</ele><time>2026-04-12T09:27:53Z</time></trkpt><trkpt lat="49.97995003800545" lon="5.291239741663104"><ele>465.0</ele><time>2026-04-12T09:27:59Z</time></trkpt><trkpt lat="49.98000893422275" lon="5.291290808699254"><ele>465.0</ele><time>2026-04-12T09:28:05Z</time></trkpt><trkpt lat="49.98006928284806" lon="5.291330231509678"><ele>465.0</ele><time>2026-04-12T09:28:11Z</time></trkpt><trkpt lat="49.980132232438024" lon="5.291385288227932"><ele>465.0</ele><time>2026-04-12T09:28:18Z</time></trkpt><trkpt lat="49.98019043296717" lon="5.291426193791301"><ele>465.0</ele><time>2026-04-12T09:28:25Z</time></trkpt><trkpt lat="49.98024687724273" lon="5.291469615960158"><ele>465.0</ele><time>2026-04-12T09:28:31Z</time></trkpt><trkpt lat="49.980289187585434" lon="5.291544130126922"><ele>465.71428571428567</ele><time>2026-04-12T09:28:37Z</time></trkpt><trkpt lat="49.98033716921902" lon="5.291622101853463"><ele>466.42857142857144</ele><time>2026-04-12T09:28:42Z</time></trkpt><trkpt lat="49.98039796383032" lon="5.291690264258249"><ele>467.1428571428571</ele><time>2026-04-12T09:28:50Z</time></trkpt><trkpt lat="49.98045012040279" lon="5.291749608325049"><ele>467.85714285714283</ele><time>2026-04-12T09:28:56Z</time></trkpt><trkpt lat="49.98048453478654" lon="5.291832918165685"><ele>468.57142857142856</ele><time>2026-04-12T09:29:03Z</time></trkpt><trkpt lat="49.98051848174262" lon="5.291921496385734"><ele>469.2857142857143</ele><time>2026-04-12T09:29:11Z</time></trkpt><trkpt lat="49.98056290180118" lon="5.292010005136614"><ele>470.0</ele><time>2026-04-12T09:29:18Z</time></trkpt><trkpt lat="49.9806115114313" lon="5.292073439246902"><ele>470.0</ele><time>2026-04-12T09:29:24Z</time></trkpt><trkpt lat="49.980668012580175" lon="5.292141196769432"><ele>469.99999999999994</ele><time>2026-04-12T09:29:31Z</time></trkpt><trkpt lat="49.98073090532095" lon="5.292180256656782"><ele>470.0</ele><time>2026-04-12T09:29:37Z</time></trkpt><trkpt lat="49.98079208505646" lon="5.292214216480379"><ele>470.0</ele><time>2026-04-12T09:29:43Z</time></trkpt><trkpt lat="49.98085168345523" lon="5.292256148902251"><ele>469.99999999999994</ele><time>2026-04-12T09:29:49Z</time></trkpt><trkpt lat="49.98091106155572" lon="5.292297303762309"><ele>470.0</ele><time>2026-04-12T09:29:56Z</time></trkpt><trkpt lat="49.98096971245481" lon="5.292353090420764"><ele>470.0</ele><time>2026-04-12T09:30:03Z</time></trkpt><trkpt lat="49.981043969229425" lon="5.292384469935344"><ele>471.4285714285714</ele><time>2026-04-12T09:30:10Z</time></trkpt><trkpt lat="49.98110755494309" lon="5.292422606640346"><ele>472.8571428571428</ele><time>2026-04-12T09:30:16Z</time></trkpt><trkpt lat="49.98116634937139" lon="5.292466652876574"><ele>474.2857142857143</ele><time>2026-04-12T09:30:23Z</time></trkpt><trkpt lat="49.98123541268132" lon="5.292519343367455"><ele>475.71428571428567</ele><time>2026-04-12T09:30:30Z</time></trkpt><trkpt lat="49.981305230614204" lon="5.29251241077159"><ele>477.1428571428571</ele><time>2026-04-12T09:30:36Z</time></trkpt><trkpt lat="49.981370269587494" lon="5.2925386140944495"><ele>478.57142857142856</ele><time>2026-04-12T09:30:43Z</time></trkpt><trkpt lat="49.98144832175444" lon="5.292568257276145"><ele>480.0</ele><time>2026-04-12T09:30:50Z</time></trkpt><trkpt lat="49.98151116959424" lon="5.292574289131122"><ele>480.0</ele><time>2026-04-12T09:30:55Z</time></trkpt><trkpt lat="49.9815668461805" lon="5.292627165024615"><ele>480.0</ele><time>2026-04-12T09:31:02Z</time></trkpt><trkpt lat="49.98160667600251" lon="5.292705647221022"><ele>480.0</ele><time>2026-04-12T09:31:08Z</time></trkpt><trkpt lat="49.98166757117933" lon="5.292741872206158"><ele>480.0</ele><time>2026-04-12T09:31:15Z</time></trkpt><trkpt lat="49.981726883938336" lon="5.292779354500403"><ele>480.0</ele><time>2026-04-12T09:31:21Z</time></trkpt><trkpt lat="49.9817880127707" lon="5.292827173489087"><ele>480.0</ele><time>2026-04-12T09:31:28Z</time></trkpt><trkpt lat="49.98184789254482" lon="5.292869254035884"><ele>480.0</ele><time>2026-04-12T09:31:33Z</time></trkpt><trkpt lat="49.98188876617777" lon="5.292946590152025"><ele>480.8571428571429</ele><time>2026-04-12T09:31:39Z</time></trkpt><trkpt lat="49.98194923582356" lon="5.29300378322219"><ele>481.71428571428567</ele><time>2026-04-12T09:31:46Z</time></trkpt><trkpt lat="49.98200394117587" lon="5.293062137278193"><ele>482.57142857142856</ele><time>2026-04-12T09:31:52Z</time></trkpt><trkpt lat="49.98206773722077" lon="5.2930889838012325"><ele>483.42857142857144</ele><time>2026-04-12T09:32:00Z</time></trkpt><trkpt lat="49.98212372564033" lon="5.2931558294524095"><ele>484.28571428571433</ele><time>2026-04-12T09:32:06Z</time></trkpt><trkpt lat="49.982175776262466" lon="5.29323680861727"><ele>485.1428571428571</ele><time>2026-04-12T09:32:13Z</time></trkpt><trkpt lat="49.98224459904754" lon="5.293265197657823"><ele>486.0</ele><time>2026-04-12T09:32:19Z</time></trkpt><trkpt lat="49.98230981956793" lon="5.29327780637518"><ele>486.57142857142856</ele><time>2026-04-12T09:32:35Z</time></trkpt><trkpt lat="49.98239397379345" lon="5.29335608911953"><ele>487.14285714285717</ele><time>2026-04-12T09:32:56Z</time></trkpt><trkpt lat="49.98244713704392" lon="5.293418140914851"><ele>487.7142857142857</ele><time>2026-04-12T09:33:05Z</time></trkpt><trkpt lat="49.9824859507895" lon="5.293502108603503"><ele>488.2857142857143</ele><time>2026-04-12T09:33:12Z</time></trkpt><trkpt lat="49.9825323585224" lon="5.293577274550658"><ele>488.8571428571429</ele><time>2026-04-12T09:33:18Z</time></trkpt><trkpt lat="49.982588120670236" lon="5.293629849666502"><ele>489.42857142857144</ele><time>2026-04-12T09:33:24Z</time></trkpt><trkpt lat="49.98264753713897" lon="5.2936929337648015"><ele>490.0</ele><time>2026-04-12T09:33:31Z</time></trkpt><trkpt lat="49.982694779867465" lon="5.293759763445085"><ele>490.2857142857143</ele><time>2026-04-12T09:33:38Z</time></trkpt><trkpt lat="49.98274267949837" lon="5.293852209906623"><ele>490.57142857142856</ele><time>2026-04-12T09:33:45Z</time></trkpt><trkpt lat="49.982788680434126" lon="5.293930850547203"><ele>490.8571428571429</ele><time>2026-04-12T09:33:51Z</time></trkpt><trkpt lat="49.98283881021499" lon="5.293996460313915"><ele>491.14285714285717</ele><time>2026-04-12T09:33:59Z</time></trkpt><trkpt lat="49.98289440424232" lon="5.294043204445563"><ele>491.42857142857144</ele><time>2026-04-12T09:34:03Z</time></trkpt><trkpt lat="49.982951425741156" lon="5.294099986918036"><ele>491.7142857142858</ele><time>2026-04-12T09:34:11Z</time></trkpt><trkpt lat="49.98298978178676" lon="5.294188211915363"><ele>492.00000000000006</ele><time>2026-04-12T09:34:18Z</time></trkpt><trkpt lat="49.983033915630664" lon="5.294272877156411"><ele>492.28571428571433</ele><time>2026-04-12T09:34:23Z</time></trkpt><trkpt lat="49.983061145810424" lon="5.294367358735849"><ele>492.57142857142856</ele><time>2026-04-12T09:34:29Z</time></trkpt><trkpt lat="49.98310139443801" lon="5.294459724824128"><ele>492.8571428571429</ele><time>2026-04-12T09:34:36Z</time></trkpt><trkpt lat="49.98314028496739" lon="5.294557806547776"><ele>493.14285714285717</ele><time>2026-04-12T09:35:16Z</time></trkpt><trkpt lat="49.98315444405969" lon="5.294659132183637"><ele>493.42857142857144</ele><time>2026-04-12T09:35:23Z</time></trkpt><trkpt lat="49.98317150136122" lon="5.294757547062406"><ele>493.7142857142857</ele><time>2026-04-12T09:35:30Z</time></trkpt><trkpt lat="49.98319210766077" lon="5.2948586945698155"><ele>494.0</ele><time>2026-04-12T09:35:37Z</time></trkpt><trkpt lat="49.98320567408267" lon="5.294957240169564"><ele>494.57142857142856</ele><time>2026-04-12T09:35:43Z</time></trkpt><trkpt lat="49.98321268532707" lon="5.295058020321083"><ele>495.1428571428571</ele><time>2026-04-12T09:35:49Z</time></trkpt><trkpt lat="49.98320303840217" lon="5.29517045780185"><ele>495.71428571428567</ele><time>2026-04-12T09:35:57Z</time></trkpt><trkpt lat="49.9831757228044" lon="5.295269772268622"><ele>496.2857142857143</ele><time>2026-04-12T09:36:02Z</time></trkpt><trkpt lat="49.98317806587858" lon="5.295368924071774"><ele>496.8571428571428</ele><time>2026-04-12T09:36:07Z</time></trkpt><trkpt lat="49.98319066396905" lon="5.295476102001875"><ele>497.4285714285714</ele><time>2026-04-12T09:36:14Z</time></trkpt><trkpt lat="49.983228535457904" lon="5.295565145063295"><ele>498.0</ele><time>2026-04-12T09:36:28Z</time></trkpt><trkpt lat="49.983285951729755" lon="5.29563732476065"><ele>498.2857142857143</ele><time>2026-04-12T09:36:35Z</time></trkpt><trkpt lat="49.983344647695105" lon="5.295699839527241"><ele>498.57142857142856</ele><time>2026-04-12T09:36:42Z</time></trkpt><trkpt lat="49.98339544631917" lon="5.295764205484014"><ele>498.85714285714283</ele><time>2026-04-12T09:36:49Z</time></trkpt><trkpt lat="49.98344684382107" lon="5.295826691503549"><ele>499.1428571428571</ele><time>2026-04-12T09:36:56Z</time></trkpt><trkpt lat="49.98350213694749" lon="5.295876050719546"><ele>499.42857142857144</ele><time>2026-04-12T09:37:02Z</time></trkpt><trkpt lat="49.98355221048301" lon="5.295950969013404"><ele>499.71428571428567</ele><time>2026-04-12T09:37:08Z</time></trkpt><trkpt lat="49.98359454433239" lon="5.296037537136107"><ele>500.0</ele><time>2026-04-12T09:37:14Z</time></trkpt><trkpt lat="49.9836235397451" lon="5.296133332310345"><ele>500.57142857142856</ele><time>2026-04-12T09:37:20Z</time></trkpt><trkpt lat="49.98366430372567" lon="5.2962383591419755"><ele>501.14285714285717</ele><time>2026-04-12T09:37:28Z</time></trkpt><trkpt lat="49.98369458049275" lon="5.296348710971921"><ele>501.7142857142857</ele><time>2026-04-12T09:37:34Z</time></trkpt><trkpt lat="49.98373184078135" lon="5.296430443129408"><ele>502.2857142857143</ele><time>2026-04-12T09:37:39Z</time></trkpt><trkpt lat="49.98376389590348" lon="5.296530620026943"><ele>502.8571428571429</ele><time>2026-04-12T09:37:46Z</time></trkpt><trkpt lat="49.983795197685076" lon="5.2966244181428035"><ele>503.42857142857144</ele><time>2026-04-12T09:37:52Z</time></trkpt><trkpt lat="49.98382837708541" lon="5.2967104293790035"><ele>504.0</ele><time>2026-04-12T09:37:59Z</time></trkpt><trkpt lat="49.983868189584555" lon="5.296816497067907"><ele>504.1428571428571</ele><time>2026-04-12T09:38:05Z</time></trkpt><trkpt lat="49.98390978536799" lon="5.296895380411098"><ele>504.2857142857143</ele><time>2026-04-12T09:38:10Z</time></trkpt><trkpt lat="49.98393686596864" lon="5.296993382898443"><ele>504.42857142857144</ele><time>2026-04-12T09:38:17Z</time></trkpt><trkpt lat="49.98396782638279" lon="5.297096058925266"><ele>504.57142857142856</ele><time>2026-04-12T09:38:31Z</time></trkpt><trkpt lat="49.983995210836284" lon="5.2971884264254125"><ele>504.71428571428567</ele><time>2026-04-12T09:38:37Z</time></trkpt><trkpt lat="49.98401901614141" lon="5.297290607376613"><ele>504.85714285714283</ele><time>2026-04-12T09:38:44Z</time></trkpt><trkpt lat="49.98404078359736" lon="5.297395829304482"><ele>505.0</ele><time>2026-04-12T09:38:49Z</time></trkpt><trkpt lat="49.98405993315799" lon="5.297500013517367"><ele>505.2857142857143</ele><time>2026-04-12T09:38:54Z</time></trkpt><trkpt lat="49.98408792219861" lon="5.29759826705666"><ele>505.57142857142856</ele><time>2026-04-12T09:39:00Z</time></trkpt><trkpt lat="49.98408396610359" lon="5.297702425160648"><ele>505.85714285714283</ele><time>2026-04-12T09:39:06Z</time></trkpt><trkpt lat="49.984082618448895" lon="5.29780238840878"><ele>506.1428571428571</ele><time>2026-04-12T09:39:11Z</time></trkpt><trkpt lat="49.98406477099106" lon="5.297913830286191"><ele>506.42857142857144</ele><time>2026-04-12T09:39:17Z</time></trkpt><trkpt lat="49.98405928759603" lon="5.298026120736455"><ele>506.71428571428567</ele><time>2026-04-12T09:39:23Z</time></trkpt><trkpt lat="49.98405689825356" lon="5.29814588207556"><ele>507.0</ele><time>2026-04-12T09:39:29Z</time></trkpt><trkpt lat="49.98405957745527" lon="5.298247050372405"><ele>507.1428571428571</ele><time>2026-04-12T09:39:35Z</time></trkpt><trkpt lat="49.98405714930318" lon="5.298348027898348"><ele>507.28571428571433</ele><time>2026-04-12T09:39:41Z</time></trkpt><trkpt lat="49.98406156300746" lon="5.298457444307011"><ele>507.42857142857144</ele><time>2026-04-12T09:39:47Z</time></trkpt><trkpt lat="49.9840660302139" lon="5.29856949751017"><ele>507.57142857142856</ele><time>2026-04-12T09:39:53Z</time></trkpt><trkpt lat="49.98406953095738" lon="5.298668264984067"><ele>507.71428571428567</ele><time>2026-04-12T09:39:58Z</time></trkpt><trkpt lat="49.984061995987005" lon="5.2987837345838"><ele>507.8571428571429</ele><time>2026-04-12T09:40:04Z</time></trkpt><trkpt lat="49.98405976338107" lon="5.298901804837472"><ele>508.0</ele><time>2026-04-12T09:40:10Z</time></trkpt><trkpt lat="49.98408091147699" lon="5.2990085139003975"><ele>507.7142857142857</ele><time>2026-04-12T09:40:18Z</time></trkpt><trkpt lat="49.98412599682491" lon="5.299097649143997"><ele>507.42857142857144</ele><time>2026-04-12T09:40:35Z</time></trkpt><trkpt lat="49.984191361649174" lon="5.2990793231138555"><ele>507.14285714285717</ele><time>2026-04-12T09:40:43Z</time></trkpt><trkpt lat="49.98425410256295" lon="5.299060715781245"><ele>506.8571428571429</ele><time>2026-04-12T09:40:48Z</time></trkpt><trkpt lat="49.98431799431097" lon="5.299003413722614"><ele>506.57142857142856</ele><time>2026-04-12T09:40:53Z</time></trkpt><trkpt lat="49.98436948594552" lon="5.298934200205609"><ele>506.28571428571433</ele><time>2026-04-12T09:40:59Z</time></trkpt><trkpt lat="49.984436064011106" lon="5.298866180369476"><ele>506.00000000000006</ele><time>2026-04-12T09:41:05Z</time></trkpt><trkpt lat="49.98448430893709" lon="5.298785346549693"><ele>505.7142857142858</ele><time>2026-04-12T09:41:10Z</time></trkpt><trkpt lat="49.98453992462003" lon="5.298716475581355"><ele>505.42857142857144</ele><time>2026-04-12T09:41:16Z</time></trkpt><trkpt lat="49.984594002104366" lon="5.298652017325484"><ele>505.14285714285717</ele><time>2026-04-12T09:41:23Z</time></trkpt><trkpt lat="49.98465327363244" lon="5.298581504285768"><ele>504.8571428571429</ele><time>2026-04-12T09:41:29Z</time></trkpt><trkpt lat="49.98471395832101" lon="5.298505850952935"><ele>504.57142857142856</ele><time>2026-04-12T09:41:37Z</time></trkpt><trkpt lat="49.98476429704912" lon="5.298442456020935"><ele>504.2857142857143</ele><time>2026-04-12T09:41:42Z</time></trkpt><trkpt lat="49.98482501348855" lon="5.298373043539461"><ele>504.0</ele><time>2026-04-12T09:41:47Z</time></trkpt><trkpt lat="49.98487012413329" lon="5.298297111946606"><ele>504.0</ele><time>2026-04-12T09:41:53Z</time></trkpt><trkpt lat="49.98492568734902" lon="5.298223663874274"><ele>504.0</ele><time>2026-04-12T09:41:59Z</time></trkpt><trkpt lat="49.9849744842346" lon="5.29815125072753"><ele>504.0</ele><time>2026-04-12T09:42:05Z</time></trkpt><trkpt lat="49.985025408704914" lon="5.298083621874664"><ele>504.0</ele><time>2026-04-12T09:42:10Z</time></trkpt><trkpt lat="49.98507983247476" lon="5.298010843955751"><ele>504.0</ele><time>2026-04-12T09:42:15Z</time></trkpt><trkpt lat="49.985131755861865" lon="5.297953061012693"><ele>504.0</ele><time>2026-04-12T09:42:21Z</time></trkpt><trkpt lat="49.98518284036743" lon="5.297892961454525"><ele>504.0</ele><time>2026-04-12T09:42:27Z</time></trkpt><trkpt lat="49.985237528609275" lon="5.297808537382856"><ele>503.57142857142856</ele><time>2026-04-12T09:42:33Z</time></trkpt><trkpt lat="49.98528329409313" lon="5.297731820269995"><ele>503.1428571428571</ele><time>2026-04-12T09:42:38Z</time></trkpt><trkpt lat="49.985340120567415" lon="5.297682617820597"><ele>502.7142857142857</ele><time>2026-04-12T09:42:44Z</time></trkpt><trkpt lat="49.98539209799702" lon="5.297614040634398"><ele>502.2857142857143</ele><time>2026-04-12T09:42:49Z</time></trkpt><trkpt lat="49.985449094213486" lon="5.297541048735411"><ele>501.85714285714283</ele><time>2026-04-12T09:42:55Z</time></trkpt><trkpt lat="49.985505033106634" lon="5.297463303534123"><ele>501.42857142857144</ele><time>2026-04-12T09:43:00Z</time></trkpt><trkpt lat="49.9855571172884" lon="5.297384652829014"><ele>501.0</ele><time>2026-04-12T09:43:06Z</time></trkpt><trkpt lat="49.98560924568061" lon="5.297305585591412"><ele>501.14285714285717</ele><time>2026-04-12T09:43:13Z</time></trkpt><trkpt lat="49.98566708860642" lon="5.297233254052608"><ele>501.2857142857142</ele><time>2026-04-12T09:43:19Z</time></trkpt><trkpt lat="49.98572386609037" lon="5.297167501025687"><ele>501.4285714285714</ele><time>2026-04-12T09:43:25Z</time></trkpt><trkpt lat="49.985768969303166" lon="5.297096282432914"><ele>501.57142857142856</ele><time>2026-04-12T09:43:29Z</time></trkpt><trkpt lat="49.985828499352245" lon="5.297034487178596"><ele>501.71428571428567</ele><time>2026-04-12T09:43:36Z</time></trkpt><trkpt lat="49.985886230858675" lon="5.296970526289941"><ele>501.8571428571428</ele><time>2026-04-12T09:43:42Z</time></trkpt><trkpt lat="49.98593929121019" lon="5.296904267853695"><ele>501.99999999999994</ele><time>2026-04-12T09:43:48Z</time></trkpt><trkpt lat="49.98599376278925" lon="5.296839200176254"><ele>502.1428571428571</ele><time>2026-04-12T09:43:55Z</time></trkpt><trkpt lat="49.986047622185836" lon="5.296772669380114"><ele>502.2857142857143</ele><time>2026-04-12T09:44:01Z</time></trkpt><trkpt lat="49.986108057759715" lon="5.296725365566732"><ele>502.42857142857144</ele><time>2026-04-12T09:44:07Z</time></trkpt><trkpt lat="49.986157306377486" lon="5.296648558221046"><ele>502.57142857142856</ele><time>2026-04-12T09:44:13Z</time></trkpt><trkpt lat="49.98621611431225" lon="5.29658155357128"><ele>502.7142857142858</ele><time>2026-04-12T09:44:19Z</time></trkpt><trkpt lat="49.98626554175126" lon="5.296489999223487"><ele>502.8571428571429</ele><time>2026-04-12T09:44:24Z</time></trkpt><trkpt lat="49.98632256539698" lon="5.296431527257579"><ele>503.0</ele><time>2026-04-12T09:44:30Z</time></trkpt><trkpt lat="49.98637568177505" lon="5.296351305356267"><ele>503.0</ele><time>2026-04-12T09:44:36Z</time></trkpt><trkpt lat="49.98642418128128" lon="5.296277307031088"><ele>503.00000000000006</ele><time>2026-04-12T09:44:41Z</time></trkpt><trkpt lat="49.986473092227364" lon="5.296214038983923"><ele>503.0</ele><time>2026-04-12T09:44:46Z</time></trkpt><trkpt lat="49.98652227940749" lon="5.296149476030821"><ele>503.0</ele><time>2026-04-12T09:44:52Z</time></trkpt><trkpt lat="49.98657220992722" lon="5.296088177562943"><ele>503.00000000000006</ele><time>2026-04-12T09:44:57Z</time></trkpt><trkpt lat="49.98663201628015" lon="5.296023540450015"><ele>503.0</ele><time>2026-04-12T09:45:03Z</time></trkpt><trkpt lat="49.98668457050363" lon="5.295967375661652"><ele>503.0</ele><time>2026-04-12T09:45:08Z</time></trkpt><trkpt lat="49.98674041818991" lon="5.2958833403584435"><ele>502.7142857142857</ele><time>2026-04-12T09:45:14Z</time></trkpt><trkpt lat="49.9867946391712" lon="5.295811084384192"><ele>502.42857142857144</ele><time>2026-04-12T09:45:19Z</time></trkpt><trkpt lat="49.986851171363675" lon="5.295740566216633"><ele>502.14285714285717</ele><time>2026-04-12T09:45:24Z</time></trkpt><trkpt lat="49.98689289360897" lon="5.295659584439876"><ele>501.8571428571429</ele><time>2026-04-12T09:45:30Z</time></trkpt><trkpt lat="49.98694654043165" lon="5.295606979337966"><ele>501.57142857142856</ele><time>2026-04-12T09:45:36Z</time></trkpt><trkpt lat="49.98701019174962" lon="5.2955382124987445"><ele>501.28571428571433</ele><time>2026-04-12T09:45:42Z</time></trkpt><trkpt lat="49.987058010596634" lon="5.295473372883574"><ele>501.0</ele><time>2026-04-12T09:45:47Z</time></trkpt><trkpt lat="49.98711806286658" lon="5.295413224644731"><ele>501.0</ele><time>2026-04-12T09:45:53Z</time></trkpt><trkpt lat="49.98716488382195" lon="5.295325935486778"><ele>501.0</ele><time>2026-04-12T09:45:59Z</time></trkpt><trkpt lat="49.98722259004141" lon="5.295269702014877"><ele>501.0</ele><time>2026-04-12T09:46:04Z</time></trkpt><trkpt lat="49.98727390708796" lon="5.295203640670252"><ele>501.0</ele><time>2026-04-12T09:46:10Z</time></trkpt><trkpt lat="49.987327468450516" lon="5.295140569535991"><ele>501.0</ele><time>2026-04-12T09:46:14Z</time></trkpt><trkpt lat="49.98737270138511" lon="5.295057508785346"><ele>501.0</ele><time>2026-04-12T09:46:20Z</time></trkpt><trkpt lat="49.98742150604323" lon="5.294991873147965"><ele>501.0</ele><time>2026-04-12T09:46:26Z</time></trkpt><trkpt lat="49.987475164111075" lon="5.294937603152764"><ele>501.0</ele><time>2026-04-12T09:46:31Z</time></trkpt><trkpt lat="49.98753075220044" lon="5.294875674128482"><ele>501.0</ele><time>2026-04-12T09:46:37Z</time></trkpt><trkpt lat="49.98758337596281" lon="5.294805170047717"><ele>501.0</ele><time>2026-04-12T09:46:43Z</time></trkpt><trkpt lat="49.987628095842126" lon="5.294731379779396"><ele>501.0</ele><time>2026-04-12T09:46:49Z</time></trkpt><trkpt lat="49.987678658283556" lon="5.29466921552268"><ele>501.0</ele><time>2026-04-12T09:46:53Z</time></trkpt><trkpt lat="49.987729660470606" lon="5.294605456869904"><ele>501.0</ele><time>2026-04-12T09:46:58Z</time></trkpt><trkpt lat="49.98779466619867" lon="5.294549274957069"><ele>501.0</ele><time>2026-04-12T09:47:04Z</time></trkpt><trkpt lat="49.98784458136696" lon="5.2944667789050275"><ele>501.0</ele><time>2026-04-12T09:47:10Z</time></trkpt><trkpt lat="49.9878972860215" lon="5.294388551886157"><ele>501.0</ele><time>2026-04-12T09:47:17Z</time></trkpt><trkpt lat="49.987953816246765" lon="5.294310832708598"><ele>501.0</ele><time>2026-04-12T09:47:23Z</time></trkpt><trkpt lat="49.98800362268862" lon="5.294224641684911"><ele>501.0</ele><time>2026-04-12T09:47:28Z</time></trkpt><trkpt lat="49.988062419006866" lon="5.294173903809478"><ele>501.0</ele><time>2026-04-12T09:47:34Z</time></trkpt><trkpt lat="49.98811731302421" lon="5.294119529076381"><ele>501.0</ele><time>2026-04-12T09:47:39Z</time></trkpt><trkpt lat="49.988178366009144" lon="5.294064231367957"><ele>501.0</ele><time>2026-04-12T09:47:44Z</time></trkpt><trkpt lat="49.9882378934619" lon="5.294001894082661"><ele>500.8571428571429</ele><time>2026-04-12T09:47:50Z</time></trkpt><trkpt lat="49.98828698457684" lon="5.293913268802081"><ele>500.71428571428567</ele><time>2026-04-12T09:47:56Z</time></trkpt><trkpt lat="49.988346707531235" lon="5.29383891429982"><ele>500.57142857142856</ele><time>2026-04-12T09:48:02Z</time></trkpt><trkpt lat="49.98839860414841" lon="5.293761013219974"><ele>500.42857142857144</ele><time>2026-04-12T09:48:09Z</time></trkpt><trkpt lat="49.98846400934987" lon="5.293689676081026"><ele>500.28571428571433</ele><time>2026-04-12T09:48:14Z</time></trkpt><trkpt lat="49.98851140721889" lon="5.293612843730723"><ele>500.1428571428571</ele><time>2026-04-12T09:48:20Z</time></trkpt><trkpt lat="49.9885702383318" lon="5.293561353645104"><ele>500.0</ele><time>2026-04-12T09:48:24Z</time></trkpt><trkpt lat="49.98861886924547" lon="5.293483752121641"><ele>500.0</ele><time>2026-04-12T09:48:30Z</time></trkpt><trkpt lat="49.988672641467474" lon="5.2934097698865665"><ele>500.0</ele><time>2026-04-12T09:48:35Z</time></trkpt><trkpt lat="49.98871918196079" lon="5.2933400912681385"><ele>500.0</ele><time>2026-04-12T09:48:42Z</time></trkpt><trkpt lat="49.988771028013105" lon="5.293276174648878"><ele>500.0</ele><time>2026-04-12T09:48:47Z</time></trkpt><trkpt lat="49.98883099632418" lon="5.293226334220262"><ele>500.0</ele><time>2026-04-12T09:48:52Z</time></trkpt><trkpt lat="49.988876840331635" lon="5.2931457166707165"><ele>500.0</ele><time>2026-04-12T09:48:57Z</time></trkpt><trkpt lat="49.988933632345145" lon="5.293094469292115"><ele>500.0</ele><time>2026-04-12T09:49:02Z</time></trkpt><trkpt lat="49.98899218780883" lon="5.293020302185156"><ele>500.0</ele><time>2026-04-12T09:49:08Z</time></trkpt><trkpt lat="49.9890508323667" lon="5.292965863955423"><ele>500.0</ele><time>2026-04-12T09:49:14Z</time></trkpt><trkpt lat="49.98911564562919" lon="5.2929158441299045"><ele>500.0</ele><time>2026-04-12T09:49:20Z</time></trkpt><trkpt lat="49.989181450858126" lon="5.292863805186861"><ele>500.0</ele><time>2026-04-12T09:49:25Z</time></trkpt><trkpt lat="49.98925929019353" lon="5.292811818900866"><ele>500.0</ele><time>2026-04-12T09:49:32Z</time></trkpt><trkpt lat="49.989305089758766" lon="5.292724752548244"><ele>500.0</ele><time>2026-04-12T09:49:36Z</time></trkpt><trkpt lat="49.989364767308004" lon="5.292664406142365"><ele>500.0</ele><time>2026-04-12T09:49:41Z</time></trkpt><trkpt lat="49.98943500294801" lon="5.292649060758514"><ele>500.0</ele><time>2026-04-12T09:49:46Z</time></trkpt><trkpt lat="49.98949499755949" lon="5.292580695491059"><ele>500.0</ele><time>2026-04-12T09:49:52Z</time></trkpt><trkpt lat="49.989538615308746" lon="5.292508413169394"><ele>500.0</ele><time>2026-04-12T09:49:58Z</time></trkpt><trkpt lat="49.989596226154184" lon="5.292428557854527"><ele>500.0</ele><time>2026-04-12T09:50:04Z</time></trkpt><trkpt lat="49.98965435242132" lon="5.292385548560834"><ele>500.0</ele><time>2026-04-12T09:50:09Z</time></trkpt><trkpt lat="49.98971094432388" lon="5.292327139365433"><ele>500.0</ele><time>2026-04-12T09:50:14Z</time></trkpt><trkpt lat="49.98976724267018" lon="5.29226171691163"><ele>500.0</ele><time>2026-04-12T09:50:20Z</time></trkpt><trkpt lat="49.989831835682985" lon="5.292220796863525"><ele>499.85714285714283</ele><time>2026-04-12T09:50:25Z</time></trkpt><trkpt lat="49.989885260093665" lon="5.292164886645144"><ele>499.7142857142858</ele><time>2026-04-12T09:50:30Z</time></trkpt><trkpt lat="49.989949597012554" lon="5.292109916148513"><ele>499.5714285714286</ele><time>2026-04-12T09:50:36Z</time></trkpt><trkpt lat="49.990010789050245" lon="5.292054957009014"><ele>499.42857142857144</ele><time>2026-04-12T09:50:42Z</time></trkpt><trkpt lat="49.990076000270946" lon="5.292002522990439"><ele>499.28571428571433</ele><time>2026-04-12T09:50:48Z</time></trkpt><trkpt lat="49.990141571081686" lon="5.29195381228648"><ele>499.1428571428572</ele><time>2026-04-12T09:50:54Z</time></trkpt><trkpt lat="49.99019269271038" lon="5.291896098090147"><ele>499.00000000000006</ele><time>2026-04-12T09:50:58Z</time></trkpt><trkpt lat="49.99025160049787" lon="5.291840722290304"><ele>498.4285714285715</ele><time>2026-04-12T09:51:03Z</time></trkpt><trkpt lat="49.990311282282086" lon="5.291790624000406"><ele>497.8571428571429</ele><time>2026-04-12T09:51:09Z</time></trkpt><trkpt lat="49.9903727889518" lon="5.291751231593988"><ele>497.2857142857143</ele><time>2026-04-12T09:51:14Z</time></trkpt><trkpt lat="49.99042979365962" lon="5.2916991305734395"><ele>496.7142857142857</ele><time>2026-04-12T09:51:20Z</time></trkpt><trkpt lat="49.9904856998897" lon="5.291640269784982"><ele>496.1428571428571</ele><time>2026-04-12T09:51:25Z</time></trkpt><trkpt lat="49.99054077234426" lon="5.291572551728411"><ele>495.5714285714285</ele><time>2026-04-12T09:51:30Z</time></trkpt><trkpt lat="49.99059189761285" lon="5.291506583521056"><ele>494.99999999999994</ele><time>2026-04-12T09:51:35Z</time></trkpt><trkpt lat="49.99066176028565" lon="5.291464713709942"><ele>494.8571428571428</ele><time>2026-04-12T09:51:41Z</time></trkpt><trkpt lat="49.99071524426323" lon="5.291404092532175"><ele>494.71428571428567</ele><time>2026-04-12T09:51:46Z</time></trkpt><trkpt lat="49.99077157092074" lon="5.291351446951316"><ele>494.57142857142856</ele><time>2026-04-12T09:51:51Z</time></trkpt><trkpt lat="49.990824958885355" lon="5.291298343418162"><ele>494.4285714285714</ele><time>2026-04-12T09:51:56Z</time></trkpt><trkpt lat="49.99088858472014" lon="5.2912489006077035"><ele>494.2857142857142</ele><time>2026-04-12T09:52:01Z</time></trkpt><trkpt lat="49.99094586401443" lon="5.291189389732445"><ele>494.14285714285717</ele><time>2026-04-12T09:52:06Z</time></trkpt><trkpt lat="49.991003707016404" lon="5.291136463000889"><ele>494.0</ele><time>2026-04-12T09:52:11Z</time></trkpt><trkpt lat="49.9910526612429" lon="5.291055780521264"><ele>493.14285714285717</ele><time>2026-04-12T09:52:16Z</time></trkpt><trkpt lat="49.99111040007893" lon="5.291008254813808"><ele>492.2857142857142</ele><time>2026-04-12T09:52:21Z</time></trkpt><trkpt lat="49.99117380131167" lon="5.290942360827012"><ele>491.4285714285714</ele><time>2026-04-12T09:52:27Z</time></trkpt><trkpt lat="49.991233787961384" lon="5.290910812950364"><ele>490.57142857142856</ele><time>2026-04-12T09:52:32Z</time></trkpt><trkpt lat="49.99128364514325" lon="5.290847218093619"><ele>489.71428571428567</ele><time>2026-04-12T09:52:37Z</time></trkpt><trkpt lat="49.991336383476025" lon="5.290787015445764"><ele>488.8571428571428</ele><time>2026-04-12T09:52:42Z</time></trkpt><trkpt lat="49.99138799044925" lon="5.290712014362461"><ele>487.99999999999994</ele><time>2026-04-12T09:52:47Z</time></trkpt><trkpt lat="49.991445265066396" lon="5.290655801995043"><ele>487.99999999999994</ele><time>2026-04-12T09:52:52Z</time></trkpt><trkpt lat="49.991504789793204" lon="5.290612787592722"><ele>488.0</ele><time>2026-04-12T09:52:58Z</time></trkpt><trkpt lat="49.991563485151424" lon="5.2905442913522"><ele>487.99999999999994</ele><time>2026-04-12T09:53:04Z</time></trkpt><trkpt lat="49.99161607540097" lon="5.290472324464022"><ele>487.99999999999994</ele><time>2026-04-12T09:53:09Z</time></trkpt><trkpt lat="49.99168412723538" lon="5.290424477050071"><ele>488.0</ele><time>2026-04-12T09:53:14Z</time></trkpt><trkpt lat="49.991748465983164" lon="5.290371102828203"><ele>487.99999999999994</ele><time>2026-04-12T09:53:20Z</time></trkpt><trkpt lat="49.991800616621084" lon="5.290306192713658"><ele>487.99999999999994</ele><time>2026-04-12T09:53:25Z</time></trkpt><trkpt lat="49.991865131324445" lon="5.290244841739595"><ele>487.2857142857142</ele><time>2026-04-12T09:53:35Z</time></trkpt><trkpt lat="49.99192070136158" lon="5.290187941136569"><ele>486.57142857142856</ele><time>2026-04-12T09:53:40Z</time></trkpt><trkpt lat="49.991973381073755" lon="5.290129736774401"><ele>485.85714285714283</ele><time>2026-04-12T09:53:46Z</time></trkpt><trkpt lat="49.992031073664755" lon="5.290071750509691"><ele>485.1428571428571</ele><time>2026-04-12T09:53:51Z</time></trkpt><trkpt lat="49.99209178914233" lon="5.290032809246761"><ele>484.42857142857144</ele><time>2026-04-12T09:53:57Z</time></trkpt><trkpt lat="49.99215137584373" lon="5.289986432589763"><ele>483.7142857142857</ele><time>2026-04-12T09:54:04Z</time></trkpt><trkpt lat="49.99222226188805" lon="5.289940139362408"><ele>483.0</ele><time>2026-04-12T09:54:11Z</time></trkpt><trkpt lat="49.99228545841121" lon="5.289872726667277"><ele>483.0</ele><time>2026-04-12T09:54:17Z</time></trkpt><trkpt lat="49.992348466106286" lon="5.289797922865808"><ele>483.0</ele><time>2026-04-12T09:54:23Z</time></trkpt><trkpt lat="49.99241510853146" lon="5.289718910259871"><ele>483.0</ele><time>2026-04-12T09:54:29Z</time></trkpt><trkpt lat="49.992476998244705" lon="5.289678332591822"><ele>483.0</ele><time>2026-04-12T09:54:35Z</time></trkpt><trkpt lat="49.99252584594711" lon="5.289615678437431"><ele>483.0</ele><time>2026-04-12T09:54:39Z</time></trkpt><trkpt lat="49.99257539162957" lon="5.289553639628773"><ele>483.0</ele><time>2026-04-12T09:54:44Z</time></trkpt><trkpt lat="49.99262618421846" lon="5.289495302538742"><ele>483.0</ele><time>2026-04-12T09:54:50Z</time></trkpt><trkpt lat="49.9926914963186" lon="5.28942933961063"><ele>482.0</ele><time>2026-04-12T09:54:55Z</time></trkpt><trkpt lat="49.99274977742585" lon="5.289355550784632"><ele>481.0</ele><time>2026-04-12T09:55:00Z</time></trkpt><trkpt lat="49.992818834588846" lon="5.289311553622173"><ele>480.0</ele><time>2026-04-12T09:55:05Z</time></trkpt><trkpt lat="49.99286135812027" lon="5.289232186101338"><ele>479.0</ele><time>2026-04-12T09:55:10Z</time></trkpt><trkpt lat="49.99291819444171" lon="5.289172365140264"><ele>478.0</ele><time>2026-04-12T09:55:15Z</time></trkpt><trkpt lat="49.992972755460585" lon="5.289111492345533"><ele>477.0</ele><time>2026-04-12T09:55:22Z</time></trkpt><trkpt lat="49.993036053138866" lon="5.289057843110072"><ele>476.0</ele><time>2026-04-12T09:55:27Z</time></trkpt><trkpt lat="49.9930988244377" lon="5.289013161325676"><ele>476.0</ele><time>2026-04-12T09:55:33Z</time></trkpt><trkpt lat="49.99315578458193" lon="5.288950033931214"><ele>476.0</ele><time>2026-04-12T09:55:38Z</time></trkpt><trkpt lat="49.9932211701682" lon="5.28888928875243"><ele>476.0</ele><time>2026-04-12T09:55:44Z</time></trkpt><trkpt lat="49.993279666464936" lon="5.288849865008526"><ele>476.0</ele><time>2026-04-12T09:55:50Z</time></trkpt><trkpt lat="49.993336795185776" lon="5.288798420572109"><ele>476.0</ele><time>2026-04-12T09:55:55Z</time></trkpt><trkpt lat="49.9933985178873" lon="5.288754880897638"><ele>476.0</ele><time>2026-04-12T09:56:01Z</time></trkpt><trkpt lat="49.99345829131188" lon="5.288693371012603"><ele>476.0</ele><time>2026-04-12T09:56:07Z</time></trkpt><trkpt lat="49.99351960407632" lon="5.2886514264770295"><ele>474.1428571428571</ele><time>2026-04-12T09:56:12Z</time></trkpt><trkpt lat="49.993582228137875" lon="5.2886021226866875"><ele>472.2857142857143</ele><time>2026-04-12T09:56:19Z</time></trkpt><trkpt lat="49.993643547968155" lon="5.288533166743669"><ele>470.42857142857144</ele><time>2026-04-12T09:56:25Z</time></trkpt><trkpt lat="49.99370580143395" lon="5.288470299686066"><ele>468.57142857142856</ele><time>2026-04-12T09:56:31Z</time></trkpt><trkpt lat="49.99375369825802" lon="5.288403764735335"><ele>466.71428571428567</ele><time>2026-04-12T09:56:37Z</time></trkpt><trkpt lat="49.993800108990044" lon="5.288306299270017"><ele>464.85714285714283</ele><time>2026-04-12T09:56:42Z</time></trkpt><trkpt lat="49.99382551931392" lon="5.288215712499222"><ele>463.0</ele><time>2026-04-12T09:56:47Z</time></trkpt><trkpt lat="49.99384467482864" lon="5.2881216792431855"><ele>463.2857142857143</ele><time>2026-04-12T09:56:53Z</time></trkpt><trkpt lat="49.99386078567723" lon="5.288010923116183"><ele>463.57142857142856</ele><time>2026-04-12T09:56:59Z</time></trkpt><trkpt lat="49.99387906171607" lon="5.287900222630043"><ele>463.85714285714283</ele><time>2026-04-12T09:57:05Z</time></trkpt><trkpt lat="49.99388519473187" lon="5.287798420416883"><ele>464.1428571428571</ele><time>2026-04-12T09:57:11Z</time></trkpt><trkpt lat="49.99389724817543" lon="5.2876924918301995"><ele>464.42857142857144</ele><time>2026-04-12T09:57:16Z</time></trkpt><trkpt lat="49.993900554058875" lon="5.287591002671974"><ele>464.71428571428567</ele><time>2026-04-12T09:57:23Z</time></trkpt><trkpt lat="49.993911561242825" lon="5.2874706931605875"><ele>465.0</ele><time>2026-04-12T09:57:29Z</time></trkpt><trkpt lat="49.99393542763697" lon="5.28736118192491"><ele>465.0</ele><time>2026-04-12T09:57:35Z</time></trkpt><trkpt lat="49.99395165589596" lon="5.287264944595581"><ele>465.0</ele><time>2026-04-12T09:57:40Z</time></trkpt><trkpt lat="49.99395355264636" lon="5.287166250468114"><ele>465.0</ele><time>2026-04-12T09:57:45Z</time></trkpt><trkpt lat="49.99396688900177" lon="5.287060501907475"><ele>465.0</ele><time>2026-04-12T09:57:51Z</time></trkpt><trkpt lat="49.993976906376105" lon="5.286951533738602"><ele>465.0</ele><time>2026-04-12T09:57:57Z</time></trkpt><trkpt lat="49.99403702061408" lon="5.28689243265408"><ele>465.0</ele><time>2026-04-12T09:58:08Z</time></trkpt><trkpt lat="49.994105057876766" lon="5.28688008088191"><ele>465.0</ele><time>2026-04-12T09:58:14Z</time></trkpt><trkpt lat="49.994168087246884" lon="5.286851447366762"><ele>465.85714285714283</ele><time>2026-04-12T09:58:20.999Z</time></trkpt><trkpt lat="49.994235915281244" lon="5.286821164155162"><ele>466.7142857142858</ele><time>2026-04-12T09:58:27Z</time></trkpt><trkpt lat="49.99429773956784" lon="5.286794501247596"><ele>467.5714285714286</ele><time>2026-04-12T09:58:33Z</time></trkpt><trkpt lat="49.99436457039716" lon="5.286775247734956"><ele>468.42857142857144</ele><time>2026-04-12T09:58:39Z</time></trkpt><trkpt lat="49.994430805068056" lon="5.2867467965662"><ele>469.28571428571433</ele><time>2026-04-12T09:58:44Z</time></trkpt><trkpt lat="49.994487874860866" lon="5.286695288363031"><ele>470.1428571428572</ele><time>2026-04-12T09:58:49Z</time></trkpt><trkpt lat="49.9945083805953" lon="5.286599478896734"><ele>471.00000000000006</ele><time>2026-04-12T09:58:55Z</time></trkpt><trkpt lat="49.99450234856479" lon="5.286496344914875"><ele>471.00000000000006</ele><time>2026-04-12T09:58:59Z</time></trkpt><trkpt lat="49.99449456329567" lon="5.286398505607638"><ele>471.0</ele><time>2026-04-12T09:59:03Z</time></trkpt><trkpt lat="49.9945095469381" lon="5.286288370915882"><ele>471.00000000000006</ele><time>2026-04-12T09:59:09Z</time></trkpt><trkpt lat="49.99449561562194" lon="5.286191421793732"><ele>471.00000000000006</ele><time>2026-04-12T09:59:14Z</time></trkpt><trkpt lat="49.99445961146127" lon="5.286110720707487"><ele>471.0</ele><time>2026-04-12T09:59:19Z</time></trkpt><trkpt lat="49.9944516407435" lon="5.286010869316682"><ele>471.00000000000006</ele><time>2026-04-12T09:59:25Z</time></trkpt><trkpt lat="49.99444571020445" lon="5.285893364072511"><ele>471.00000000000006</ele><time>2026-04-12T09:59:31Z</time></trkpt><trkpt lat="49.99442705207079" lon="5.285786604648214"><ele>471.00000000000006</ele><time>2026-04-12T09:59:37Z</time></trkpt><trkpt lat="49.99442316808439" lon="5.285686492812918"><ele>471.0</ele><time>2026-04-12T09:59:43Z</time></trkpt><trkpt lat="49.994398328387334" lon="5.285594457269379"><ele>471.00000000000006</ele><time>2026-04-12T09:59:48Z</time></trkpt><trkpt lat="49.99438306299544" lon="5.2854963837207665"><ele>471.00000000000006</ele><time>2026-04-12T09:59:54Z</time></trkpt><trkpt lat="49.99436823416519" lon="5.285391861726308"><ele>471.0</ele><time>2026-04-12T10:00:00Z</time></trkpt><trkpt lat="49.99438067942255" lon="5.285287868840218"><ele>471.00000000000006</ele><time>2026-04-12T10:00:08Z</time></trkpt><trkpt lat="49.99437739051961" lon="5.285175443525513"><ele>471.00000000000006</ele><time>2026-04-12T10:00:14Z</time></trkpt><trkpt lat="49.994368546361756" lon="5.2850742539284985"><ele>471.4285714285715</ele><time>2026-04-12T10:00:20.999Z</time></trkpt><trkpt lat="49.99434790345758" lon="5.284981048076074"><ele>471.8571428571429</ele><time>2026-04-12T10:00:25.999Z</time></trkpt><trkpt lat="49.99432812276336" lon="5.284883165415987"><ele>472.2857142857143</ele><time>2026-04-12T10:00:32Z</time></trkpt><trkpt lat="49.99431414982442" lon="5.284777933104349"><ele>472.7142857142857</ele><time>2026-04-12T10:00:38Z</time></trkpt><trkpt lat="49.994306261067855" lon="5.284679227486756"><ele>473.1428571428571</ele><time>2026-04-12T10:00:44Z</time></trkpt><trkpt lat="49.9943051009595" lon="5.2845672129599786"><ele>473.5714285714285</ele><time>2026-04-12T10:00:50Z</time></trkpt><trkpt lat="49.99429652652109" lon="5.284464068622232"><ele>473.99999999999994</ele><time>2026-04-12T10:00:57Z</time></trkpt><trkpt lat="49.99428142931715" lon="5.284361099965484"><ele>474.2857142857142</ele><time>2026-04-12T10:01:02Z</time></trkpt><trkpt lat="49.994269800475706" lon="5.284249148510351"><ele>474.57142857142856</ele><time>2026-04-12T10:01:09Z</time></trkpt><trkpt lat="49.994252793153635" lon="5.284144135473408"><ele>474.85714285714283</ele><time>2026-04-12T10:01:14Z</time></trkpt><trkpt lat="49.99424991262311" lon="5.284028674173844"><ele>475.1428571428571</ele><time>2026-04-12T10:01:21Z</time></trkpt><trkpt lat="49.9942482485288" lon="5.283924353215361"><ele>475.42857142857144</ele><time>2026-04-12T10:01:27Z</time></trkpt><trkpt lat="49.994231419327235" lon="5.283811882844097"><ele>475.7142857142857</ele><time>2026-04-12T10:01:33Z</time></trkpt><trkpt lat="49.99420743303683" lon="5.2837173916351565"><ele>476.0</ele><time>2026-04-12T10:01:38Z</time></trkpt><trkpt lat="49.994180968053094" lon="5.283601823971572"><ele>475.8571428571429</ele><time>2026-04-12T10:01:46Z</time></trkpt><trkpt lat="49.99418205675064" lon="5.283496318225113"><ele>475.7142857142857</ele><time>2026-04-12T10:01:52Z</time></trkpt><trkpt lat="49.99417508606565" lon="5.283393671512078"><ele>475.57142857142856</ele><time>2026-04-12T10:01:57Z</time></trkpt><trkpt lat="49.99416222807389" lon="5.283295864739862"><ele>475.42857142857144</ele><time>2026-04-12T10:02:02Z</time></trkpt><trkpt lat="49.994157593558235" lon="5.283195066960233"><ele>475.28571428571433</ele><time>2026-04-12T10:02:06.999Z</time></trkpt><trkpt lat="49.99414901163392" lon="5.283097737008226"><ele>475.14285714285717</ele><time>2026-04-12T10:02:12.999Z</time></trkpt><trkpt lat="49.99414185396491" lon="5.282991301088231"><ele>475.0</ele><time>2026-04-12T10:02:17.999Z</time></trkpt><trkpt lat="49.99413317181842" lon="5.282893482398322"><ele>475.5714285714286</ele><time>2026-04-12T10:02:23.999Z</time></trkpt><trkpt lat="49.99413175175772" lon="5.282787227465003"><ele>476.1428571428572</ele><time>2026-04-12T10:02:28.999Z</time></trkpt><trkpt lat="49.99411788897384" lon="5.282671754545188"><ele>476.7142857142857</ele><time>2026-04-12T10:02:35Z</time></trkpt><trkpt lat="49.99410594246166" lon="5.282553457460007"><ele>477.28571428571433</ele><time>2026-04-12T10:02:42Z</time></trkpt><trkpt lat="49.99408760649976" lon="5.282443938476366"><ele>477.8571428571429</ele><time>2026-04-12T10:02:48Z</time></trkpt><trkpt lat="49.99402721441711" lon="5.282381851128406"><ele>478.42857142857144</ele><time>2026-04-12T10:02:52Z</time></trkpt><trkpt lat="49.993958033006805" lon="5.282373216667051"><ele>479.0</ele><time>2026-04-12T10:02:57Z</time></trkpt><trkpt lat="49.99388646867615" lon="5.282389099936569"><ele>479.0</ele><time>2026-04-12T10:03:02Z</time></trkpt><trkpt lat="49.993827286314826" lon="5.282441294248352"><ele>479.0</ele><time>2026-04-12T10:03:08Z</time></trkpt><trkpt lat="49.99374969297256" lon="5.282444365041663"><ele>479.0</ele><time>2026-04-12T10:03:15Z</time></trkpt><trkpt lat="49.993698102689244" lon="5.282379665707666"><ele>479.0</ele><time>2026-04-12T10:03:21Z</time></trkpt><trkpt lat="49.9936462914034" lon="5.282290847778696"><ele>479.0</ele><time>2026-04-12T10:03:28Z</time></trkpt><trkpt lat="49.99361255925249" lon="5.282193952137392"><ele>479.0</ele><time>2026-04-12T10:03:33Z</time></trkpt><trkpt lat="49.99359843080487" lon="5.282078113738075"><ele>479.0</ele><time>2026-04-12T10:03:38Z</time></trkpt><trkpt lat="49.99359796995805" lon="5.281960926446742"><ele>479.0</ele><time>2026-04-12T10:03:44Z</time></trkpt><trkpt lat="49.99358949305208" lon="5.2818483161602074"><ele>479.0</ele><time>2026-04-12T10:03:50Z</time></trkpt><trkpt lat="49.9935799991194" lon="5.281742188921397"><ele>479.0</ele><time>2026-04-12T10:03:56Z</time></trkpt><trkpt lat="49.993590483600265" lon="5.281639293061784"><ele>479.0</ele><time>2026-04-12T10:04:03Z</time></trkpt><trkpt lat="49.99359188634339" lon="5.2815340925405385"><ele>479.0</ele><time>2026-04-12T10:04:09Z</time></trkpt><trkpt lat="49.993575156799615" lon="5.281437467618834"><ele>479.0</ele><time>2026-04-12T10:04:14.999Z</time></trkpt><trkpt lat="49.9935696133559" lon="5.281330650294692"><ele>479.0</ele><time>2026-04-12T10:04:18.999Z</time></trkpt><trkpt lat="49.99357545279763" lon="5.281224592214701"><ele>478.57142857142856</ele><time>2026-04-12T10:04:23.999Z</time></trkpt><trkpt lat="49.99357890562457" lon="5.281118805234545"><ele>478.14285714285717</ele><time>2026-04-12T10:04:30.999Z</time></trkpt><trkpt lat="49.99356772477569" lon="5.280999212693633"><ele>477.7142857142857</ele><time>2026-04-12T10:04:37.999Z</time></trkpt><trkpt lat="49.99356732768109" lon="5.2809008967621445"><ele>477.2857142857143</ele><time>2026-04-12T10:04:43Z</time></trkpt><trkpt lat="49.993558517049486" lon="5.280795915213288"><ele>476.8571428571429</ele><time>2026-04-12T10:04:49Z</time></trkpt><trkpt lat="49.993562153224396" lon="5.28068921002603"><ele>476.42857142857144</ele><time>2026-04-12T10:04:55Z</time></trkpt><trkpt lat="49.9935496379047" lon="5.280584781583544"><ele>476.0</ele><time>2026-04-12T10:05:00Z</time></trkpt><trkpt lat="49.993548339177956" lon="5.280480957774959"><ele>476.0</ele><time>2026-04-12T10:05:04Z</time></trkpt><trkpt lat="49.99355128824508" lon="5.2803814611512045"><ele>476.0</ele><time>2026-04-12T10:05:09Z</time></trkpt><trkpt lat="49.99354419298995" lon="5.280265755363933"><ele>476.0</ele><time>2026-04-12T10:05:15Z</time></trkpt><trkpt lat="49.99356357295924" lon="5.280168009136698"><ele>476.0</ele><time>2026-04-12T10:05:22Z</time></trkpt><trkpt lat="49.99357063991096" lon="5.28005472997852"><ele>476.0</ele><time>2026-04-12T10:05:28Z</time></trkpt><trkpt lat="49.99355732715452" lon="5.279958549789876"><ele>476.0</ele><time>2026-04-12T10:05:33.999Z</time></trkpt><trkpt lat="49.993553768582665" lon="5.279842793357099"><ele>476.0</ele><time>2026-04-12T10:05:39.999Z</time></trkpt><trkpt lat="49.993565551350514" lon="5.279739397014437"><ele>476.0</ele><time>2026-04-12T10:05:45.999Z</time></trkpt><trkpt lat="49.993553683477245" lon="5.27962022289248"><ele>476.0</ele><time>2026-04-12T10:05:50.999Z</time></trkpt><trkpt lat="49.99353633533658" lon="5.279523234918954"><ele>476.0</ele><time>2026-04-12T10:05:56.999Z</time></trkpt><trkpt lat="49.99353613030434" lon="5.279417727400219"><ele>476.0</ele><time>2026-04-12T10:06:01.999Z</time></trkpt><trkpt lat="49.993532605903894" lon="5.279307436560366"><ele>476.0</ele><time>2026-04-12T10:06:07.999Z</time></trkpt><trkpt lat="49.99352600324989" lon="5.279205673996478"><ele>476.0</ele><time>2026-04-12T10:06:12.999Z</time></trkpt><trkpt lat="49.993522925727056" lon="5.279097070243637"><ele>476.0</ele><time>2026-04-12T10:06:18.999Z</time></trkpt><trkpt lat="49.99350729509939" lon="5.279000341968598"><ele>475.8571428571429</ele><time>2026-04-12T10:06:23.999Z</time></trkpt><trkpt lat="49.99350490488643" lon="5.278899211556821"><ele>475.7142857142857</ele><time>2026-04-12T10:06:29.999Z</time></trkpt><trkpt lat="49.99349631412833" lon="5.278796911240018"><ele>475.57142857142856</ele><time>2026-04-12T10:06:35.999Z</time></trkpt><trkpt lat="49.99352425402948" lon="5.278706667224529"><ele>475.42857142857144</ele><time>2026-04-12T10:06:42.999Z</time></trkpt><trkpt lat="49.993584518592" lon="5.278670206038082"><ele>475.28571428571433</ele><time>2026-04-12T10:06:51Z</time></trkpt><trkpt lat="49.99364732042526" lon="5.278659480831334"><ele>475.14285714285717</ele><time>2026-04-12T10:06:58Z</time></trkpt><trkpt lat="49.99372442968783" lon="5.278657536019847"><ele>475.0</ele><time>2026-04-12T10:07:05Z</time></trkpt><trkpt lat="49.99379470932238" lon="5.278660370486003"><ele>475.0</ele><time>2026-04-12T10:07:12Z</time></trkpt><trkpt lat="49.993860365261" lon="5.2786529717422495"><ele>475.00000000000006</ele><time>2026-04-12T10:07:17Z</time></trkpt><trkpt lat="49.99392559032706" lon="5.278644063798026"><ele>475.0</ele><time>2026-04-12T10:07:22Z</time></trkpt><trkpt lat="49.993994757364376" lon="5.278632494444201"><ele>475.0</ele><time>2026-04-12T10:07:29Z</time></trkpt><trkpt lat="49.994059381692566" lon="5.2786291037842235"><ele>475.00000000000006</ele><time>2026-04-12T10:07:34Z</time></trkpt><trkpt lat="49.99412967671244" lon="5.278606994743167"><ele>475.0</ele><time>2026-04-12T10:07:40Z</time></trkpt><trkpt lat="49.99420039578327" lon="5.278604618294411"><ele>475.0</ele><time>2026-04-12T10:07:46Z</time></trkpt><trkpt lat="49.994269631323824" lon="5.278580952565467"><ele>474.0</ele><time>2026-04-12T10:07:53Z</time></trkpt><trkpt lat="49.994339647908454" lon="5.278586989829513"><ele>473.00000000000006</ele><time>2026-04-12T10:07:58Z</time></trkpt><trkpt lat="49.99441261596981" lon="5.278590359591279"><ele>472.0</ele><time>2026-04-12T10:08:04Z</time></trkpt><trkpt lat="49.994477028521466" lon="5.278568838444698"><ele>471.0</ele><time>2026-04-12T10:08:09.999Z</time></trkpt><trkpt lat="49.99454435490631" lon="5.278574352104685"><ele>470.00000000000006</ele><time>2026-04-12T10:08:17.999Z</time></trkpt><trkpt lat="49.99461587602796" lon="5.278569969371053"><ele>469.0</ele><time>2026-04-12T10:08:24.999Z</time></trkpt><trkpt lat="49.99468489184834" lon="5.278585977006371"><ele>468.0</ele><time>2026-04-12T10:08:30.999Z</time></trkpt><trkpt lat="49.99474866941202" lon="5.2785673474779875"><ele>468.0</ele><time>2026-04-12T10:08:35.999Z</time></trkpt><trkpt lat="49.99480569180021" lon="5.278508595999794"><ele>468.00000000000006</ele><time>2026-04-12T10:08:40.999Z</time></trkpt><trkpt lat="49.994819382178896" lon="5.27840229560215"><ele>468.0</ele><time>2026-04-12T10:08:44.999Z</time></trkpt><trkpt lat="49.994819047286825" lon="5.278301051900266"><ele>468.0</ele><time>2026-04-12T10:08:50.999Z</time></trkpt><trkpt lat="49.99484024206827" lon="5.278201249601305"><ele>468.00000000000006</ele><time>2026-04-12T10:08:56Z</time></trkpt><trkpt lat="49.994807621565" lon="5.278112061663895"><ele>468.0</ele><time>2026-04-12T10:09:02Z</time></trkpt><trkpt lat="49.99479155791413" lon="5.278008003222576"><ele>468.0</ele><time>2026-04-12T10:09:08Z</time></trkpt><trkpt lat="49.99478112804024" lon="5.277896693999247"><ele>467.42857142857144</ele><time>2026-04-12T10:09:14Z</time></trkpt><trkpt lat="49.99478804656988" lon="5.277779974835725"><ele>466.8571428571429</ele><time>2026-04-12T10:09:27Z</time></trkpt><trkpt lat="49.994791070961625" lon="5.277678092057445"><ele>466.28571428571433</ele><time>2026-04-12T10:09:32Z</time></trkpt><trkpt lat="49.99478016549055" lon="5.277565065444899"><ele>465.7142857142858</ele><time>2026-04-12T10:09:39Z</time></trkpt><trkpt lat="49.99475900275554" lon="5.277458585755045"><ele>465.14285714285717</ele><time>2026-04-12T10:09:45Z</time></trkpt><trkpt lat="49.99475522487643" lon="5.277352776820904"><ele>464.57142857142867</ele><time>2026-04-12T10:09:51Z</time></trkpt><trkpt lat="49.99476184156779" lon="5.277236049393482"><ele>464.00000000000006</ele><time>2026-04-12T10:09:57.999Z</time></trkpt><trkpt lat="49.99474639026492" lon="5.277125661928486"><ele>464.1428571428572</ele><time>2026-04-12T10:10:03.999Z</time></trkpt><trkpt lat="49.99474316298928" lon="5.277014541078628"><ele>464.28571428571433</ele><time>2026-04-12T10:10:08.999Z</time></trkpt><trkpt lat="49.99473650649042" lon="5.2769148550993155"><ele>464.42857142857144</ele><time>2026-04-12T10:10:13.999Z</time></trkpt><trkpt lat="49.99473071286567" lon="5.276816610594632"><ele>464.5714285714286</ele><time>2026-04-12T10:10:19.999Z</time></trkpt><trkpt lat="49.99473201962525" lon="5.276702449537487"><ele>464.7142857142858</ele><time>2026-04-12T10:10:25.999Z</time></trkpt><trkpt lat="49.994735056775895" lon="5.276586230856437"><ele>464.85714285714283</ele><time>2026-04-12T10:10:30.999Z</time></trkpt><trkpt lat="49.99471783791883" lon="5.276483476962211"><ele>465.0</ele><time>2026-04-12T10:10:35.999Z</time></trkpt><trkpt lat="49.99470296738581" lon="5.276384533795118"><ele>465.0</ele><time>2026-04-12T10:10:40.999Z</time></trkpt><trkpt lat="49.99469769633309" lon="5.276275700040675"><ele>465.0</ele><time>2026-04-12T10:10:46.999Z</time></trkpt><trkpt lat="49.99468987471218" lon="5.276168598139926"><ele>465.0</ele><time>2026-04-12T10:10:52.999Z</time></trkpt><trkpt lat="49.994683164751855" lon="5.276068508973291"><ele>465.0</ele><time>2026-04-12T10:10:57.999Z</time></trkpt><trkpt lat="49.99467229482313" lon="5.27595546351485"><ele>465.0</ele><time>2026-04-12T10:11:04Z</time></trkpt><trkpt lat="49.9946567597464" lon="5.275840421466409"><ele>465.0</ele><time>2026-04-12T10:11:10Z</time></trkpt><trkpt lat="49.994649300702264" lon="5.275722988901011"><ele>465.0</ele><time>2026-04-12T10:11:17Z</time></trkpt><trkpt lat="49.994638644351525" lon="5.275624215732581"><ele>465.1428571428571</ele><time>2026-04-12T10:11:23Z</time></trkpt><trkpt lat="49.99463758255292" lon="5.275512217420328"><ele>465.28571428571433</ele><time>2026-04-12T10:11:29Z</time></trkpt><trkpt lat="49.99461321676358" lon="5.275410517365686"><ele>465.42857142857144</ele><time>2026-04-12T10:11:35Z</time></trkpt><trkpt lat="49.99460402697217" lon="5.275308474610504"><ele>465.57142857142856</ele><time>2026-04-12T10:11:41Z</time></trkpt><trkpt lat="49.994592055034595" lon="5.275206679058096"><ele>465.71428571428567</ele><time>2026-04-12T10:11:45.999Z</time></trkpt><trkpt lat="49.99457551178914" lon="5.275104689672515"><ele>465.8571428571429</ele><time>2026-04-12T10:11:51.999Z</time></trkpt><trkpt lat="49.99458156649955" lon="5.275004149753658"><ele>466.0</ele><time>2026-04-12T10:11:56.999Z</time></trkpt><trkpt lat="49.99457237721371" lon="5.274897855575445"><ele>466.0</ele><time>2026-04-12T10:12:01.999Z</time></trkpt><trkpt lat="49.9945639973792" lon="5.2747844363203225"><ele>466.0</ele><time>2026-04-12T10:12:07.999Z</time></trkpt><trkpt lat="49.99453817216813" lon="5.274675594858122"><ele>466.0</ele><time>2026-04-12T10:12:13.999Z</time></trkpt><trkpt lat="49.994529548148286" lon="5.2745534561013265"><ele>466.0</ele><time>2026-04-12T10:12:20.999Z</time></trkpt><trkpt lat="49.994511851532586" lon="5.274458919410012"><ele>466.0</ele><time>2026-04-12T10:12:26.999Z</time></trkpt><trkpt lat="49.99450728927984" lon="5.2743497940772075"><ele>466.0</ele><time>2026-04-12T10:12:32.999Z</time></trkpt><trkpt lat="49.99450619287428" lon="5.2742350717522015"><ele>466.0</ele><time>2026-04-12T10:12:40.999Z</time></trkpt><trkpt lat="49.99450196823157" lon="5.274123879063437"><ele>466.0</ele><time>2026-04-12T10:12:45.999Z</time></trkpt><trkpt lat="49.99449879510088" lon="5.2740182975047"><ele>466.0</ele><time>2026-04-12T10:12:51.999Z</time></trkpt><trkpt lat="49.994503179891375" lon="5.273913320772606"><ele>466.0</ele><time>2026-04-12T10:12:56.999Z</time></trkpt><trkpt lat="49.99448137921519" lon="5.2738187074742315"><ele>466.0</ele><time>2026-04-12T10:13:01.999Z</time></trkpt><trkpt lat="49.99448076286311" lon="5.273703683351424"><ele>466.0</ele><time>2026-04-12T10:13:09Z</time></trkpt><trkpt lat="49.99446626701417" lon="5.273597148520641"><ele>466.0</ele><time>2026-04-12T10:13:15Z</time></trkpt><trkpt lat="49.994452264532015" lon="5.273487941851871"><ele>466.0</ele><time>2026-04-12T10:13:21Z</time></trkpt><trkpt lat="49.99445111739103" lon="5.273367524612915"><ele>466.0</ele><time>2026-04-12T10:13:28Z</time></trkpt><trkpt lat="49.99446196936044" lon="5.27326566101494"><ele>466.0</ele><time>2026-04-12T10:13:34Z</time></trkpt><trkpt lat="49.994454897465324" lon="5.2731441860658474"><ele>466.0</ele><time>2026-04-12T10:13:41Z</time></trkpt><trkpt lat="49.99446069020026" lon="5.273043288527742"><ele>466.0</ele><time>2026-04-12T10:13:46Z</time></trkpt><trkpt lat="49.99444877783283" lon="5.272939864728746"><ele>466.0</ele><time>2026-04-12T10:13:52Z</time></trkpt><trkpt lat="49.99443993754005" lon="5.272825126459134"><ele>466.0</ele><time>2026-04-12T10:13:58Z</time></trkpt><trkpt lat="49.994427052837466" lon="5.272725900604871"><ele>466.0</ele><time>2026-04-12T10:14:03Z</time></trkpt><trkpt lat="49.994421433400554" lon="5.272623413635837"><ele>465.8571428571429</ele><time>2026-04-12T10:14:08.999Z</time></trkpt><trkpt lat="49.99442901969191" lon="5.272513967829738"><ele>465.71428571428567</ele><time>2026-04-12T10:14:14.999Z</time></trkpt><trkpt lat="49.99442710356815" lon="5.272403022873088"><ele>465.57142857142856</ele><time>2026-04-12T10:14:20.999Z</time></trkpt><trkpt lat="49.99440817017984" lon="5.272308652383289"><ele>465.42857142857144</ele><time>2026-04-12T10:14:26.999Z</time></trkpt><trkpt lat="49.994426169464234" lon="5.272204733295174"><ele>465.28571428571433</ele><time>2026-04-12T10:14:32.999Z</time></trkpt><trkpt lat="49.9944363077452" lon="5.272095699934677"><ele>465.1428571428571</ele><time>2026-04-12T10:14:37.999Z</time></trkpt><trkpt lat="49.994426530879046" lon="5.271988997471383"><ele>465.0</ele><time>2026-04-12T10:14:42.999Z</time></trkpt><trkpt lat="49.99439890491775" lon="5.271881750266878"><ele>465.0</ele><time>2026-04-12T10:14:47.999Z</time></trkpt><trkpt lat="49.99440353702311" lon="5.271780816719117"><ele>465.0</ele><time>2026-04-12T10:14:53.999Z</time></trkpt><trkpt lat="49.99436283404862" lon="5.271697953598583"><ele>465.0</ele><time>2026-04-12T10:14:58.999Z</time></trkpt><trkpt lat="49.994302774777836" lon="5.2716658221693065"><ele>465.0</ele><time>2026-04-12T10:15:03.999Z</time></trkpt><trkpt lat="49.99423651522948" lon="5.271629265501759"><ele>465.0</ele><time>2026-04-12T10:15:09.999Z</time></trkpt><trkpt lat="49.9941684947669" lon="5.271589400208126"><ele>465.0</ele><time>2026-04-12T10:15:16Z</time></trkpt><trkpt lat="49.99409844447303" lon="5.271562515038159"><ele>465.0</ele><time>2026-04-12T10:15:23Z</time></trkpt><trkpt lat="49.99402414964318" lon="5.271524385571536"><ele>464.2857142857143</ele><time>2026-04-12T10:15:31Z</time></trkpt><trkpt lat="49.99397126867375" lon="5.271467980199329"><ele>463.57142857142856</ele><time>2026-04-12T10:15:37Z</time></trkpt><trkpt lat="49.99391093693601" lon="5.271436530384546"><ele>462.85714285714283</ele><time>2026-04-12T10:15:43Z</time></trkpt><trkpt lat="49.993851472699674" lon="5.271400996442138"><ele>462.1428571428571</ele><time>2026-04-12T10:15:47.999Z</time></trkpt><trkpt lat="49.99377877057225" lon="5.271366220009469"><ele>461.42857142857144</ele><time>2026-04-12T10:15:53.999Z</time></trkpt><trkpt lat="49.99371060140345" lon="5.271319775182758"><ele>460.71428571428567</ele><time>2026-04-12T10:15:58.999Z</time></trkpt><trkpt lat="49.99364849936282" lon="5.27128289808812"><ele>459.99999999999994</ele><time>2026-04-12T10:16:03.999Z</time></trkpt><trkpt lat="49.99357506384862" lon="5.271237296281008"><ele>459.99999999999994</ele><time>2026-04-12T10:16:10.999Z</time></trkpt><trkpt lat="49.99351387938113" lon="5.271203179942021"><ele>460.0</ele><time>2026-04-12T10:16:16.999Z</time></trkpt><trkpt lat="49.993441597233975" lon="5.2711699525973845"><ele>459.99999999999994</ele><time>2026-04-12T10:16:22.999Z</time></trkpt><trkpt lat="49.99337035860019" lon="5.2711316008458216"><ele>459.99999999999994</ele><time>2026-04-12T10:16:29.999Z</time></trkpt><trkpt lat="49.993301460711514" lon="5.2711131307273416"><ele>460.0</ele><time>2026-04-12T10:16:35.999Z</time></trkpt><trkpt lat="49.993236524639016" lon="5.271087585381716"><ele>459.99999999999994</ele><time>2026-04-12T10:16:40.999Z</time></trkpt><trkpt lat="49.99318638529268" lon="5.271027035482058"><ele>459.99999999999994</ele><time>2026-04-12T10:16:47.999Z</time></trkpt><trkpt lat="49.993123653969256" lon="5.270969127669853"><ele>459.42857142857133</ele><time>2026-04-12T10:16:52.999Z</time></trkpt><trkpt lat="49.99305620331711" lon="5.270939298567769"><ele>458.85714285714283</ele><time>2026-04-12T10:16:57.999Z</time></trkpt><trkpt lat="49.992993441219056" lon="5.27090735777804"><ele>458.2857142857142</ele><time>2026-04-12T10:17:02.999Z</time></trkpt><trkpt lat="49.99293102524456" lon="5.270885872173663"><ele>457.71428571428567</ele><time>2026-04-12T10:17:07.999Z</time></trkpt><trkpt lat="49.992866995093344" lon="5.270842528096065"><ele>457.1428571428571</ele><time>2026-04-12T10:17:13.999Z</time></trkpt><trkpt lat="49.99280669646796" lon="5.270802782702453"><ele>456.57142857142856</ele><time>2026-04-12T10:17:19Z</time></trkpt><trkpt lat="49.9927420901251" lon="5.270779536871214"><ele>456.0</ele><time>2026-04-12T10:17:24Z</time></trkpt><trkpt lat="49.99267742846851" lon="5.270758358155879"><ele>456.0</ele><time>2026-04-12T10:17:29Z</time></trkpt><trkpt lat="49.99261205683519" lon="5.270710546629659"><ele>455.99999999999994</ele><time>2026-04-12T10:17:34Z</time></trkpt><trkpt lat="49.9925467090748" lon="5.270670981950559"><ele>456.0</ele><time>2026-04-12T10:17:39Z</time></trkpt><trkpt lat="49.99247416642139" lon="5.2706462143225385"><ele>456.0</ele><time>2026-04-12T10:17:45Z</time></trkpt><trkpt lat="49.99241574025844" lon="5.2706035780237395"><ele>455.99999999999994</ele><time>2026-04-12T10:17:50Z</time></trkpt><trkpt lat="49.99235412227178" lon="5.2705779327707365"><ele>456.0</ele><time>2026-04-12T10:17:55Z</time></trkpt><trkpt lat="49.992288748694115" lon="5.270566761826641"><ele>456.0</ele><time>2026-04-12T10:18:00Z</time></trkpt><trkpt lat="49.9922210132458" lon="5.270545627998133"><ele>455.4285714285714</ele><time>2026-04-12T10:18:06Z</time></trkpt><trkpt lat="49.99215268901303" lon="5.270517577689781"><ele>454.8571428571428</ele><time>2026-04-12T10:18:11Z</time></trkpt><trkpt lat="49.99207890259763" lon="5.270518737409015"><ele>454.2857142857143</ele><time>2026-04-12T10:18:16Z</time></trkpt><trkpt lat="49.992005876356764" lon="5.270517189592388"><ele>453.71428571428567</ele><time>2026-04-12T10:18:21Z</time></trkpt><trkpt lat="49.9919372706925" lon="5.270503635858859"><ele>453.1428571428571</ele><time>2026-04-12T10:18:45Z</time></trkpt><trkpt lat="49.99187229040552" lon="5.2705017254242374"><ele>452.57142857142856</ele><time>2026-04-12T10:18:51Z</time></trkpt><trkpt lat="49.99179960502122" lon="5.27049905514973"><ele>452.0</ele><time>2026-04-12T10:18:57Z</time></trkpt><trkpt lat="49.991726061162204" lon="5.270497679739882"><ele>450.14285714285717</ele><time>2026-04-12T10:19:03Z</time></trkpt><trkpt lat="49.99165943640674" lon="5.270492223863783"><ele>448.2857142857143</ele><time>2026-04-12T10:19:08Z</time></trkpt><trkpt lat="49.99159242418864" lon="5.270488484446007"><ele>446.42857142857144</ele><time>2026-04-12T10:19:13Z</time></trkpt><trkpt lat="49.99151992911907" lon="5.270486756103847"><ele>444.57142857142856</ele><time>2026-04-12T10:19:19Z</time></trkpt><trkpt lat="49.99144353471328" lon="5.270487077434371"><ele>442.71428571428567</ele><time>2026-04-12T10:19:25.001Z</time></trkpt><trkpt lat="49.991371005554036" lon="5.270472756846282"><ele>440.85714285714283</ele><time>2026-04-12T10:19:31.001Z</time></trkpt><trkpt lat="49.99130621482305" lon="5.27046573366773"><ele>439.0</ele><time>2026-04-12T10:19:36.001Z</time></trkpt><trkpt lat="49.99123254529948" lon="5.270462486574905"><ele>439.0</ele><time>2026-04-12T10:19:41Z</time></trkpt><trkpt lat="49.99116679088345" lon="5.2704711842737595"><ele>439.0</ele><time>2026-04-12T10:19:46Z</time></trkpt><trkpt lat="49.991104371352066" lon="5.270453015652059"><ele>439.0</ele><time>2026-04-12T10:19:51Z</time></trkpt><trkpt lat="49.99104006447869" lon="5.270464793592457"><ele>439.0</ele><time>2026-04-12T10:19:56Z</time></trkpt><trkpt lat="49.9909718548898" lon="5.2704640351612895"><ele>439.0</ele><time>2026-04-12T10:20:01Z</time></trkpt><trkpt lat="49.99090379041338" lon="5.270460106671641"><ele>439.0</ele><time>2026-04-12T10:20:07Z</time></trkpt><trkpt lat="49.99084020386881" lon="5.270446221945621"><ele>439.0</ele><time>2026-04-12T10:20:12Z</time></trkpt><trkpt lat="49.99076839224463" lon="5.2704467567436435"><ele>437.57142857142856</ele><time>2026-04-12T10:20:17Z</time></trkpt><trkpt lat="49.99069786288282" lon="5.270433450920559"><ele>436.1428571428571</ele><time>2026-04-12T10:20:22Z</time></trkpt><trkpt lat="49.99063352909048" lon="5.270430257591633"><ele>434.7142857142857</ele><time>2026-04-12T10:20:27Z</time></trkpt><trkpt lat="49.99055609389881" lon="5.270433323688217"><ele>433.2857142857143</ele><time>2026-04-12T10:20:33Z</time></trkpt><trkpt lat="49.99049177451116" lon="5.27043475687395"><ele>431.8571428571429</ele><time>2026-04-12T10:20:37Z</time></trkpt><trkpt lat="49.990428442245694" lon="5.270433248229745"><ele>430.42857142857144</ele><time>2026-04-12T10:20:42Z</time></trkpt><trkpt lat="49.990363226983916" lon="5.27044103999387"><ele>429.0</ele><time>2026-04-12T10:20:47Z</time></trkpt><trkpt lat="49.990299455353096" lon="5.270428159821655"><ele>429.0</ele><time>2026-04-12T10:20:52Z</time></trkpt><trkpt lat="49.99022570984703" lon="5.270415805232448"><ele>429.0</ele><time>2026-04-12T10:20:58Z</time></trkpt><trkpt lat="49.99015052050985" lon="5.270410940937348"><ele>429.0</ele><time>2026-04-12T10:21:03Z</time></trkpt><trkpt lat="49.99008737420161" lon="5.270373162380507"><ele>429.0</ele><time>2026-04-12T10:21:09Z</time></trkpt><trkpt lat="49.99003531401091" lon="5.270301689170933"><ele>429.0</ele><time>2026-04-12T10:21:16Z</time></trkpt><trkpt lat="49.98999029093398" lon="5.270223955591392"><ele>429.0</ele><time>2026-04-12T10:21:21Z</time></trkpt><trkpt lat="49.989964680019696" lon="5.270123615071035"><ele>429.0</ele><time>2026-04-12T10:21:27Z</time></trkpt><trkpt lat="49.98993583993967" lon="5.270035088202272"><ele>428.42857142857144</ele><time>2026-04-12T10:21:32Z</time></trkpt><trkpt lat="49.989913341039916" lon="5.269941416017076"><ele>427.8571428571429</ele><time>2026-04-12T10:21:37Z</time></trkpt><trkpt lat="49.98990061147242" lon="5.269843901887871"><ele>427.2857142857143</ele><time>2026-04-12T10:21:42Z</time></trkpt><trkpt lat="49.98988836558455" lon="5.269729166248357"><ele>426.7142857142857</ele><time>2026-04-12T10:21:48Z</time></trkpt><trkpt lat="49.98987195923204" lon="5.269629806914851"><ele>426.1428571428571</ele><time>2026-04-12T10:21:53Z</time></trkpt><trkpt lat="49.989856045050495" lon="5.269529486899332"><ele>425.57142857142856</ele><time>2026-04-12T10:21:58Z</time></trkpt><trkpt lat="49.98983990524546" lon="5.26941706636825"><ele>425.0</ele><time>2026-04-12T10:22:04Z</time></trkpt><trkpt lat="49.98981644806713" lon="5.26931240648312"><ele>424.7142857142857</ele><time>2026-04-12T10:22:09Z</time></trkpt><trkpt lat="49.989794422838166" lon="5.269210002570585"><ele>424.42857142857144</ele><time>2026-04-12T10:22:14Z</time></trkpt><trkpt lat="49.98977814213388" lon="5.2691070949725916"><ele>424.1428571428571</ele><time>2026-04-12T10:22:20Z</time></trkpt><trkpt lat="49.98977652070539" lon="5.268999682772503"><ele>423.8571428571429</ele><time>2026-04-12T10:22:25Z</time></trkpt><trkpt lat="49.98976936855485" lon="5.268890222385092"><ele>423.5714285714286</ele><time>2026-04-12T10:22:30Z</time></trkpt><trkpt lat="49.98975897828832" lon="5.268785615243975"><ele>423.2857142857143</ele><time>2026-04-12T10:22:35Z</time></trkpt><trkpt lat="49.989737482110776" lon="5.2686931212046275"><ele>423.0</ele><time>2026-04-12T10:22:40Z</time></trkpt><trkpt lat="49.98972337963912" lon="5.268582329873702"><ele>422.4285714285714</ele><time>2026-04-12T10:22:45Z</time></trkpt><trkpt lat="49.98970012641775" lon="5.268483358190201"><ele>421.8571428571429</ele><time>2026-04-12T10:22:50Z</time></trkpt><trkpt lat="49.989679276444306" lon="5.268387984680779"><ele>421.2857142857143</ele><time>2026-04-12T10:22:55Z</time></trkpt><trkpt lat="49.989665840776496" lon="5.2682843010515805"><ele>420.71428571428567</ele><time>2026-04-12T10:23:00Z</time></trkpt><trkpt lat="49.98964993402361" lon="5.26818438143832"><ele>420.1428571428571</ele><time>2026-04-12T10:23:05Z</time></trkpt><trkpt lat="49.98963630869179" lon="5.268085012564377"><ele>419.57142857142856</ele><time>2026-04-12T10:23:10Z</time></trkpt><trkpt lat="49.989613695752745" lon="5.2679778068741605"><ele>419.0</ele><time>2026-04-12T10:23:17Z</time></trkpt><trkpt lat="49.98960855753478" lon="5.267864649736023"><ele>418.71428571428567</ele><time>2026-04-12T10:23:23Z</time></trkpt><trkpt lat="49.9896047037403" lon="5.267754304997425"><ele>418.42857142857144</ele><time>2026-04-12T10:23:28Z</time></trkpt><trkpt lat="49.989602344600264" lon="5.267654895232033"><ele>418.1428571428571</ele><time>2026-04-12T10:23:34Z</time></trkpt><trkpt lat="49.98959434257106" lon="5.267553421897195"><ele>417.85714285714283</ele><time>2026-04-12T10:23:39Z</time></trkpt><trkpt lat="49.98956807776358" lon="5.267437451833996"><ele>417.57142857142856</ele><time>2026-04-12T10:23:44Z</time></trkpt><trkpt lat="49.989515136012315" lon="5.267368030157994"><ele>417.2857142857143</ele><time>2026-04-12T10:23:48Z</time></trkpt><trkpt lat="49.98944457894433" lon="5.267324915316621"><ele>417.0</ele><time>2026-04-12T10:23:54Z</time></trkpt><trkpt lat="49.989377600914835" lon="5.267301717766571"><ele>416.7142857142857</ele><time>2026-04-12T10:23:59Z</time></trkpt><trkpt lat="49.989306962594114" lon="5.267268245768418"><ele>416.4285714285714</ele><time>2026-04-12T10:24:06Z</time></trkpt><trkpt lat="49.9892411740401" lon="5.267250301004342"><ele>416.1428571428571</ele><time>2026-04-12T10:24:10Z</time></trkpt><trkpt lat="49.98916835014948" lon="5.2672316229390255"><ele>415.8571428571429</ele><time>2026-04-12T10:24:15Z</time></trkpt><trkpt lat="49.989095925029375" lon="5.267211507253036"><ele>415.57142857142856</ele><time>2026-04-12T10:24:20Z</time></trkpt><trkpt lat="49.98902860520199" lon="5.267188884014546"><ele>415.2857142857143</ele><time>2026-04-12T10:24:25Z</time></trkpt><trkpt lat="49.98896012329607" lon="5.267184028453568"><ele>415.0</ele><time>2026-04-12T10:24:30Z</time></trkpt><trkpt lat="49.988893306320435" lon="5.267173726725473"><ele>414.57142857142856</ele><time>2026-04-12T10:24:35Z</time></trkpt><trkpt lat="49.98883047810772" lon="5.267145677279181"><ele>414.14285714285717</ele><time>2026-04-12T10:24:40Z</time></trkpt><trkpt lat="49.988759951894345" lon="5.267125447219873"><ele>413.71428571428567</ele><time>2026-04-12T10:24:46Z</time></trkpt><trkpt lat="49.98870218449392" lon="5.267080689505498"><ele>413.2857142857143</ele><time>2026-04-12T10:24:51Z</time></trkpt><trkpt lat="49.98863935711976" lon="5.267050001572945"><ele>412.85714285714283</ele><time>2026-04-12T10:24:56Z</time></trkpt><trkpt lat="49.988569862552744" lon="5.267004134002511"><ele>412.4285714285714</ele><time>2026-04-12T10:25:02Z</time></trkpt><trkpt lat="49.98849893703763" lon="5.266986561037331"><ele>412.0</ele><time>2026-04-12T10:25:07Z</time></trkpt><trkpt lat="49.98843755062846" lon="5.266944228435989"><ele>411.99999999999994</ele><time>2026-04-12T10:25:12Z</time></trkpt><trkpt lat="49.988373594349454" lon="5.2669217984722"><ele>412.0</ele><time>2026-04-12T10:25:17Z</time></trkpt><trkpt lat="49.98831597143976" lon="5.266854421619657"><ele>412.0</ele><time>2026-04-12T10:25:24Z</time></trkpt><trkpt lat="49.988258078022696" lon="5.2667893577420575"><ele>412.0</ele><time>2026-04-12T10:25:29Z</time></trkpt><trkpt lat="49.98820143606676" lon="5.2667323436634135"><ele>412.0</ele><time>2026-04-12T10:25:35Z</time></trkpt><trkpt lat="49.98815203983198" lon="5.2666712392640225"><ele>411.99999999999994</ele><time>2026-04-12T10:25:39Z</time></trkpt><trkpt lat="49.98809346778666" lon="5.266603410250424"><ele>412.0</ele><time>2026-04-12T10:25:45Z</time></trkpt><trkpt lat="49.98803669732466" lon="5.266540363639973"><ele>411.57142857142856</ele><time>2026-04-12T10:25:51Z</time></trkpt><trkpt lat="49.987977082359905" lon="5.266478755299584"><ele>411.1428571428571</ele><time>2026-04-12T10:25:56Z</time></trkpt><trkpt lat="49.98792263839379" lon="5.266404188168796"><ele>410.71428571428567</ele><time>2026-04-12T10:26:01Z</time></trkpt><trkpt lat="49.98787025551902" lon="5.266347098634213"><ele>410.2857142857143</ele><time>2026-04-12T10:26:06Z</time></trkpt><trkpt lat="49.98781687263116" lon="5.2662753078694315"><ele>409.8571428571429</ele><time>2026-04-12T10:26:12Z</time></trkpt><trkpt lat="49.98777308362023" lon="5.266204857008939"><ele>409.4285714285714</ele><time>2026-04-12T10:26:18Z</time></trkpt><trkpt lat="49.98772763832842" lon="5.266131297232781"><ele>409.0</ele><time>2026-04-12T10:26:23Z</time></trkpt><trkpt lat="49.98766544752709" lon="5.2660611417172065"><ele>408.85714285714283</ele><time>2026-04-12T10:26:29Z</time></trkpt><trkpt lat="49.9876168088495" lon="5.265984706592539"><ele>408.7142857142857</ele><time>2026-04-12T10:26:35Z</time></trkpt><trkpt lat="49.98756768935903" lon="5.265923315574954"><ele>408.57142857142856</ele><time>2026-04-12T10:26:41Z</time></trkpt><trkpt lat="49.98752918234555" lon="5.265844171248296"><ele>408.42857142857144</ele><time>2026-04-12T10:26:46Z</time></trkpt><trkpt lat="49.98746586323786" lon="5.265783444877016"><ele>408.28571428571433</ele><time>2026-04-12T10:26:51Z</time></trkpt><trkpt lat="49.9874104286489" lon="5.265717832844152"><ele>408.14285714285717</ele><time>2026-04-12T10:26:57Z</time></trkpt><trkpt lat="49.98736089202765" lon="5.265654705948114"><ele>408.0</ele><time>2026-04-12T10:27:02Z</time></trkpt><trkpt lat="49.987315082893275" lon="5.265570067146895"><ele>408.0</ele><time>2026-04-12T10:27:08Z</time></trkpt><trkpt lat="49.98726049006613" lon="5.265506632658261"><ele>408.0</ele><time>2026-04-12T10:27:13Z</time></trkpt><trkpt lat="49.98721196474682" lon="5.265428807365261"><ele>408.0</ele><time>2026-04-12T10:27:19Z</time></trkpt><trkpt lat="49.98716463035587" lon="5.265363697144884"><ele>408.0</ele><time>2026-04-12T10:27:24Z</time></trkpt><trkpt lat="49.987110814616" lon="5.265308998044906"><ele>408.0</ele><time>2026-04-12T10:27:29Z</time></trkpt><trkpt lat="49.98706094954704" lon="5.265238166194511"><ele>408.0</ele><time>2026-04-12T10:27:35Z</time></trkpt><trkpt lat="49.98701194715723" lon="5.26517304350833"><ele>408.0</ele><time>2026-04-12T10:27:40Z</time></trkpt><trkpt lat="49.98695161229801" lon="5.2651159025791925"><ele>408.0</ele><time>2026-04-12T10:27:45Z</time></trkpt><trkpt lat="49.98689981047425" lon="5.265045010362882"><ele>408.0</ele><time>2026-04-12T10:27:50Z</time></trkpt><trkpt lat="49.98683237206594" lon="5.264984405187372"><ele>408.0</ele><time>2026-04-12T10:27:56Z</time></trkpt><trkpt lat="49.98678687609802" lon="5.26490322674139"><ele>408.0</ele><time>2026-04-12T10:28:01Z</time></trkpt><trkpt lat="49.98673080052887" lon="5.264840250358801"><ele>408.0</ele><time>2026-04-12T10:28:07Z</time></trkpt><trkpt lat="49.98667343766859" lon="5.264778270088035"><ele>408.0</ele><time>2026-04-12T10:28:13Z</time></trkpt><trkpt lat="49.986624837349" lon="5.264698134169612"><ele>408.0</ele><time>2026-04-12T10:28:19Z</time></trkpt><trkpt lat="49.98656958042397" lon="5.264612887511067"><ele>408.2857142857143</ele><time>2026-04-12T10:28:25Z</time></trkpt><trkpt lat="49.9865120466215" lon="5.26454313306123"><ele>408.57142857142856</ele><time>2026-04-12T10:28:30Z</time></trkpt><trkpt lat="49.9864591279624" lon="5.264478913614947"><ele>408.8571428571429</ele><time>2026-04-12T10:28:35Z</time></trkpt><trkpt lat="49.98640408406201" lon="5.264396207602847"><ele>409.1428571428571</ele><time>2026-04-12T10:28:42Z</time></trkpt><trkpt lat="49.986347692019386" lon="5.2643289938402"><ele>409.4285714285714</ele><time>2026-04-12T10:28:49Z</time></trkpt><trkpt lat="49.98629885961325" lon="5.264254157735181"><ele>409.7142857142857</ele><time>2026-04-12T10:28:55Z</time></trkpt><trkpt lat="49.98625228685376" lon="5.264182367869819"><ele>410.0</ele><time>2026-04-12T10:29:01Z</time></trkpt><trkpt lat="49.986204121801975" lon="5.264117115611378"><ele>410.0</ele><time>2026-04-12T10:29:13Z</time></trkpt><trkpt lat="49.98615462690772" lon="5.264053688183244"><ele>410.0</ele><time>2026-04-12T10:29:38Z</time></trkpt><trkpt lat="49.98610492903496" lon="5.263989689619348"><ele>410.0</ele><time>2026-04-12T10:29:44Z</time></trkpt><trkpt lat="49.9860591947709" lon="5.263921960386613"><ele>410.0</ele><time>2026-04-12T10:29:49Z</time></trkpt><trkpt lat="49.98600610458665" lon="5.263847806995994"><ele>410.0</ele><time>2026-04-12T10:29:54Z</time></trkpt><trkpt lat="49.9859607211778" lon="5.26377042886096"><ele>410.0</ele><time>2026-04-12T10:30:00Z</time></trkpt><trkpt lat="49.985910795261184" lon="5.263700845570528"><ele>410.0</ele><time>2026-04-12T10:30:05Z</time></trkpt><trkpt lat="49.98587126394375" lon="5.263610029812177"><ele>409.8571428571429</ele><time>2026-04-12T10:30:10Z</time></trkpt><trkpt lat="49.98583161869817" lon="5.263531975887786"><ele>409.71428571428567</ele><time>2026-04-12T10:30:15Z</time></trkpt><trkpt lat="49.98577748929999" lon="5.263464170295774"><ele>409.57142857142856</ele><time>2026-04-12T10:30:20Z</time></trkpt><trkpt lat="49.98573045926957" lon="5.2633794931039635"><ele>409.42857142857144</ele><time>2026-04-12T10:30:26Z</time></trkpt><trkpt lat="49.98569227554125" lon="5.2632859333014075"><ele>409.28571428571433</ele><time>2026-04-12T10:30:32Z</time></trkpt><trkpt lat="49.985656490947854" lon="5.26320520033496"><ele>409.1428571428571</ele><time>2026-04-12T10:30:37Z</time></trkpt><trkpt lat="49.98561435729144" lon="5.263126436137678"><ele>409.0</ele><time>2026-04-12T10:30:43Z</time></trkpt><trkpt lat="49.9855768938302" lon="5.263043871223616"><ele>409.0</ele><time>2026-04-12T10:30:48Z</time></trkpt><trkpt lat="49.985546017737605" lon="5.262956301390012"><ele>409.0</ele><time>2026-04-12T10:30:53Z</time></trkpt><trkpt lat="49.98550755511808" lon="5.262868966573246"><ele>409.0</ele><time>2026-04-12T10:30:59Z</time></trkpt><trkpt lat="49.985462316716124" lon="5.262785999844112"><ele>409.0</ele><time>2026-04-12T10:31:05Z</time></trkpt><trkpt lat="49.985422769757825" lon="5.262707638979719"><ele>409.0</ele><time>2026-04-12T10:31:10Z</time></trkpt><trkpt lat="49.985382686251135" lon="5.26261178074936"><ele>409.0</ele><time>2026-04-12T10:31:16Z</time></trkpt><trkpt lat="49.98534852798161" lon="5.262527373496699"><ele>409.0</ele><time>2026-04-12T10:31:21Z</time></trkpt><trkpt lat="49.98531170806156" lon="5.262446332320667"><ele>409.0</ele><time>2026-04-12T10:31:27Z</time></trkpt><trkpt lat="49.98526865929415" lon="5.262360562381095"><ele>409.0</ele><time>2026-04-12T10:31:33Z</time></trkpt><trkpt lat="49.98522118076903" lon="5.2622777760092045"><ele>409.0</ele><time>2026-04-12T10:31:42Z</time></trkpt><trkpt lat="49.98517998178801" lon="5.2621983559225445"><ele>409.0</ele><time>2026-04-12T10:31:47Z</time></trkpt><trkpt lat="49.985121392139305" lon="5.26212566990356"><ele>409.0</ele><time>2026-04-12T10:31:53Z</time></trkpt><trkpt lat="49.98508628164581" lon="5.262027752858094"><ele>409.0</ele><time>2026-04-12T10:31:59Z</time></trkpt><trkpt lat="49.9850470133648" lon="5.261934083434873"><ele>409.0</ele><time>2026-04-12T10:32:05Z</time></trkpt><trkpt lat="49.98499772101271" lon="5.2618719115427"><ele>409.0</ele><time>2026-04-12T10:32:10Z</time></trkpt><trkpt lat="49.98494896874059" lon="5.261807667089184"><ele>409.0</ele><time>2026-04-12T10:32:18Z</time></trkpt><trkpt lat="49.984889103743235" lon="5.261756645756914"><ele>409.0</ele><time>2026-04-12T10:32:23Z</time></trkpt><trkpt lat="49.98483906500984" lon="5.2616739072000245"><ele>409.0</ele><time>2026-04-12T10:32:29Z</time></trkpt><trkpt lat="49.98479514810905" lon="5.261586912287697"><ele>409.0</ele><time>2026-04-12T10:32:36Z</time></trkpt><trkpt lat="49.98473466388539" lon="5.2615258052015195"><ele>409.0</ele><time>2026-04-12T10:32:41Z</time></trkpt><trkpt lat="49.98467638058266" lon="5.261449112491997"><ele>409.0</ele><time>2026-04-12T10:32:48Z</time></trkpt><trkpt lat="49.9846177515131" lon="5.261403422116989"><ele>407.7142857142857</ele><time>2026-04-12T10:32:53Z</time></trkpt><trkpt lat="49.98456085529569" lon="5.26133203451499"><ele>406.42857142857144</ele><time>2026-04-12T10:32:59Z</time></trkpt><trkpt lat="49.9845107176782" lon="5.261254891851541"><ele>405.14285714285717</ele><time>2026-04-12T10:33:04Z</time></trkpt><trkpt lat="49.984447727944705" lon="5.261181659669928"><ele>403.8571428571429</ele><time>2026-04-12T10:33:15Z</time></trkpt><trkpt lat="49.98440826232019" lon="5.261095522596779"><ele>402.57142857142856</ele><time>2026-04-12T10:33:21Z</time></trkpt><trkpt lat="49.98436636088399" lon="5.261013597326291"><ele>401.28571428571433</ele><time>2026-04-12T10:33:28Z</time></trkpt><trkpt lat="49.984317106882344" lon="5.260947281155186"><ele>400.0</ele><time>2026-04-12T10:33:32Z</time></trkpt><trkpt lat="49.984265906068906" lon="5.260866379186689"><ele>400.00000000000006</ele><time>2026-04-12T10:33:38Z</time></trkpt><trkpt lat="49.9842151194971" lon="5.260782403518484"><ele>400.0</ele><time>2026-04-12T10:33:44Z</time></trkpt><trkpt lat="49.98417265219524" lon="5.260697165395519"><ele>400.0</ele><time>2026-04-12T10:33:49Z</time></trkpt><trkpt lat="49.98415505184645" lon="5.260587087487045"><ele>400.0</ele><time>2026-04-12T10:33:55Z</time></trkpt><trkpt lat="49.98412092747063" lon="5.260495188781144"><ele>400.0</ele><time>2026-04-12T10:34:01Z</time></trkpt><trkpt lat="49.98408743890914" lon="5.260410859934615"><ele>400.00000000000006</ele><time>2026-04-12T10:34:06Z</time></trkpt><trkpt lat="49.98405367405687" lon="5.260319571636531"><ele>400.0</ele><time>2026-04-12T10:34:11Z</time></trkpt><trkpt lat="49.98401311325825" lon="5.260235540550382"><ele>399.8571428571429</ele><time>2026-04-12T10:34:19Z</time></trkpt><trkpt lat="49.983976552807974" lon="5.260149100815003"><ele>399.7142857142857</ele><time>2026-04-12T10:34:26Z</time></trkpt><trkpt lat="49.98393066308063" lon="5.2600754219106"><ele>399.57142857142856</ele><time>2026-04-12T10:34:31Z</time></trkpt><trkpt lat="49.983880076357" lon="5.260008021800778"><ele>399.42857142857144</ele><time>2026-04-12T10:34:37Z</time></trkpt><trkpt lat="49.983840389957614" lon="5.259931301402736"><ele>399.2857142857143</ele><time>2026-04-12T10:34:41Z</time></trkpt><trkpt lat="49.9837931543493" lon="5.25985979609131"><ele>399.14285714285717</ele><time>2026-04-12T10:34:47Z</time></trkpt><trkpt lat="49.9837371734752" lon="5.259811736266884"><ele>399.0</ele><time>2026-04-12T10:34:51Z</time></trkpt><trkpt lat="49.98366526859211" lon="5.259783419783244"><ele>399.0</ele><time>2026-04-12T10:34:58Z</time></trkpt><trkpt lat="49.9836162673684" lon="5.259860862045919"><ele>399.0</ele><time>2026-04-12T10:35:03Z</time></trkpt><trkpt lat="49.98356819802974" lon="5.259939234518353"><ele>399.0</ele><time>2026-04-12T10:35:08Z</time></trkpt><trkpt lat="49.98350966826422" lon="5.26001396227538"><ele>399.0</ele><time>2026-04-12T10:35:14Z</time></trkpt><trkpt lat="49.983454279114184" lon="5.2600757852328615"><ele>399.0</ele><time>2026-04-12T10:35:19Z</time></trkpt><trkpt lat="49.98340795763289" lon="5.260142601445594"><ele>399.0</ele><time>2026-04-12T10:35:24Z</time></trkpt><trkpt lat="49.98337257499399" lon="5.260229404209921"><ele>399.0</ele><time>2026-04-12T10:35:30Z</time></trkpt><trkpt lat="49.9833128434982" lon="5.2602637790569045"><ele>399.42857142857144</ele><time>2026-04-12T10:35:35Z</time></trkpt><trkpt lat="49.983237555904864" lon="5.260300360549702"><ele>399.8571428571429</ele><time>2026-04-12T10:35:43Z</time></trkpt><trkpt lat="49.98317682608844" lon="5.2603496367046425"><ele>400.2857142857143</ele><time>2026-04-12T10:35:49Z</time></trkpt><trkpt lat="49.983115388385364" lon="5.260371634883145"><ele>400.7142857142857</ele><time>2026-04-12T10:35:54Z</time></trkpt><trkpt lat="49.983047327956" lon="5.260398887778542"><ele>401.14285714285717</ele><time>2026-04-12T10:36:00Z</time></trkpt><trkpt lat="49.98298526472014" lon="5.2604422565085525"><ele>401.57142857142856</ele><time>2026-04-12T10:36:07Z</time></trkpt><trkpt lat="49.98291286115161" lon="5.260486539602115"><ele>402.0</ele><time>2026-04-12T10:36:14Z</time></trkpt><trkpt lat="49.982848168511055" lon="5.2604501367380125"><ele>402.0</ele><time>2026-04-12T10:36:20Z</time></trkpt><trkpt lat="49.9827770306277" lon="5.260468005564451"><ele>402.0</ele><time>2026-04-12T10:36:26Z</time></trkpt><trkpt lat="49.98270518540386" lon="5.260478497508901"><ele>402.0</ele><time>2026-04-12T10:36:31Z</time></trkpt><trkpt lat="49.98264341408946" lon="5.260518972743444"><ele>402.0</ele><time>2026-04-12T10:36:36Z</time></trkpt><trkpt lat="49.9825731097511" lon="5.260541658063749"><ele>402.0</ele><time>2026-04-12T10:36:42Z</time></trkpt><trkpt lat="49.982503631415256" lon="5.2605158723261445"><ele>402.0</ele><time>2026-04-12T10:36:49Z</time></trkpt><trkpt lat="49.98246331715078" lon="5.260433917281739"><ele>402.0</ele><time>2026-04-12T10:36:56Z</time></trkpt><trkpt lat="49.98243095354861" lon="5.260347725219329"><ele>401.85714285714283</ele><time>2026-04-12T10:37:02Z</time></trkpt><trkpt lat="49.98239470070504" lon="5.26026194338921"><ele>401.7142857142857</ele><time>2026-04-12T10:37:07Z</time></trkpt><trkpt lat="49.98236718231018" lon="5.260169682378082"><ele>401.57142857142856</ele><time>2026-04-12T10:37:13Z</time></trkpt><trkpt lat="49.9823419786559" lon="5.260074622293756"><ele>401.42857142857144</ele><time>2026-04-12T10:37:18Z</time></trkpt><trkpt lat="49.98232025560377" lon="5.259966814956031"><ele>401.28571428571433</ele><time>2026-04-12T10:37:24Z</time></trkpt><trkpt lat="49.98228216740101" lon="5.259871815362421"><ele>401.14285714285717</ele><time>2026-04-12T10:37:30Z</time></trkpt><trkpt lat="49.98225579437746" lon="5.259773529666139"><ele>401.0</ele><time>2026-04-12T10:37:36Z</time></trkpt><trkpt lat="49.982240235822786" lon="5.259656799111745"><ele>400.57142857142856</ele><time>2026-04-12T10:37:42Z</time></trkpt><trkpt lat="49.98221449098978" lon="5.2595665525174295"><ele>400.14285714285717</ele><time>2026-04-12T10:37:47Z</time></trkpt><trkpt lat="49.982186941428" lon="5.2594644939872826"><ele>399.71428571428567</ele><time>2026-04-12T10:37:53Z</time></trkpt><trkpt lat="49.98216436157774" lon="5.259364638375317"><ele>399.2857142857143</ele><time>2026-04-12T10:37:58Z</time></trkpt><trkpt lat="49.98214862682696" lon="5.259253877874204"><ele>398.85714285714283</ele><time>2026-04-12T10:38:04Z</time></trkpt><trkpt lat="49.98212852280334" lon="5.259144280683972"><ele>398.4285714285714</ele><time>2026-04-12T10:38:10Z</time></trkpt><trkpt lat="49.98211845011541" lon="5.25904554683858"><ele>398.0</ele><time>2026-04-12T10:38:16Z</time></trkpt><trkpt lat="49.98209033781251" lon="5.258936462519183"><ele>397.57142857142856</ele><time>2026-04-12T10:38:22Z</time></trkpt><trkpt lat="49.98205526690732" lon="5.258848467647267"><ele>397.1428571428571</ele><time>2026-04-12T10:38:28Z</time></trkpt><trkpt lat="49.98203289587772" lon="5.258750053239055"><ele>396.71428571428567</ele><time>2026-04-12T10:38:34Z</time></trkpt><trkpt lat="49.98200277492455" lon="5.258658609675604"><ele>396.2857142857143</ele><time>2026-04-12T10:38:39Z</time></trkpt><trkpt lat="49.9819822013704" lon="5.258565149741968"><ele>395.8571428571429</ele><time>2026-04-12T10:38:44Z</time></trkpt><trkpt lat="49.98195491436157" lon="5.258455628195418"><ele>395.4285714285714</ele><time>2026-04-12T10:38:50Z</time></trkpt><trkpt lat="49.98192947311767" lon="5.258360638905299"><ele>395.0</ele><time>2026-04-12T10:38:55Z</time></trkpt><trkpt lat="49.981904993875716" lon="5.258262817445656"><ele>395.0</ele><time>2026-04-12T10:39:00Z</time></trkpt><trkpt lat="49.98187139399529" lon="5.2581686583930765"><ele>395.0</ele><time>2026-04-12T10:39:06Z</time></trkpt><trkpt lat="49.98185065106685" lon="5.258075800696715"><ele>395.0</ele><time>2026-04-12T10:39:11Z</time></trkpt><trkpt lat="49.98182589952409" lon="5.257984968534309"><ele>395.0</ele><time>2026-04-12T10:39:16Z</time></trkpt><trkpt lat="49.98179825856715" lon="5.2578712902607885"><ele>395.0</ele><time>2026-04-12T10:39:23Z</time></trkpt><trkpt lat="49.981768476200955" lon="5.257776025476934"><ele>395.0</ele><time>2026-04-12T10:39:28Z</time></trkpt><trkpt lat="49.98176539770375" lon="5.257675571120097"><ele>395.0</ele><time>2026-04-12T10:39:33Z</time></trkpt><trkpt lat="49.98172949991733" lon="5.257573588545932"><ele>395.2857142857143</ele><time>2026-04-12T10:39:40Z</time></trkpt><trkpt lat="49.981692164702025" lon="5.257489026568973"><ele>395.5714285714286</ele><time>2026-04-12T10:39:46Z</time></trkpt><trkpt lat="49.981674426835234" lon="5.257391710642307"><ele>395.8571428571429</ele><time>2026-04-12T10:39:51Z</time></trkpt><trkpt lat="49.981652735086854" lon="5.257291819628345"><ele>396.1428571428571</ele><time>2026-04-12T10:39:57Z</time></trkpt><trkpt lat="49.98161299409358" lon="5.25719190551913"><ele>396.42857142857144</ele><time>2026-04-12T10:40:03Z</time></trkpt><trkpt lat="49.98159471149714" lon="5.257085332274152"><ele>396.7142857142857</ele><time>2026-04-12T10:40:09Z</time></trkpt><trkpt lat="49.98159268731406" lon="5.256971737409585"><ele>397.0</ele><time>2026-04-12T10:40:15Z</time></trkpt><trkpt lat="49.981596865675066" lon="5.256873834927696"><ele>397.42857142857144</ele><time>2026-04-12T10:40:20Z</time></trkpt><trkpt lat="49.981633548454965" lon="5.256792398051504"><ele>397.85714285714283</ele><time>2026-04-12T10:40:24Z</time></trkpt><trkpt lat="49.9816386087746" lon="5.256694017466058"><ele>398.28571428571433</ele><time>2026-04-12T10:40:30Z</time></trkpt><trkpt lat="49.981639307484514" lon="5.2565840081502655"><ele>398.7142857142857</ele><time>2026-04-12T10:40:39Z</time></trkpt><trkpt lat="49.98163338503957" lon="5.256471579770647"><ele>399.14285714285717</ele><time>2026-04-12T10:40:46Z</time></trkpt><trkpt lat="49.981614225880875" lon="5.256376721632299"><ele>399.5714285714286</ele><time>2026-04-12T10:40:51Z</time></trkpt><trkpt lat="49.98155820861061" lon="5.256296448882073"><ele>400.0</ele><time>2026-04-12T10:40:57Z</time></trkpt><trkpt lat="49.98148750857374" lon="5.25625642444319"><ele>400.42857142857144</ele><time>2026-04-12T10:41:01Z</time></trkpt><trkpt lat="49.981422574545086" lon="5.256248517267897"><ele>400.8571428571429</ele><time>2026-04-12T10:41:04Z</time></trkpt><trkpt lat="49.9813445654573" lon="5.256226867296819"><ele>401.28571428571433</ele><time>2026-04-12T10:41:08Z</time></trkpt><trkpt lat="49.98126732822991" lon="5.256217614261974"><ele>401.7142857142857</ele><time>2026-04-12T10:41:13Z</time></trkpt><trkpt lat="49.98119147472889" lon="5.25620722619099"><ele>402.1428571428571</ele><time>2026-04-12T10:41:19Z</time></trkpt><trkpt lat="49.98111936711875" lon="5.25619082261515"><ele>402.5714285714286</ele><time>2026-04-12T10:41:25Z</time></trkpt><trkpt lat="49.98106202628824" lon="5.256128907422366"><ele>403.0</ele><time>2026-04-12T10:41:32Z</time></trkpt><trkpt lat="49.98099604052038" lon="5.2561061065197885"><ele>403.0</ele><time>2026-04-12T10:41:48Z</time></trkpt><trkpt lat="49.98092818383512" lon="5.256124649034072"><ele>403.0</ele><time>2026-04-12T10:42:07Z</time></trkpt><trkpt lat="49.98086300037008" lon="5.25607481770984"><ele>403.0</ele><time>2026-04-12T10:42:13Z</time></trkpt><trkpt lat="49.98079370285203" lon="5.256061745291295"><ele>403.0</ele><time>2026-04-12T10:42:18Z</time></trkpt><trkpt lat="49.98073095538038" lon="5.256051456679722"><ele>403.0</ele><time>2026-04-12T10:42:24Z</time></trkpt><trkpt lat="49.98066942982702" lon="5.256075229175345"><ele>403.0</ele><time>2026-04-12T10:42:29Z</time></trkpt><trkpt lat="49.980595869810635" lon="5.256069588235672"><ele>403.0</ele><time>2026-04-12T10:42:35Z</time></trkpt><trkpt lat="49.980524110710036" lon="5.256063068014063"><ele>401.0</ele><time>2026-04-12T10:42:41Z</time></trkpt><trkpt lat="49.98046119265797" lon="5.2560751269222425"><ele>401.0</ele><time>2026-04-12T10:42:46Z</time></trkpt><trkpt lat="49.980389340139" lon="5.256047120257949"><ele>401.0</ele><time>2026-04-12T10:42:52Z</time></trkpt></trkseg></trk></gpx>